<?xml version="1.0" encoding="UTF-8" standalone="no" ?>
<gpx xmlns="http://www.topografix.com/GPX/1/1" xmlns:xsi="http://www.w3.org/2001/XMLSchema-instance" xsi:schemaLocation="http://www.topografix.com/GPX/1/1 http://www.topografix.com/GPX/1/1/gpx.xsd" version="1.1" creator="VisuGPX - https://www.visugpx.com">
  <metadata>
    <name>Champeaux</name>
  </metadata>
  <wpt lat="46.48388" lon="-0.36296">
    <ele>102</ele>
  </wpt>
  <wpt lat="46.49192" lon="-0.36001">
    <ele>100</ele>
  </wpt>
  <wpt lat="46.49195" lon="-0.36003">
    <ele>99.9</ele>
  </wpt>
  <wpt lat="46.49868" lon="-0.36803">
    <ele>144.8</ele>
  </wpt>
  <wpt lat="46.48976" lon="-0.37924">
    <ele>102.3</ele>
  </wpt>
  <wpt lat="46.48994" lon="-0.37953">
    <ele>103.6</ele>
  </wpt>
  <wpt lat="46.48997" lon="-0.38017">
    <ele>102.3</ele>
  </wpt>
  <trk>
    <name><![CDATA[Champeaux_1]]></name>
    <trkseg>
      <trkpt lat="46.48374" lon="-0.36306">
        <ele>102</ele>
        <time>2013-04-26T14:22:44Z</time>
      </trkpt>
      <trkpt lat="46.48374" lon="-0.36305">
        <ele>102</ele>
        <time>2013-04-26T14:22:59Z</time>
      </trkpt>
      <trkpt lat="46.48377" lon="-0.363">
        <ele>103</ele>
        <time>2013-04-26T14:23:04Z</time>
      </trkpt>
      <trkpt lat="46.48378" lon="-0.36301">
        <ele>103</ele>
        <time>2013-04-26T14:23:09Z</time>
      </trkpt>
      <trkpt lat="46.48379" lon="-0.363">
        <ele>103</ele>
        <time>2013-04-26T14:23:14Z</time>
      </trkpt>
      <trkpt lat="46.48384" lon="-0.36299">
        <ele>103</ele>
        <time>2013-04-26T14:23:19Z</time>
      </trkpt>
      <trkpt lat="46.48387" lon="-0.36296">
        <ele>103</ele>
        <time>2013-04-26T14:23:24Z</time>
      </trkpt>
      <trkpt lat="46.48388" lon="-0.36296">
        <ele>103</ele>
        <time>2013-04-26T14:23:29Z</time>
      </trkpt>
      <trkpt lat="46.48388" lon="-0.36296">
        <ele>103</ele>
        <time>2013-04-26T14:23:34Z</time>
      </trkpt>
      <trkpt lat="46.48389" lon="-0.36297">
        <ele>103</ele>
        <time>2013-04-26T14:23:39Z</time>
      </trkpt>
      <trkpt lat="46.48389" lon="-0.36298">
        <ele>103</ele>
        <time>2013-04-26T14:23:44Z</time>
      </trkpt>
      <trkpt lat="46.48393" lon="-0.36297">
        <ele>103</ele>
        <time>2013-04-26T14:23:49Z</time>
      </trkpt>
      <trkpt lat="46.48393" lon="-0.36297">
        <ele>103</ele>
        <time>2013-04-26T14:23:54Z</time>
      </trkpt>
      <trkpt lat="46.48396" lon="-0.36296">
        <ele>103</ele>
        <time>2013-04-26T14:23:59Z</time>
      </trkpt>
      <trkpt lat="46.48405" lon="-0.3629">
        <ele>103</ele>
        <time>2013-04-26T14:24:04Z</time>
      </trkpt>
      <trkpt lat="46.48412" lon="-0.36283">
        <ele>103</ele>
        <time>2013-04-26T14:24:09Z</time>
      </trkpt>
      <trkpt lat="46.48418" lon="-0.3628">
        <ele>103</ele>
        <time>2013-04-26T14:24:14Z</time>
      </trkpt>
      <trkpt lat="46.48423" lon="-0.36275">
        <ele>103</ele>
        <time>2013-04-26T14:24:19Z</time>
      </trkpt>
      <trkpt lat="46.48426" lon="-0.36272">
        <ele>103</ele>
        <time>2013-04-26T14:24:24Z</time>
      </trkpt>
      <trkpt lat="46.48432" lon="-0.36267">
        <ele>104</ele>
        <time>2013-04-26T14:24:29Z</time>
      </trkpt>
      <trkpt lat="46.4844" lon="-0.36256">
        <ele>104</ele>
        <time>2013-04-26T14:24:34Z</time>
      </trkpt>
      <trkpt lat="46.48448" lon="-0.36247">
        <ele>104</ele>
        <time>2013-04-26T14:24:39Z</time>
      </trkpt>
      <trkpt lat="46.48458" lon="-0.36238">
        <ele>104</ele>
        <time>2013-04-26T14:24:44Z</time>
      </trkpt>
      <trkpt lat="46.48464" lon="-0.3623">
        <ele>106</ele>
        <time>2013-04-26T14:24:49Z</time>
      </trkpt>
      <trkpt lat="46.4847" lon="-0.36222">
        <ele>106</ele>
        <time>2013-04-26T14:24:54Z</time>
      </trkpt>
      <trkpt lat="46.48476" lon="-0.36216">
        <ele>106</ele>
        <time>2013-04-26T14:24:59Z</time>
      </trkpt>
      <trkpt lat="46.48482" lon="-0.36209">
        <ele>106</ele>
        <time>2013-04-26T14:25:04Z</time>
      </trkpt>
      <trkpt lat="46.48486" lon="-0.36202">
        <ele>108</ele>
        <time>2013-04-26T14:25:09Z</time>
      </trkpt>
      <trkpt lat="46.4849" lon="-0.36197">
        <ele>108</ele>
        <time>2013-04-26T14:25:14Z</time>
      </trkpt>
      <trkpt lat="46.48494" lon="-0.36191">
        <ele>108</ele>
        <time>2013-04-26T14:25:19Z</time>
      </trkpt>
      <trkpt lat="46.48496" lon="-0.36186">
        <ele>108</ele>
        <time>2013-04-26T14:25:24Z</time>
      </trkpt>
      <trkpt lat="46.48496" lon="-0.3618">
        <ele>110</ele>
        <time>2013-04-26T14:25:29Z</time>
      </trkpt>
      <trkpt lat="46.48498" lon="-0.36173">
        <ele>110</ele>
        <time>2013-04-26T14:25:34Z</time>
      </trkpt>
      <trkpt lat="46.48501" lon="-0.36168">
        <ele>110</ele>
        <time>2013-04-26T14:25:39Z</time>
      </trkpt>
      <trkpt lat="46.48506" lon="-0.36158">
        <ele>110</ele>
        <time>2013-04-26T14:25:44Z</time>
      </trkpt>
      <trkpt lat="46.4851" lon="-0.3615">
        <ele>112</ele>
        <time>2013-04-26T14:25:49Z</time>
      </trkpt>
      <trkpt lat="46.48513" lon="-0.36144">
        <ele>112</ele>
        <time>2013-04-26T14:25:54Z</time>
      </trkpt>
      <trkpt lat="46.48517" lon="-0.36138">
        <ele>111</ele>
        <time>2013-04-26T14:25:59Z</time>
      </trkpt>
      <trkpt lat="46.48519" lon="-0.36129">
        <ele>111</ele>
        <time>2013-04-26T14:26:04Z</time>
      </trkpt>
      <trkpt lat="46.48521" lon="-0.36121">
        <ele>112</ele>
        <time>2013-04-26T14:26:09Z</time>
      </trkpt>
      <trkpt lat="46.48522" lon="-0.36114">
        <ele>112</ele>
        <time>2013-04-26T14:26:14Z</time>
      </trkpt>
      <trkpt lat="46.48526" lon="-0.36107">
        <ele>112</ele>
        <time>2013-04-26T14:26:19Z</time>
      </trkpt>
      <trkpt lat="46.48528" lon="-0.361">
        <ele>112</ele>
        <time>2013-04-26T14:26:24Z</time>
      </trkpt>
      <trkpt lat="46.4853" lon="-0.36093">
        <ele>113</ele>
        <time>2013-04-26T14:26:29Z</time>
      </trkpt>
      <trkpt lat="46.48529" lon="-0.36082">
        <ele>113</ele>
        <time>2013-04-26T14:26:34Z</time>
      </trkpt>
      <trkpt lat="46.48531" lon="-0.36072">
        <ele>113</ele>
        <time>2013-04-26T14:26:39Z</time>
      </trkpt>
      <trkpt lat="46.48535" lon="-0.36063">
        <ele>114</ele>
        <time>2013-04-26T14:26:44Z</time>
      </trkpt>
      <trkpt lat="46.48535" lon="-0.36053">
        <ele>114</ele>
        <time>2013-04-26T14:26:49Z</time>
      </trkpt>
      <trkpt lat="46.48536" lon="-0.36046">
        <ele>114</ele>
        <time>2013-04-26T14:26:54Z</time>
      </trkpt>
      <trkpt lat="46.48537" lon="-0.36039">
        <ele>113</ele>
        <time>2013-04-26T14:26:59Z</time>
      </trkpt>
      <trkpt lat="46.48536" lon="-0.36034">
        <ele>113</ele>
        <time>2013-04-26T14:27:04Z</time>
      </trkpt>
      <trkpt lat="46.48537" lon="-0.36025">
        <ele>113</ele>
        <time>2013-04-26T14:27:09Z</time>
      </trkpt>
      <trkpt lat="46.48538" lon="-0.36016">
        <ele>113</ele>
        <time>2013-04-26T14:27:14Z</time>
      </trkpt>
      <trkpt lat="46.48538" lon="-0.36007">
        <ele>115</ele>
        <time>2013-04-26T14:27:19Z</time>
      </trkpt>
      <trkpt lat="46.48539" lon="-0.35998">
        <ele>115</ele>
        <time>2013-04-26T14:27:24Z</time>
      </trkpt>
      <trkpt lat="46.48542" lon="-0.35991">
        <ele>112</ele>
        <time>2013-04-26T14:27:29Z</time>
      </trkpt>
      <trkpt lat="46.48542" lon="-0.35982">
        <ele>114</ele>
        <time>2013-04-26T14:27:34Z</time>
      </trkpt>
      <trkpt lat="46.48543" lon="-0.35975">
        <ele>114</ele>
        <time>2013-04-26T14:27:39Z</time>
      </trkpt>
      <trkpt lat="46.48546" lon="-0.35967">
        <ele>114</ele>
        <time>2013-04-26T14:27:44Z</time>
      </trkpt>
      <trkpt lat="46.48547" lon="-0.3596">
        <ele>114</ele>
        <time>2013-04-26T14:27:49Z</time>
      </trkpt>
      <trkpt lat="46.48549" lon="-0.35953">
        <ele>117</ele>
        <time>2013-04-26T14:27:54Z</time>
      </trkpt>
      <trkpt lat="46.4855" lon="-0.35946">
        <ele>117</ele>
        <time>2013-04-26T14:27:59Z</time>
      </trkpt>
      <trkpt lat="46.48553" lon="-0.35938">
        <ele>117</ele>
        <time>2013-04-26T14:28:04Z</time>
      </trkpt>
      <trkpt lat="46.48555" lon="-0.35929">
        <ele>118</ele>
        <time>2013-04-26T14:28:09Z</time>
      </trkpt>
      <trkpt lat="46.48556" lon="-0.35921">
        <ele>118</ele>
        <time>2013-04-26T14:28:14Z</time>
      </trkpt>
      <trkpt lat="46.48557" lon="-0.35912">
        <ele>118</ele>
        <time>2013-04-26T14:28:19Z</time>
      </trkpt>
      <trkpt lat="46.4856" lon="-0.35905">
        <ele>118</ele>
        <time>2013-04-26T14:28:24Z</time>
      </trkpt>
      <trkpt lat="46.4856" lon="-0.35895">
        <ele>117</ele>
        <time>2013-04-26T14:28:29Z</time>
      </trkpt>
      <trkpt lat="46.48562" lon="-0.35887">
        <ele>117</ele>
        <time>2013-04-26T14:28:34Z</time>
      </trkpt>
      <trkpt lat="46.48564" lon="-0.35881">
        <ele>117</ele>
        <time>2013-04-26T14:28:39Z</time>
      </trkpt>
      <trkpt lat="46.48564" lon="-0.35872">
        <ele>116</ele>
        <time>2013-04-26T14:28:44Z</time>
      </trkpt>
      <trkpt lat="46.48566" lon="-0.35863">
        <ele>116</ele>
        <time>2013-04-26T14:28:49Z</time>
      </trkpt>
      <trkpt lat="46.48567" lon="-0.35856">
        <ele>116</ele>
        <time>2013-04-26T14:28:54Z</time>
      </trkpt>
      <trkpt lat="46.48568" lon="-0.35848">
        <ele>116</ele>
        <time>2013-04-26T14:28:59Z</time>
      </trkpt>
      <trkpt lat="46.48569" lon="-0.35841">
        <ele>116</ele>
        <time>2013-04-26T14:29:04Z</time>
      </trkpt>
      <trkpt lat="46.48569" lon="-0.35834">
        <ele>116</ele>
        <time>2013-04-26T14:29:09Z</time>
      </trkpt>
      <trkpt lat="46.48568" lon="-0.35828">
        <ele>116</ele>
        <time>2013-04-26T14:29:14Z</time>
      </trkpt>
      <trkpt lat="46.48566" lon="-0.35821">
        <ele>116</ele>
        <time>2013-04-26T14:29:19Z</time>
      </trkpt>
      <trkpt lat="46.48565" lon="-0.35814">
        <ele>116</ele>
        <time>2013-04-26T14:29:24Z</time>
      </trkpt>
      <trkpt lat="46.48564" lon="-0.35807">
        <ele>116</ele>
        <time>2013-04-26T14:29:29Z</time>
      </trkpt>
      <trkpt lat="46.48562" lon="-0.35802">
        <ele>116</ele>
        <time>2013-04-26T14:29:34Z</time>
      </trkpt>
      <trkpt lat="46.48562" lon="-0.358">
        <ele>116</ele>
        <time>2013-04-26T14:29:39Z</time>
      </trkpt>
      <trkpt lat="46.48562" lon="-0.358">
        <ele>116</ele>
        <time>2013-04-26T14:29:44Z</time>
      </trkpt>
      <trkpt lat="46.48562" lon="-0.35799">
        <ele>116</ele>
        <time>2013-04-26T14:29:49Z</time>
      </trkpt>
      <trkpt lat="46.48561" lon="-0.35798">
        <ele>116</ele>
        <time>2013-04-26T14:29:54Z</time>
      </trkpt>
      <trkpt lat="46.48563" lon="-0.35795">
        <ele>116</ele>
        <time>2013-04-26T14:29:59Z</time>
      </trkpt>
      <trkpt lat="46.48566" lon="-0.35789">
        <ele>116</ele>
        <time>2013-04-26T14:30:04Z</time>
      </trkpt>
      <trkpt lat="46.48569" lon="-0.35781">
        <ele>116</ele>
        <time>2013-04-26T14:30:09Z</time>
      </trkpt>
      <trkpt lat="46.48572" lon="-0.35777">
        <ele>114</ele>
        <time>2013-04-26T14:30:14Z</time>
      </trkpt>
      <trkpt lat="46.48575" lon="-0.35774">
        <ele>114</ele>
        <time>2013-04-26T14:30:19Z</time>
      </trkpt>
      <trkpt lat="46.48578" lon="-0.35769">
        <ele>114</ele>
        <time>2013-04-26T14:30:24Z</time>
      </trkpt>
      <trkpt lat="46.48581" lon="-0.35764">
        <ele>114</ele>
        <time>2013-04-26T14:30:29Z</time>
      </trkpt>
      <trkpt lat="46.48584" lon="-0.3576">
        <ele>114</ele>
        <time>2013-04-26T14:30:34Z</time>
      </trkpt>
      <trkpt lat="46.48589" lon="-0.35754">
        <ele>114</ele>
        <time>2013-04-26T14:30:39Z</time>
      </trkpt>
      <trkpt lat="46.48594" lon="-0.35748">
        <ele>114</ele>
        <time>2013-04-26T14:30:44Z</time>
      </trkpt>
      <trkpt lat="46.48597" lon="-0.35743">
        <ele>114</ele>
        <time>2013-04-26T14:30:49Z</time>
      </trkpt>
      <trkpt lat="46.48599" lon="-0.35739">
        <ele>114</ele>
        <time>2013-04-26T14:30:54Z</time>
      </trkpt>
      <trkpt lat="46.48602" lon="-0.35735">
        <ele>115</ele>
        <time>2013-04-26T14:30:59Z</time>
      </trkpt>
      <trkpt lat="46.48608" lon="-0.35728">
        <ele>115</ele>
        <time>2013-04-26T14:31:04Z</time>
      </trkpt>
      <trkpt lat="46.48611" lon="-0.35722">
        <ele>115</ele>
        <time>2013-04-26T14:31:09Z</time>
      </trkpt>
      <trkpt lat="46.48616" lon="-0.35717">
        <ele>115</ele>
        <time>2013-04-26T14:31:14Z</time>
      </trkpt>
      <trkpt lat="46.48617" lon="-0.35713">
        <ele>115</ele>
        <time>2013-04-26T14:31:19Z</time>
      </trkpt>
      <trkpt lat="46.48621" lon="-0.35709">
        <ele>115</ele>
        <time>2013-04-26T14:31:24Z</time>
      </trkpt>
      <trkpt lat="46.48625" lon="-0.3571">
        <ele>115</ele>
        <time>2013-04-26T14:31:29Z</time>
      </trkpt>
      <trkpt lat="46.48635" lon="-0.35704">
        <ele>116</ele>
        <time>2013-04-26T14:31:34Z</time>
      </trkpt>
      <trkpt lat="46.48646" lon="-0.35706">
        <ele>116</ele>
        <time>2013-04-26T14:31:39Z</time>
      </trkpt>
      <trkpt lat="46.48655" lon="-0.35704">
        <ele>116</ele>
        <time>2013-04-26T14:31:44Z</time>
      </trkpt>
      <trkpt lat="46.4866" lon="-0.35707">
        <ele>116</ele>
        <time>2013-04-26T14:31:49Z</time>
      </trkpt>
      <trkpt lat="46.48666" lon="-0.35707">
        <ele>116</ele>
        <time>2013-04-26T14:31:54Z</time>
      </trkpt>
      <trkpt lat="46.48671" lon="-0.35708">
        <ele>116</ele>
        <time>2013-04-26T14:31:59Z</time>
      </trkpt>
      <trkpt lat="46.48675" lon="-0.3571">
        <ele>116</ele>
        <time>2013-04-26T14:32:04Z</time>
      </trkpt>
      <trkpt lat="46.48676" lon="-0.35714">
        <ele>116</ele>
        <time>2013-04-26T14:32:09Z</time>
      </trkpt>
      <trkpt lat="46.48683" lon="-0.35717">
        <ele>116</ele>
        <time>2013-04-26T14:32:14Z</time>
      </trkpt>
      <trkpt lat="46.48687" lon="-0.35722">
        <ele>116</ele>
        <time>2013-04-26T14:32:19Z</time>
      </trkpt>
      <trkpt lat="46.48691" lon="-0.35728">
        <ele>116</ele>
        <time>2013-04-26T14:32:24Z</time>
      </trkpt>
      <trkpt lat="46.48696" lon="-0.35734">
        <ele>116</ele>
        <time>2013-04-26T14:32:29Z</time>
      </trkpt>
      <trkpt lat="46.48701" lon="-0.3574">
        <ele>115</ele>
        <time>2013-04-26T14:32:34Z</time>
      </trkpt>
      <trkpt lat="46.48707" lon="-0.35745">
        <ele>115</ele>
        <time>2013-04-26T14:32:39Z</time>
      </trkpt>
      <trkpt lat="46.48711" lon="-0.3575">
        <ele>115</ele>
        <time>2013-04-26T14:32:44Z</time>
      </trkpt>
      <trkpt lat="46.48716" lon="-0.35753">
        <ele>115</ele>
        <time>2013-04-26T14:32:49Z</time>
      </trkpt>
      <trkpt lat="46.48721" lon="-0.35757">
        <ele>115</ele>
        <time>2013-04-26T14:32:54Z</time>
      </trkpt>
      <trkpt lat="46.48728" lon="-0.35758">
        <ele>115</ele>
        <time>2013-04-26T14:32:59Z</time>
      </trkpt>
      <trkpt lat="46.48735" lon="-0.35758">
        <ele>115</ele>
        <time>2013-04-26T14:33:04Z</time>
      </trkpt>
      <trkpt lat="46.48738" lon="-0.3576">
        <ele>116</ele>
        <time>2013-04-26T14:33:09Z</time>
      </trkpt>
      <trkpt lat="46.48747" lon="-0.35762">
        <ele>116</ele>
        <time>2013-04-26T14:33:14Z</time>
      </trkpt>
      <trkpt lat="46.48755" lon="-0.35764">
        <ele>116</ele>
        <time>2013-04-26T14:33:19Z</time>
      </trkpt>
      <trkpt lat="46.48763" lon="-0.35762">
        <ele>116</ele>
        <time>2013-04-26T14:33:24Z</time>
      </trkpt>
      <trkpt lat="46.48769" lon="-0.35764">
        <ele>116</ele>
        <time>2013-04-26T14:33:29Z</time>
      </trkpt>
      <trkpt lat="46.48776" lon="-0.35767">
        <ele>116</ele>
        <time>2013-04-26T14:33:34Z</time>
      </trkpt>
      <trkpt lat="46.48782" lon="-0.35767">
        <ele>116</ele>
        <time>2013-04-26T14:33:39Z</time>
      </trkpt>
      <trkpt lat="46.48787" lon="-0.35766">
        <ele>116</ele>
        <time>2013-04-26T14:33:44Z</time>
      </trkpt>
      <trkpt lat="46.48792" lon="-0.35765">
        <ele>116</ele>
        <time>2013-04-26T14:33:49Z</time>
      </trkpt>
      <trkpt lat="46.48798" lon="-0.35765">
        <ele>116</ele>
        <time>2013-04-26T14:33:54Z</time>
      </trkpt>
      <trkpt lat="46.48804" lon="-0.35764">
        <ele>116</ele>
        <time>2013-04-26T14:33:59Z</time>
      </trkpt>
      <trkpt lat="46.48811" lon="-0.35766">
        <ele>116</ele>
        <time>2013-04-26T14:34:04Z</time>
      </trkpt>
      <trkpt lat="46.48818" lon="-0.35766">
        <ele>116</ele>
        <time>2013-04-26T14:34:09Z</time>
      </trkpt>
      <trkpt lat="46.48823" lon="-0.35766">
        <ele>116</ele>
        <time>2013-04-26T14:34:14Z</time>
      </trkpt>
      <trkpt lat="46.4883" lon="-0.35767">
        <ele>116</ele>
        <time>2013-04-26T14:34:19Z</time>
      </trkpt>
      <trkpt lat="46.48837" lon="-0.35767">
        <ele>116</ele>
        <time>2013-04-26T14:34:24Z</time>
      </trkpt>
      <trkpt lat="46.48844" lon="-0.35766">
        <ele>116</ele>
        <time>2013-04-26T14:34:29Z</time>
      </trkpt>
      <trkpt lat="46.48849" lon="-0.35766">
        <ele>117</ele>
        <time>2013-04-26T14:34:34Z</time>
      </trkpt>
      <trkpt lat="46.48854" lon="-0.35764">
        <ele>118</ele>
        <time>2013-04-26T14:34:39Z</time>
      </trkpt>
      <trkpt lat="46.48859" lon="-0.35761">
        <ele>118</ele>
        <time>2013-04-26T14:34:44Z</time>
      </trkpt>
      <trkpt lat="46.48865" lon="-0.35758">
        <ele>118</ele>
        <time>2013-04-26T14:34:49Z</time>
      </trkpt>
      <trkpt lat="46.4887" lon="-0.35756">
        <ele>118</ele>
        <time>2013-04-26T14:34:54Z</time>
      </trkpt>
      <trkpt lat="46.48871" lon="-0.35751">
        <ele>118</ele>
        <time>2013-04-26T14:34:59Z</time>
      </trkpt>
      <trkpt lat="46.48875" lon="-0.35747">
        <ele>118</ele>
        <time>2013-04-26T14:35:04Z</time>
      </trkpt>
      <trkpt lat="46.48879" lon="-0.35742">
        <ele>119</ele>
        <time>2013-04-26T14:35:09Z</time>
      </trkpt>
      <trkpt lat="46.48881" lon="-0.35736">
        <ele>120</ele>
        <time>2013-04-26T14:35:14Z</time>
      </trkpt>
      <trkpt lat="46.48885" lon="-0.3573">
        <ele>120</ele>
        <time>2013-04-26T14:35:19Z</time>
      </trkpt>
      <trkpt lat="46.48887" lon="-0.35727">
        <ele>120</ele>
        <time>2013-04-26T14:35:24Z</time>
      </trkpt>
      <trkpt lat="46.48892" lon="-0.35722">
        <ele>120</ele>
        <time>2013-04-26T14:35:29Z</time>
      </trkpt>
      <trkpt lat="46.48897" lon="-0.35718">
        <ele>120</ele>
        <time>2013-04-26T14:35:34Z</time>
      </trkpt>
      <trkpt lat="46.48902" lon="-0.35711">
        <ele>120</ele>
        <time>2013-04-26T14:35:39Z</time>
      </trkpt>
      <trkpt lat="46.48906" lon="-0.35708">
        <ele>120</ele>
        <time>2013-04-26T14:35:44Z</time>
      </trkpt>
      <trkpt lat="46.4891" lon="-0.35707">
        <ele>120</ele>
        <time>2013-04-26T14:35:49Z</time>
      </trkpt>
      <trkpt lat="46.48917" lon="-0.35701">
        <ele>120</ele>
        <time>2013-04-26T14:35:54Z</time>
      </trkpt>
      <trkpt lat="46.48923" lon="-0.35702">
        <ele>120</ele>
        <time>2013-04-26T14:35:59Z</time>
      </trkpt>
      <trkpt lat="46.48928" lon="-0.35708">
        <ele>120</ele>
        <time>2013-04-26T14:36:04Z</time>
      </trkpt>
      <trkpt lat="46.48933" lon="-0.35713">
        <ele>117</ele>
        <time>2013-04-26T14:36:09Z</time>
      </trkpt>
      <trkpt lat="46.48936" lon="-0.35718">
        <ele>117</ele>
        <time>2013-04-26T14:36:14Z</time>
      </trkpt>
      <trkpt lat="46.48941" lon="-0.35725">
        <ele>117</ele>
        <time>2013-04-26T14:36:19Z</time>
      </trkpt>
      <trkpt lat="46.48944" lon="-0.35731">
        <ele>117</ele>
        <time>2013-04-26T14:36:24Z</time>
      </trkpt>
      <trkpt lat="46.48948" lon="-0.35738">
        <ele>116</ele>
        <time>2013-04-26T14:36:29Z</time>
      </trkpt>
      <trkpt lat="46.48951" lon="-0.35744">
        <ele>116</ele>
        <time>2013-04-26T14:36:34Z</time>
      </trkpt>
      <trkpt lat="46.48953" lon="-0.3575">
        <ele>116</ele>
        <time>2013-04-26T14:36:39Z</time>
      </trkpt>
      <trkpt lat="46.48959" lon="-0.35757">
        <ele>115</ele>
        <time>2013-04-26T14:36:44Z</time>
      </trkpt>
      <trkpt lat="46.48962" lon="-0.35765">
        <ele>114</ele>
        <time>2013-04-26T14:36:49Z</time>
      </trkpt>
      <trkpt lat="46.48966" lon="-0.35772">
        <ele>114</ele>
        <time>2013-04-26T14:36:54Z</time>
      </trkpt>
      <trkpt lat="46.48969" lon="-0.35779">
        <ele>114</ele>
        <time>2013-04-26T14:36:59Z</time>
      </trkpt>
      <trkpt lat="46.48974" lon="-0.35784">
        <ele>114</ele>
        <time>2013-04-26T14:37:04Z</time>
      </trkpt>
      <trkpt lat="46.48978" lon="-0.35791">
        <ele>114</ele>
        <time>2013-04-26T14:37:09Z</time>
      </trkpt>
      <trkpt lat="46.48983" lon="-0.35798">
        <ele>114</ele>
        <time>2013-04-26T14:37:14Z</time>
      </trkpt>
      <trkpt lat="46.48989" lon="-0.35804">
        <ele>113</ele>
        <time>2013-04-26T14:37:19Z</time>
      </trkpt>
      <trkpt lat="46.48993" lon="-0.35809">
        <ele>113</ele>
        <time>2013-04-26T14:37:24Z</time>
      </trkpt>
      <trkpt lat="46.48997" lon="-0.35815">
        <ele>113</ele>
        <time>2013-04-26T14:37:29Z</time>
      </trkpt>
      <trkpt lat="46.49" lon="-0.35821">
        <ele>113</ele>
        <time>2013-04-26T14:37:34Z</time>
      </trkpt>
      <trkpt lat="46.49006" lon="-0.35826">
        <ele>113</ele>
        <time>2013-04-26T14:37:39Z</time>
      </trkpt>
      <trkpt lat="46.49009" lon="-0.35832">
        <ele>113</ele>
        <time>2013-04-26T14:37:44Z</time>
      </trkpt>
      <trkpt lat="46.49014" lon="-0.35838">
        <ele>113</ele>
        <time>2013-04-26T14:37:49Z</time>
      </trkpt>
      <trkpt lat="46.49018" lon="-0.35845">
        <ele>112</ele>
        <time>2013-04-26T14:37:54Z</time>
      </trkpt>
      <trkpt lat="46.4902" lon="-0.35851">
        <ele>111</ele>
        <time>2013-04-26T14:37:59Z</time>
      </trkpt>
      <trkpt lat="46.49025" lon="-0.3586">
        <ele>111</ele>
        <time>2013-04-26T14:38:04Z</time>
      </trkpt>
      <trkpt lat="46.49028" lon="-0.35866">
        <ele>111</ele>
        <time>2013-04-26T14:38:09Z</time>
      </trkpt>
      <trkpt lat="46.4903" lon="-0.35875">
        <ele>111</ele>
        <time>2013-04-26T14:38:14Z</time>
      </trkpt>
      <trkpt lat="46.49033" lon="-0.35883">
        <ele>110</ele>
        <time>2013-04-26T14:38:19Z</time>
      </trkpt>
      <trkpt lat="46.49035" lon="-0.35892">
        <ele>110</ele>
        <time>2013-04-26T14:38:24Z</time>
      </trkpt>
      <trkpt lat="46.49037" lon="-0.35901">
        <ele>110</ele>
        <time>2013-04-26T14:38:29Z</time>
      </trkpt>
      <trkpt lat="46.4904" lon="-0.35909">
        <ele>109</ele>
        <time>2013-04-26T14:38:34Z</time>
      </trkpt>
      <trkpt lat="46.49041" lon="-0.35917">
        <ele>109</ele>
        <time>2013-04-26T14:38:39Z</time>
      </trkpt>
      <trkpt lat="46.49043" lon="-0.35926">
        <ele>108</ele>
        <time>2013-04-26T14:38:44Z</time>
      </trkpt>
      <trkpt lat="46.49044" lon="-0.35933">
        <ele>107</ele>
        <time>2013-04-26T14:38:49Z</time>
      </trkpt>
      <trkpt lat="46.49047" lon="-0.35941">
        <ele>107</ele>
        <time>2013-04-26T14:38:54Z</time>
      </trkpt>
      <trkpt lat="46.49051" lon="-0.3595">
        <ele>107</ele>
        <time>2013-04-26T14:38:59Z</time>
      </trkpt>
      <trkpt lat="46.49053" lon="-0.35956">
        <ele>107</ele>
        <time>2013-04-26T14:39:04Z</time>
      </trkpt>
      <trkpt lat="46.49056" lon="-0.35965">
        <ele>105</ele>
        <time>2013-04-26T14:39:09Z</time>
      </trkpt>
      <trkpt lat="46.49057" lon="-0.35971">
        <ele>105</ele>
        <time>2013-04-26T14:39:14Z</time>
      </trkpt>
      <trkpt lat="46.49061" lon="-0.3598">
        <ele>105</ele>
        <time>2013-04-26T14:39:19Z</time>
      </trkpt>
      <trkpt lat="46.49068" lon="-0.35985">
        <ele>105</ele>
        <time>2013-04-26T14:39:24Z</time>
      </trkpt>
      <trkpt lat="46.49073" lon="-0.35991">
        <ele>105</ele>
        <time>2013-04-26T14:39:29Z</time>
      </trkpt>
      <trkpt lat="46.49078" lon="-0.35997">
        <ele>105</ele>
        <time>2013-04-26T14:39:34Z</time>
      </trkpt>
      <trkpt lat="46.49083" lon="-0.36002">
        <ele>105</ele>
        <time>2013-04-26T14:39:39Z</time>
      </trkpt>
      <trkpt lat="46.49088" lon="-0.36008">
        <ele>105</ele>
        <time>2013-04-26T14:39:44Z</time>
      </trkpt>
      <trkpt lat="46.49092" lon="-0.36015">
        <ele>103</ele>
        <time>2013-04-26T14:39:49Z</time>
      </trkpt>
      <trkpt lat="46.49097" lon="-0.36016">
        <ele>103</ele>
        <time>2013-04-26T14:39:54Z</time>
      </trkpt>
      <trkpt lat="46.49103" lon="-0.3602">
        <ele>102</ele>
        <time>2013-04-26T14:39:59Z</time>
      </trkpt>
      <trkpt lat="46.49108" lon="-0.36022">
        <ele>102</ele>
        <time>2013-04-26T14:40:04Z</time>
      </trkpt>
      <trkpt lat="46.49112" lon="-0.36023">
        <ele>102</ele>
        <time>2013-04-26T14:40:09Z</time>
      </trkpt>
      <trkpt lat="46.49119" lon="-0.36023">
        <ele>102</ele>
        <time>2013-04-26T14:40:14Z</time>
      </trkpt>
      <trkpt lat="46.49124" lon="-0.36022">
        <ele>102</ele>
        <time>2013-04-26T14:40:19Z</time>
      </trkpt>
      <trkpt lat="46.49129" lon="-0.36021">
        <ele>102</ele>
        <time>2013-04-26T14:40:24Z</time>
      </trkpt>
      <trkpt lat="46.49136" lon="-0.36018">
        <ele>102</ele>
        <time>2013-04-26T14:40:29Z</time>
      </trkpt>
      <trkpt lat="46.49142" lon="-0.36015">
        <ele>102</ele>
        <time>2013-04-26T14:40:34Z</time>
      </trkpt>
      <trkpt lat="46.49149" lon="-0.36013">
        <ele>104</ele>
        <time>2013-04-26T14:40:39Z</time>
      </trkpt>
      <trkpt lat="46.49152" lon="-0.3601">
        <ele>104</ele>
        <time>2013-04-26T14:40:44Z</time>
      </trkpt>
      <trkpt lat="46.49156" lon="-0.36007">
        <ele>103</ele>
        <time>2013-04-26T14:40:49Z</time>
      </trkpt>
      <trkpt lat="46.4916" lon="-0.36002">
        <ele>103</ele>
        <time>2013-04-26T14:40:54Z</time>
      </trkpt>
      <trkpt lat="46.49167" lon="-0.35994">
        <ele>103</ele>
        <time>2013-04-26T14:40:59Z</time>
      </trkpt>
      <trkpt lat="46.49172" lon="-0.35993">
        <ele>103</ele>
        <time>2013-04-26T14:41:04Z</time>
      </trkpt>
      <trkpt lat="46.49173" lon="-0.35994">
        <ele>103</ele>
        <time>2013-04-26T14:41:09Z</time>
      </trkpt>
      <trkpt lat="46.49184" lon="-0.35996">
        <ele>105</ele>
        <time>2013-04-26T14:41:14Z</time>
      </trkpt>
      <trkpt lat="46.4919" lon="-0.36">
        <ele>105</ele>
        <time>2013-04-26T14:41:19Z</time>
      </trkpt>
      <trkpt lat="46.49191" lon="-0.36001">
        <ele>105</ele>
        <time>2013-04-26T14:41:24Z</time>
      </trkpt>
      <trkpt lat="46.49192" lon="-0.36001">
        <ele>105</ele>
        <time>2013-04-26T14:41:29Z</time>
      </trkpt>
      <trkpt lat="46.49193" lon="-0.36">
        <ele>105</ele>
        <time>2013-04-26T14:41:34Z</time>
      </trkpt>
      <trkpt lat="46.49194" lon="-0.36001">
        <ele>105</ele>
        <time>2013-04-26T14:41:44Z</time>
      </trkpt>
      <trkpt lat="46.49194" lon="-0.36001">
        <ele>105</ele>
        <time>2013-04-26T14:42:14Z</time>
      </trkpt>
      <trkpt lat="46.49194" lon="-0.36002">
        <ele>105</ele>
        <time>2013-04-26T14:42:19Z</time>
      </trkpt>
      <trkpt lat="46.49195" lon="-0.36002">
        <ele>105</ele>
        <time>2013-04-26T14:42:24Z</time>
      </trkpt>
      <trkpt lat="46.49195" lon="-0.36002">
        <ele>105</ele>
        <time>2013-04-26T14:42:29Z</time>
      </trkpt>
      <trkpt lat="46.49195" lon="-0.36003">
        <ele>105</ele>
        <time>2013-04-26T14:42:34Z</time>
      </trkpt>
      <trkpt lat="46.49195" lon="-0.36001">
        <ele>105</ele>
        <time>2013-04-26T14:43:14Z</time>
      </trkpt>
      <trkpt lat="46.49195" lon="-0.36002">
        <ele>105</ele>
        <time>2013-04-26T14:43:19Z</time>
      </trkpt>
      <trkpt lat="46.49194" lon="-0.36001">
        <ele>105</ele>
        <time>2013-04-26T14:43:29Z</time>
      </trkpt>
      <trkpt lat="46.49194" lon="-0.36004">
        <ele>105</ele>
        <time>2013-04-26T14:43:59Z</time>
      </trkpt>
      <trkpt lat="46.49195" lon="-0.36004">
        <ele>105</ele>
        <time>2013-04-26T14:44:04Z</time>
      </trkpt>
      <trkpt lat="46.49195" lon="-0.36005">
        <ele>105</ele>
        <time>2013-04-26T14:44:09Z</time>
      </trkpt>
      <trkpt lat="46.49197" lon="-0.36011">
        <ele>105</ele>
        <time>2013-04-26T14:44:14Z</time>
      </trkpt>
      <trkpt lat="46.492" lon="-0.36018">
        <ele>102</ele>
        <time>2013-04-26T14:44:19Z</time>
      </trkpt>
      <trkpt lat="46.49202" lon="-0.36024">
        <ele>102</ele>
        <time>2013-04-26T14:44:24Z</time>
      </trkpt>
      <trkpt lat="46.49205" lon="-0.36028">
        <ele>102</ele>
        <time>2013-04-26T14:44:29Z</time>
      </trkpt>
      <trkpt lat="46.49206" lon="-0.36032">
        <ele>102</ele>
        <time>2013-04-26T14:44:34Z</time>
      </trkpt>
      <trkpt lat="46.49209" lon="-0.36036">
        <ele>104</ele>
        <time>2013-04-26T14:44:39Z</time>
      </trkpt>
      <trkpt lat="46.49212" lon="-0.36039">
        <ele>104</ele>
        <time>2013-04-26T14:44:44Z</time>
      </trkpt>
      <trkpt lat="46.49215" lon="-0.36045">
        <ele>103</ele>
        <time>2013-04-26T14:44:49Z</time>
      </trkpt>
      <trkpt lat="46.49217" lon="-0.3605">
        <ele>103</ele>
        <time>2013-04-26T14:44:54Z</time>
      </trkpt>
      <trkpt lat="46.49221" lon="-0.36055">
        <ele>103</ele>
        <time>2013-04-26T14:44:59Z</time>
      </trkpt>
      <trkpt lat="46.49224" lon="-0.36061">
        <ele>103</ele>
        <time>2013-04-26T14:45:04Z</time>
      </trkpt>
      <trkpt lat="46.49227" lon="-0.36068">
        <ele>103</ele>
        <time>2013-04-26T14:45:09Z</time>
      </trkpt>
      <trkpt lat="46.49231" lon="-0.36073">
        <ele>103</ele>
        <time>2013-04-26T14:45:14Z</time>
      </trkpt>
      <trkpt lat="46.49234" lon="-0.36081">
        <ele>103</ele>
        <time>2013-04-26T14:45:19Z</time>
      </trkpt>
      <trkpt lat="46.49238" lon="-0.36087">
        <ele>106</ele>
        <time>2013-04-26T14:45:24Z</time>
      </trkpt>
      <trkpt lat="46.49241" lon="-0.36096">
        <ele>106</ele>
        <time>2013-04-26T14:45:29Z</time>
      </trkpt>
      <trkpt lat="46.49246" lon="-0.36103">
        <ele>106</ele>
        <time>2013-04-26T14:45:34Z</time>
      </trkpt>
      <trkpt lat="46.4925" lon="-0.36111">
        <ele>106</ele>
        <time>2013-04-26T14:45:39Z</time>
      </trkpt>
      <trkpt lat="46.49252" lon="-0.36118">
        <ele>106</ele>
        <time>2013-04-26T14:45:44Z</time>
      </trkpt>
      <trkpt lat="46.49255" lon="-0.36125">
        <ele>107</ele>
        <time>2013-04-26T14:45:49Z</time>
      </trkpt>
      <trkpt lat="46.49258" lon="-0.36131">
        <ele>107</ele>
        <time>2013-04-26T14:45:54Z</time>
      </trkpt>
      <trkpt lat="46.4926" lon="-0.36137">
        <ele>107</ele>
        <time>2013-04-26T14:45:59Z</time>
      </trkpt>
      <trkpt lat="46.49262" lon="-0.36144">
        <ele>107</ele>
        <time>2013-04-26T14:46:04Z</time>
      </trkpt>
      <trkpt lat="46.49265" lon="-0.36152">
        <ele>109</ele>
        <time>2013-04-26T14:46:09Z</time>
      </trkpt>
      <trkpt lat="46.49268" lon="-0.3616">
        <ele>110</ele>
        <time>2013-04-26T14:46:14Z</time>
      </trkpt>
      <trkpt lat="46.49272" lon="-0.36167">
        <ele>110</ele>
        <time>2013-04-26T14:46:19Z</time>
      </trkpt>
      <trkpt lat="46.49274" lon="-0.36173">
        <ele>110</ele>
        <time>2013-04-26T14:46:24Z</time>
      </trkpt>
      <trkpt lat="46.49276" lon="-0.3618">
        <ele>110</ele>
        <time>2013-04-26T14:46:29Z</time>
      </trkpt>
      <trkpt lat="46.49279" lon="-0.36185">
        <ele>111</ele>
        <time>2013-04-26T14:46:34Z</time>
      </trkpt>
      <trkpt lat="46.49282" lon="-0.36191">
        <ele>111</ele>
        <time>2013-04-26T14:46:39Z</time>
      </trkpt>
      <trkpt lat="46.49287" lon="-0.36197">
        <ele>111</ele>
        <time>2013-04-26T14:46:44Z</time>
      </trkpt>
      <trkpt lat="46.4929" lon="-0.36203">
        <ele>111</ele>
        <time>2013-04-26T14:46:49Z</time>
      </trkpt>
      <trkpt lat="46.49294" lon="-0.36208">
        <ele>112</ele>
        <time>2013-04-26T14:46:54Z</time>
      </trkpt>
      <trkpt lat="46.49297" lon="-0.36214">
        <ele>113</ele>
        <time>2013-04-26T14:46:59Z</time>
      </trkpt>
      <trkpt lat="46.49301" lon="-0.36219">
        <ele>113</ele>
        <time>2013-04-26T14:47:04Z</time>
      </trkpt>
      <trkpt lat="46.49304" lon="-0.36225">
        <ele>113</ele>
        <time>2013-04-26T14:47:09Z</time>
      </trkpt>
      <trkpt lat="46.49308" lon="-0.36229">
        <ele>113</ele>
        <time>2013-04-26T14:47:14Z</time>
      </trkpt>
      <trkpt lat="46.49314" lon="-0.36235">
        <ele>113</ele>
        <time>2013-04-26T14:47:19Z</time>
      </trkpt>
      <trkpt lat="46.49316" lon="-0.36241">
        <ele>114</ele>
        <time>2013-04-26T14:47:24Z</time>
      </trkpt>
      <trkpt lat="46.49321" lon="-0.36245">
        <ele>114</ele>
        <time>2013-04-26T14:47:29Z</time>
      </trkpt>
      <trkpt lat="46.49323" lon="-0.36251">
        <ele>114</ele>
        <time>2013-04-26T14:47:34Z</time>
      </trkpt>
      <trkpt lat="46.49325" lon="-0.36255">
        <ele>114</ele>
        <time>2013-04-26T14:47:39Z</time>
      </trkpt>
      <trkpt lat="46.49331" lon="-0.36262">
        <ele>114</ele>
        <time>2013-04-26T14:47:44Z</time>
      </trkpt>
      <trkpt lat="46.49336" lon="-0.36268">
        <ele>116</ele>
        <time>2013-04-26T14:47:49Z</time>
      </trkpt>
      <trkpt lat="46.49342" lon="-0.36274">
        <ele>116</ele>
        <time>2013-04-26T14:47:54Z</time>
      </trkpt>
      <trkpt lat="46.49344" lon="-0.36278">
        <ele>116</ele>
        <time>2013-04-26T14:47:59Z</time>
      </trkpt>
      <trkpt lat="46.49348" lon="-0.36285">
        <ele>118</ele>
        <time>2013-04-26T14:48:04Z</time>
      </trkpt>
      <trkpt lat="46.4935" lon="-0.36289">
        <ele>118</ele>
        <time>2013-04-26T14:48:09Z</time>
      </trkpt>
      <trkpt lat="46.49354" lon="-0.36295">
        <ele>119</ele>
        <time>2013-04-26T14:48:14Z</time>
      </trkpt>
      <trkpt lat="46.49356" lon="-0.36303">
        <ele>119</ele>
        <time>2013-04-26T14:48:19Z</time>
      </trkpt>
      <trkpt lat="46.4936" lon="-0.36309">
        <ele>119</ele>
        <time>2013-04-26T14:48:24Z</time>
      </trkpt>
      <trkpt lat="46.49364" lon="-0.36314">
        <ele>119</ele>
        <time>2013-04-26T14:48:29Z</time>
      </trkpt>
      <trkpt lat="46.49368" lon="-0.3632">
        <ele>120</ele>
        <time>2013-04-26T14:48:34Z</time>
      </trkpt>
      <trkpt lat="46.49373" lon="-0.36326">
        <ele>120</ele>
        <time>2013-04-26T14:48:39Z</time>
      </trkpt>
      <trkpt lat="46.49375" lon="-0.36333">
        <ele>120</ele>
        <time>2013-04-26T14:48:44Z</time>
      </trkpt>
      <trkpt lat="46.4938" lon="-0.36339">
        <ele>118</ele>
        <time>2013-04-26T14:48:49Z</time>
      </trkpt>
      <trkpt lat="46.49381" lon="-0.36343">
        <ele>118</ele>
        <time>2013-04-26T14:48:54Z</time>
      </trkpt>
      <trkpt lat="46.49385" lon="-0.3635">
        <ele>118</ele>
        <time>2013-04-26T14:48:59Z</time>
      </trkpt>
      <trkpt lat="46.49388" lon="-0.36358">
        <ele>118</ele>
        <time>2013-04-26T14:49:04Z</time>
      </trkpt>
      <trkpt lat="46.4939" lon="-0.36366">
        <ele>118</ele>
        <time>2013-04-26T14:49:09Z</time>
      </trkpt>
      <trkpt lat="46.49395" lon="-0.36372">
        <ele>118</ele>
        <time>2013-04-26T14:49:14Z</time>
      </trkpt>
      <trkpt lat="46.494" lon="-0.36377">
        <ele>120</ele>
        <time>2013-04-26T14:49:19Z</time>
      </trkpt>
      <trkpt lat="46.49403" lon="-0.36383">
        <ele>120</ele>
        <time>2013-04-26T14:49:24Z</time>
      </trkpt>
      <trkpt lat="46.49408" lon="-0.36388">
        <ele>120</ele>
        <time>2013-04-26T14:49:29Z</time>
      </trkpt>
      <trkpt lat="46.4941" lon="-0.36393">
        <ele>120</ele>
        <time>2013-04-26T14:49:34Z</time>
      </trkpt>
      <trkpt lat="46.49413" lon="-0.364">
        <ele>120</ele>
        <time>2013-04-26T14:49:39Z</time>
      </trkpt>
      <trkpt lat="46.49417" lon="-0.36405">
        <ele>121</ele>
        <time>2013-04-26T14:49:44Z</time>
      </trkpt>
      <trkpt lat="46.49419" lon="-0.3641">
        <ele>121</ele>
        <time>2013-04-26T14:49:49Z</time>
      </trkpt>
      <trkpt lat="46.49423" lon="-0.36416">
        <ele>121</ele>
        <time>2013-04-26T14:49:54Z</time>
      </trkpt>
      <trkpt lat="46.49429" lon="-0.3642">
        <ele>121</ele>
        <time>2013-04-26T14:49:59Z</time>
      </trkpt>
      <trkpt lat="46.49431" lon="-0.36425">
        <ele>123</ele>
        <time>2013-04-26T14:50:04Z</time>
      </trkpt>
      <trkpt lat="46.49437" lon="-0.36432">
        <ele>122</ele>
        <time>2013-04-26T14:50:09Z</time>
      </trkpt>
      <trkpt lat="46.49441" lon="-0.36436">
        <ele>122</ele>
        <time>2013-04-26T14:50:14Z</time>
      </trkpt>
      <trkpt lat="46.49448" lon="-0.36438">
        <ele>122</ele>
        <time>2013-04-26T14:50:19Z</time>
      </trkpt>
      <trkpt lat="46.49453" lon="-0.36444">
        <ele>122</ele>
        <time>2013-04-26T14:50:24Z</time>
      </trkpt>
      <trkpt lat="46.49458" lon="-0.36447">
        <ele>122</ele>
        <time>2013-04-26T14:50:29Z</time>
      </trkpt>
      <trkpt lat="46.49461" lon="-0.36448">
        <ele>123</ele>
        <time>2013-04-26T14:50:34Z</time>
      </trkpt>
      <trkpt lat="46.49465" lon="-0.36452">
        <ele>123</ele>
        <time>2013-04-26T14:50:39Z</time>
      </trkpt>
      <trkpt lat="46.49472" lon="-0.36453">
        <ele>123</ele>
        <time>2013-04-26T14:50:44Z</time>
      </trkpt>
      <trkpt lat="46.49476" lon="-0.36454">
        <ele>123</ele>
        <time>2013-04-26T14:50:49Z</time>
      </trkpt>
      <trkpt lat="46.49481" lon="-0.36458">
        <ele>123</ele>
        <time>2013-04-26T14:50:54Z</time>
      </trkpt>
      <trkpt lat="46.49487" lon="-0.3646">
        <ele>124</ele>
        <time>2013-04-26T14:50:59Z</time>
      </trkpt>
      <trkpt lat="46.49493" lon="-0.36463">
        <ele>124</ele>
        <time>2013-04-26T14:51:04Z</time>
      </trkpt>
      <trkpt lat="46.49498" lon="-0.36465">
        <ele>124</ele>
        <time>2013-04-26T14:51:09Z</time>
      </trkpt>
      <trkpt lat="46.49502" lon="-0.36467">
        <ele>124</ele>
        <time>2013-04-26T14:51:14Z</time>
      </trkpt>
      <trkpt lat="46.49508" lon="-0.3647">
        <ele>124</ele>
        <time>2013-04-26T14:51:19Z</time>
      </trkpt>
      <trkpt lat="46.49513" lon="-0.36472">
        <ele>124</ele>
        <time>2013-04-26T14:51:24Z</time>
      </trkpt>
      <trkpt lat="46.49518" lon="-0.36473">
        <ele>126</ele>
        <time>2013-04-26T14:51:29Z</time>
      </trkpt>
      <trkpt lat="46.49521" lon="-0.36475">
        <ele>126</ele>
        <time>2013-04-26T14:51:34Z</time>
      </trkpt>
      <trkpt lat="46.49526" lon="-0.36478">
        <ele>126</ele>
        <time>2013-04-26T14:51:39Z</time>
      </trkpt>
      <trkpt lat="46.4953" lon="-0.3648">
        <ele>126</ele>
        <time>2013-04-26T14:51:44Z</time>
      </trkpt>
      <trkpt lat="46.49536" lon="-0.36479">
        <ele>126</ele>
        <time>2013-04-26T14:51:49Z</time>
      </trkpt>
      <trkpt lat="46.49541" lon="-0.36478">
        <ele>126</ele>
        <time>2013-04-26T14:51:54Z</time>
      </trkpt>
      <trkpt lat="46.49544" lon="-0.3648">
        <ele>128</ele>
        <time>2013-04-26T14:51:59Z</time>
      </trkpt>
      <trkpt lat="46.49546" lon="-0.36484">
        <ele>128</ele>
        <time>2013-04-26T14:52:04Z</time>
      </trkpt>
      <trkpt lat="46.49549" lon="-0.36486">
        <ele>128</ele>
        <time>2013-04-26T14:52:09Z</time>
      </trkpt>
      <trkpt lat="46.49554" lon="-0.36489">
        <ele>126</ele>
        <time>2013-04-26T14:52:14Z</time>
      </trkpt>
      <trkpt lat="46.49562" lon="-0.3649">
        <ele>126</ele>
        <time>2013-04-26T14:52:19Z</time>
      </trkpt>
      <trkpt lat="46.49567" lon="-0.36493">
        <ele>126</ele>
        <time>2013-04-26T14:52:24Z</time>
      </trkpt>
      <trkpt lat="46.49573" lon="-0.36496">
        <ele>128</ele>
        <time>2013-04-26T14:52:29Z</time>
      </trkpt>
      <trkpt lat="46.49578" lon="-0.365">
        <ele>128</ele>
        <time>2013-04-26T14:52:34Z</time>
      </trkpt>
      <trkpt lat="46.49582" lon="-0.36503">
        <ele>128</ele>
        <time>2013-04-26T14:52:39Z</time>
      </trkpt>
      <trkpt lat="46.49585" lon="-0.36506">
        <ele>128</ele>
        <time>2013-04-26T14:52:44Z</time>
      </trkpt>
      <trkpt lat="46.49588" lon="-0.36511">
        <ele>128</ele>
        <time>2013-04-26T14:52:49Z</time>
      </trkpt>
      <trkpt lat="46.49594" lon="-0.36512">
        <ele>128</ele>
        <time>2013-04-26T14:52:54Z</time>
      </trkpt>
      <trkpt lat="46.49602" lon="-0.36517">
        <ele>131</ele>
        <time>2013-04-26T14:52:59Z</time>
      </trkpt>
      <trkpt lat="46.49606" lon="-0.36519">
        <ele>131</ele>
        <time>2013-04-26T14:53:04Z</time>
      </trkpt>
      <trkpt lat="46.49608" lon="-0.36524">
        <ele>131</ele>
        <time>2013-04-26T14:53:09Z</time>
      </trkpt>
      <trkpt lat="46.49617" lon="-0.36528">
        <ele>131</ele>
        <time>2013-04-26T14:53:14Z</time>
      </trkpt>
      <trkpt lat="46.49622" lon="-0.36531">
        <ele>131</ele>
        <time>2013-04-26T14:53:19Z</time>
      </trkpt>
      <trkpt lat="46.49625" lon="-0.36532">
        <ele>134</ele>
        <time>2013-04-26T14:53:24Z</time>
      </trkpt>
      <trkpt lat="46.49627" lon="-0.36534">
        <ele>134</ele>
        <time>2013-04-26T14:53:29Z</time>
      </trkpt>
      <trkpt lat="46.49631" lon="-0.36539">
        <ele>134</ele>
        <time>2013-04-26T14:53:34Z</time>
      </trkpt>
      <trkpt lat="46.49639" lon="-0.36542">
        <ele>134</ele>
        <time>2013-04-26T14:53:39Z</time>
      </trkpt>
      <trkpt lat="46.49645" lon="-0.36545">
        <ele>134</ele>
        <time>2013-04-26T14:53:44Z</time>
      </trkpt>
      <trkpt lat="46.4965" lon="-0.36549">
        <ele>134</ele>
        <time>2013-04-26T14:53:49Z</time>
      </trkpt>
      <trkpt lat="46.49651" lon="-0.36551">
        <ele>134</ele>
        <time>2013-04-26T14:53:54Z</time>
      </trkpt>
      <trkpt lat="46.49659" lon="-0.36555">
        <ele>137</ele>
        <time>2013-04-26T14:53:59Z</time>
      </trkpt>
      <trkpt lat="46.49665" lon="-0.36561">
        <ele>137</ele>
        <time>2013-04-26T14:54:04Z</time>
      </trkpt>
      <trkpt lat="46.49668" lon="-0.36564">
        <ele>137</ele>
        <time>2013-04-26T14:54:09Z</time>
      </trkpt>
      <trkpt lat="46.49672" lon="-0.36565">
        <ele>137</ele>
        <time>2013-04-26T14:54:14Z</time>
      </trkpt>
      <trkpt lat="46.49682" lon="-0.3657">
        <ele>139</ele>
        <time>2013-04-26T14:54:19Z</time>
      </trkpt>
      <trkpt lat="46.49696" lon="-0.36578">
        <ele>139</ele>
        <time>2013-04-26T14:54:24Z</time>
      </trkpt>
      <trkpt lat="46.49689" lon="-0.36581">
        <ele>139</ele>
        <time>2013-04-26T14:54:29Z</time>
      </trkpt>
      <trkpt lat="46.49693" lon="-0.36583">
        <ele>139</ele>
        <time>2013-04-26T14:54:34Z</time>
      </trkpt>
      <trkpt lat="46.497" lon="-0.36589">
        <ele>139</ele>
        <time>2013-04-26T14:54:39Z</time>
      </trkpt>
      <trkpt lat="46.49699" lon="-0.3659">
        <ele>139</ele>
        <time>2013-04-26T14:54:44Z</time>
      </trkpt>
      <trkpt lat="46.49703" lon="-0.36595">
        <ele>139</ele>
        <time>2013-04-26T14:54:49Z</time>
      </trkpt>
      <trkpt lat="46.49713" lon="-0.36597">
        <ele>140</ele>
        <time>2013-04-26T14:54:54Z</time>
      </trkpt>
      <trkpt lat="46.49717" lon="-0.366">
        <ele>140</ele>
        <time>2013-04-26T14:54:59Z</time>
      </trkpt>
      <trkpt lat="46.49728" lon="-0.36602">
        <ele>140</ele>
        <time>2013-04-26T14:55:04Z</time>
      </trkpt>
      <trkpt lat="46.49728" lon="-0.36604">
        <ele>140</ele>
        <time>2013-04-26T14:55:09Z</time>
      </trkpt>
      <trkpt lat="46.49731" lon="-0.36605">
        <ele>140</ele>
        <time>2013-04-26T14:55:14Z</time>
      </trkpt>
      <trkpt lat="46.49732" lon="-0.36606">
        <ele>140</ele>
        <time>2013-04-26T14:55:19Z</time>
      </trkpt>
      <trkpt lat="46.49732" lon="-0.36606">
        <ele>140</ele>
        <time>2013-04-26T14:55:24Z</time>
      </trkpt>
      <trkpt lat="46.49734" lon="-0.36608">
        <ele>140</ele>
        <time>2013-04-26T14:55:39Z</time>
      </trkpt>
      <trkpt lat="46.49735" lon="-0.36607">
        <ele>140</ele>
        <time>2013-04-26T14:55:44Z</time>
      </trkpt>
      <trkpt lat="46.49736" lon="-0.36607">
        <ele>142</ele>
        <time>2013-04-26T14:55:49Z</time>
      </trkpt>
      <trkpt lat="46.49742" lon="-0.36612">
        <ele>142</ele>
        <time>2013-04-26T14:55:54Z</time>
      </trkpt>
      <trkpt lat="46.49746" lon="-0.36613">
        <ele>142</ele>
        <time>2013-04-26T14:55:59Z</time>
      </trkpt>
      <trkpt lat="46.49754" lon="-0.36616">
        <ele>142</ele>
        <time>2013-04-26T14:56:04Z</time>
      </trkpt>
      <trkpt lat="46.49758" lon="-0.36624">
        <ele>142</ele>
        <time>2013-04-26T14:56:09Z</time>
      </trkpt>
      <trkpt lat="46.49758" lon="-0.3663">
        <ele>142</ele>
        <time>2013-04-26T14:56:14Z</time>
      </trkpt>
      <trkpt lat="46.49757" lon="-0.36635">
        <ele>142</ele>
        <time>2013-04-26T14:56:19Z</time>
      </trkpt>
      <trkpt lat="46.49753" lon="-0.36641">
        <ele>142</ele>
        <time>2013-04-26T14:56:24Z</time>
      </trkpt>
      <trkpt lat="46.4975" lon="-0.36646">
        <ele>142</ele>
        <time>2013-04-26T14:56:29Z</time>
      </trkpt>
      <trkpt lat="46.49742" lon="-0.36648">
        <ele>142</ele>
        <time>2013-04-26T14:56:34Z</time>
      </trkpt>
      <trkpt lat="46.49738" lon="-0.36652">
        <ele>142</ele>
        <time>2013-04-26T14:56:39Z</time>
      </trkpt>
      <trkpt lat="46.49738" lon="-0.36653">
        <ele>142</ele>
        <time>2013-04-26T14:56:44Z</time>
      </trkpt>
      <trkpt lat="46.49739" lon="-0.36652">
        <ele>142</ele>
        <time>2013-04-26T14:56:49Z</time>
      </trkpt>
      <trkpt lat="46.49742" lon="-0.36649">
        <ele>142</ele>
        <time>2013-04-26T14:56:54Z</time>
      </trkpt>
      <trkpt lat="46.49746" lon="-0.36645">
        <ele>142</ele>
        <time>2013-04-26T14:56:59Z</time>
      </trkpt>
      <trkpt lat="46.4975" lon="-0.36641">
        <ele>142</ele>
        <time>2013-04-26T14:57:04Z</time>
      </trkpt>
      <trkpt lat="46.49755" lon="-0.36636">
        <ele>142</ele>
        <time>2013-04-26T14:57:09Z</time>
      </trkpt>
      <trkpt lat="46.49758" lon="-0.3663">
        <ele>142</ele>
        <time>2013-04-26T14:57:14Z</time>
      </trkpt>
      <trkpt lat="46.49762" lon="-0.36626">
        <ele>142</ele>
        <time>2013-04-26T14:57:19Z</time>
      </trkpt>
      <trkpt lat="46.49766" lon="-0.36621">
        <ele>143</ele>
        <time>2013-04-26T14:57:24Z</time>
      </trkpt>
      <trkpt lat="46.4977" lon="-0.36614">
        <ele>143</ele>
        <time>2013-04-26T14:57:29Z</time>
      </trkpt>
      <trkpt lat="46.49773" lon="-0.36608">
        <ele>143</ele>
        <time>2013-04-26T14:57:34Z</time>
      </trkpt>
      <trkpt lat="46.49779" lon="-0.36601">
        <ele>143</ele>
        <time>2013-04-26T14:57:39Z</time>
      </trkpt>
      <trkpt lat="46.49784" lon="-0.36596">
        <ele>143</ele>
        <time>2013-04-26T14:57:44Z</time>
      </trkpt>
      <trkpt lat="46.49788" lon="-0.36589">
        <ele>143</ele>
        <time>2013-04-26T14:57:49Z</time>
      </trkpt>
      <trkpt lat="46.49793" lon="-0.36582">
        <ele>144</ele>
        <time>2013-04-26T14:57:54Z</time>
      </trkpt>
      <trkpt lat="46.49798" lon="-0.36577">
        <ele>144</ele>
        <time>2013-04-26T14:57:59Z</time>
      </trkpt>
      <trkpt lat="46.49802" lon="-0.36571">
        <ele>144</ele>
        <time>2013-04-26T14:58:04Z</time>
      </trkpt>
      <trkpt lat="46.49807" lon="-0.36565">
        <ele>144</ele>
        <time>2013-04-26T14:58:09Z</time>
      </trkpt>
      <trkpt lat="46.49813" lon="-0.36561">
        <ele>144</ele>
        <time>2013-04-26T14:58:14Z</time>
      </trkpt>
      <trkpt lat="46.49819" lon="-0.36559">
        <ele>144</ele>
        <time>2013-04-26T14:58:19Z</time>
      </trkpt>
      <trkpt lat="46.49823" lon="-0.36555">
        <ele>146</ele>
        <time>2013-04-26T14:58:24Z</time>
      </trkpt>
      <trkpt lat="46.49827" lon="-0.36554">
        <ele>146</ele>
        <time>2013-04-26T14:58:29Z</time>
      </trkpt>
      <trkpt lat="46.49833" lon="-0.3655">
        <ele>146</ele>
        <time>2013-04-26T14:58:34Z</time>
      </trkpt>
      <trkpt lat="46.49837" lon="-0.36549">
        <ele>146</ele>
        <time>2013-04-26T14:58:39Z</time>
      </trkpt>
      <trkpt lat="46.49842" lon="-0.36548">
        <ele>146</ele>
        <time>2013-04-26T14:58:44Z</time>
      </trkpt>
      <trkpt lat="46.49849" lon="-0.36545">
        <ele>148</ele>
        <time>2013-04-26T14:58:49Z</time>
      </trkpt>
      <trkpt lat="46.49853" lon="-0.36543">
        <ele>148</ele>
        <time>2013-04-26T14:58:54Z</time>
      </trkpt>
      <trkpt lat="46.49858" lon="-0.36541">
        <ele>148</ele>
        <time>2013-04-26T14:58:59Z</time>
      </trkpt>
      <trkpt lat="46.49865" lon="-0.3654">
        <ele>148</ele>
        <time>2013-04-26T14:59:04Z</time>
      </trkpt>
      <trkpt lat="46.4987" lon="-0.36537">
        <ele>148</ele>
        <time>2013-04-26T14:59:09Z</time>
      </trkpt>
      <trkpt lat="46.49876" lon="-0.36534">
        <ele>149</ele>
        <time>2013-04-26T14:59:14Z</time>
      </trkpt>
      <trkpt lat="46.49878" lon="-0.36536">
        <ele>149</ele>
        <time>2013-04-26T14:59:19Z</time>
      </trkpt>
      <trkpt lat="46.49885" lon="-0.36534">
        <ele>149</ele>
        <time>2013-04-26T14:59:24Z</time>
      </trkpt>
      <trkpt lat="46.4989" lon="-0.36532">
        <ele>149</ele>
        <time>2013-04-26T14:59:29Z</time>
      </trkpt>
      <trkpt lat="46.49896" lon="-0.3653">
        <ele>149</ele>
        <time>2013-04-26T14:59:34Z</time>
      </trkpt>
      <trkpt lat="46.49903" lon="-0.36526">
        <ele>149</ele>
        <time>2013-04-26T14:59:39Z</time>
      </trkpt>
      <trkpt lat="46.49908" lon="-0.36526">
        <ele>150</ele>
        <time>2013-04-26T14:59:44Z</time>
      </trkpt>
      <trkpt lat="46.49915" lon="-0.36523">
        <ele>150</ele>
        <time>2013-04-26T14:59:49Z</time>
      </trkpt>
      <trkpt lat="46.4992" lon="-0.36522">
        <ele>150</ele>
        <time>2013-04-26T14:59:54Z</time>
      </trkpt>
      <trkpt lat="46.49925" lon="-0.36524">
        <ele>150</ele>
        <time>2013-04-26T14:59:59Z</time>
      </trkpt>
      <trkpt lat="46.49931" lon="-0.36523">
        <ele>151</ele>
        <time>2013-04-26T15:00:04Z</time>
      </trkpt>
      <trkpt lat="46.49938" lon="-0.36521">
        <ele>151</ele>
        <time>2013-04-26T15:00:09Z</time>
      </trkpt>
      <trkpt lat="46.49944" lon="-0.36521">
        <ele>151</ele>
        <time>2013-04-26T15:00:14Z</time>
      </trkpt>
      <trkpt lat="46.4995" lon="-0.36521">
        <ele>151</ele>
        <time>2013-04-26T15:00:19Z</time>
      </trkpt>
      <trkpt lat="46.49955" lon="-0.36521">
        <ele>151</ele>
        <time>2013-04-26T15:00:24Z</time>
      </trkpt>
      <trkpt lat="46.49959" lon="-0.36521">
        <ele>152</ele>
        <time>2013-04-26T15:00:29Z</time>
      </trkpt>
      <trkpt lat="46.49962" lon="-0.36521">
        <ele>152</ele>
        <time>2013-04-26T15:00:34Z</time>
      </trkpt>
      <trkpt lat="46.49969" lon="-0.36523">
        <ele>152</ele>
        <time>2013-04-26T15:00:39Z</time>
      </trkpt>
      <trkpt lat="46.49975" lon="-0.36524">
        <ele>152</ele>
        <time>2013-04-26T15:00:44Z</time>
      </trkpt>
      <trkpt lat="46.49981" lon="-0.36525">
        <ele>152</ele>
        <time>2013-04-26T15:00:49Z</time>
      </trkpt>
      <trkpt lat="46.49985" lon="-0.36525">
        <ele>152</ele>
        <time>2013-04-26T15:00:54Z</time>
      </trkpt>
      <trkpt lat="46.49993" lon="-0.36526">
        <ele>151</ele>
        <time>2013-04-26T15:00:59Z</time>
      </trkpt>
      <trkpt lat="46.49999" lon="-0.36528">
        <ele>151</ele>
        <time>2013-04-26T15:01:04Z</time>
      </trkpt>
      <trkpt lat="46.50002" lon="-0.36534">
        <ele>151</ele>
        <time>2013-04-26T15:01:09Z</time>
      </trkpt>
      <trkpt lat="46.50003" lon="-0.3654">
        <ele>151</ele>
        <time>2013-04-26T15:01:14Z</time>
      </trkpt>
      <trkpt lat="46.50003" lon="-0.36546">
        <ele>150</ele>
        <time>2013-04-26T15:01:19Z</time>
      </trkpt>
      <trkpt lat="46.50001" lon="-0.36554">
        <ele>150</ele>
        <time>2013-04-26T15:01:24Z</time>
      </trkpt>
      <trkpt lat="46.49999" lon="-0.36562">
        <ele>150</ele>
        <time>2013-04-26T15:01:29Z</time>
      </trkpt>
      <trkpt lat="46.49996" lon="-0.36571">
        <ele>149</ele>
        <time>2013-04-26T15:01:34Z</time>
      </trkpt>
      <trkpt lat="46.49992" lon="-0.36579">
        <ele>149</ele>
        <time>2013-04-26T15:01:39Z</time>
      </trkpt>
      <trkpt lat="46.49989" lon="-0.36586">
        <ele>149</ele>
        <time>2013-04-26T15:01:44Z</time>
      </trkpt>
      <trkpt lat="46.49986" lon="-0.36593">
        <ele>149</ele>
        <time>2013-04-26T15:01:49Z</time>
      </trkpt>
      <trkpt lat="46.49982" lon="-0.36601">
        <ele>148</ele>
        <time>2013-04-26T15:01:54Z</time>
      </trkpt>
      <trkpt lat="46.49978" lon="-0.36608">
        <ele>148</ele>
        <time>2013-04-26T15:01:59Z</time>
      </trkpt>
      <trkpt lat="46.49975" lon="-0.36616">
        <ele>148</ele>
        <time>2013-04-26T15:02:04Z</time>
      </trkpt>
      <trkpt lat="46.49971" lon="-0.36623">
        <ele>148</ele>
        <time>2013-04-26T15:02:09Z</time>
      </trkpt>
      <trkpt lat="46.49969" lon="-0.36631">
        <ele>148</ele>
        <time>2013-04-26T15:02:14Z</time>
      </trkpt>
      <trkpt lat="46.49966" lon="-0.36639">
        <ele>148</ele>
        <time>2013-04-26T15:02:19Z</time>
      </trkpt>
      <trkpt lat="46.49962" lon="-0.36646">
        <ele>148</ele>
        <time>2013-04-26T15:02:24Z</time>
      </trkpt>
      <trkpt lat="46.49958" lon="-0.36653">
        <ele>147</ele>
        <time>2013-04-26T15:02:29Z</time>
      </trkpt>
      <trkpt lat="46.49954" lon="-0.36658">
        <ele>147</ele>
        <time>2013-04-26T15:02:34Z</time>
      </trkpt>
      <trkpt lat="46.49952" lon="-0.36665">
        <ele>147</ele>
        <time>2013-04-26T15:02:39Z</time>
      </trkpt>
      <trkpt lat="46.49949" lon="-0.36671">
        <ele>147</ele>
        <time>2013-04-26T15:02:44Z</time>
      </trkpt>
      <trkpt lat="46.49947" lon="-0.36678">
        <ele>147</ele>
        <time>2013-04-26T15:02:49Z</time>
      </trkpt>
      <trkpt lat="46.49946" lon="-0.36683">
        <ele>146</ele>
        <time>2013-04-26T15:02:54Z</time>
      </trkpt>
      <trkpt lat="46.49942" lon="-0.3669">
        <ele>146</ele>
        <time>2013-04-26T15:02:59Z</time>
      </trkpt>
      <trkpt lat="46.49938" lon="-0.36697">
        <ele>146</ele>
        <time>2013-04-26T15:03:04Z</time>
      </trkpt>
      <trkpt lat="46.49937" lon="-0.36705">
        <ele>146</ele>
        <time>2013-04-26T15:03:09Z</time>
      </trkpt>
      <trkpt lat="46.49933" lon="-0.36711">
        <ele>146</ele>
        <time>2013-04-26T15:03:14Z</time>
      </trkpt>
      <trkpt lat="46.49929" lon="-0.36718">
        <ele>147</ele>
        <time>2013-04-26T15:03:19Z</time>
      </trkpt>
      <trkpt lat="46.49925" lon="-0.36727">
        <ele>147</ele>
        <time>2013-04-26T15:03:24Z</time>
      </trkpt>
      <trkpt lat="46.49921" lon="-0.36733">
        <ele>147</ele>
        <time>2013-04-26T15:03:29Z</time>
      </trkpt>
      <trkpt lat="46.49918" lon="-0.36742">
        <ele>147</ele>
        <time>2013-04-26T15:03:34Z</time>
      </trkpt>
      <trkpt lat="46.49911" lon="-0.36749">
        <ele>147</ele>
        <time>2013-04-26T15:03:39Z</time>
      </trkpt>
      <trkpt lat="46.49909" lon="-0.36757">
        <ele>147</ele>
        <time>2013-04-26T15:03:44Z</time>
      </trkpt>
      <trkpt lat="46.49905" lon="-0.36763">
        <ele>147</ele>
        <time>2013-04-26T15:03:49Z</time>
      </trkpt>
      <trkpt lat="46.49904" lon="-0.36766">
        <ele>146</ele>
        <time>2013-04-26T15:03:54Z</time>
      </trkpt>
      <trkpt lat="46.49899" lon="-0.36769">
        <ele>146</ele>
        <time>2013-04-26T15:03:59Z</time>
      </trkpt>
      <trkpt lat="46.49894" lon="-0.36775">
        <ele>146</ele>
        <time>2013-04-26T15:04:04Z</time>
      </trkpt>
      <trkpt lat="46.49888" lon="-0.3678">
        <ele>146</ele>
        <time>2013-04-26T15:04:09Z</time>
      </trkpt>
      <trkpt lat="46.49882" lon="-0.36785">
        <ele>146</ele>
        <time>2013-04-26T15:04:14Z</time>
      </trkpt>
      <trkpt lat="46.49877" lon="-0.36792">
        <ele>145</ele>
        <time>2013-04-26T15:04:19Z</time>
      </trkpt>
      <trkpt lat="46.49873" lon="-0.36798">
        <ele>145</ele>
        <time>2013-04-26T15:04:26Z</time>
      </trkpt>
      <trkpt lat="46.49869" lon="-0.36803">
        <ele>145</ele>
        <time>2013-04-26T15:04:29Z</time>
      </trkpt>
      <trkpt lat="46.49867" lon="-0.36805">
        <ele>145</ele>
        <time>2013-04-26T15:04:34Z</time>
      </trkpt>
      <trkpt lat="46.49862" lon="-0.36814">
        <ele>145</ele>
        <time>2013-04-26T15:04:39Z</time>
      </trkpt>
      <trkpt lat="46.49862" lon="-0.36815">
        <ele>145</ele>
        <time>2013-04-26T15:04:44Z</time>
      </trkpt>
      <trkpt lat="46.49859" lon="-0.36818">
        <ele>145</ele>
        <time>2013-04-26T15:04:49Z</time>
      </trkpt>
      <trkpt lat="46.49854" lon="-0.36823">
        <ele>145</ele>
        <time>2013-04-26T15:04:54Z</time>
      </trkpt>
      <trkpt lat="46.49849" lon="-0.36826">
        <ele>145</ele>
        <time>2013-04-26T15:04:59Z</time>
      </trkpt>
      <trkpt lat="46.49843" lon="-0.36836">
        <ele>145</ele>
        <time>2013-04-26T15:05:04Z</time>
      </trkpt>
      <trkpt lat="46.49838" lon="-0.36841">
        <ele>145</ele>
        <time>2013-04-26T15:05:09Z</time>
      </trkpt>
      <trkpt lat="46.49835" lon="-0.36848">
        <ele>144</ele>
        <time>2013-04-26T15:05:14Z</time>
      </trkpt>
      <trkpt lat="46.4983" lon="-0.36854">
        <ele>144</ele>
        <time>2013-04-26T15:05:19Z</time>
      </trkpt>
      <trkpt lat="46.49826" lon="-0.36858">
        <ele>144</ele>
        <time>2013-04-26T15:05:24Z</time>
      </trkpt>
      <trkpt lat="46.49822" lon="-0.36863">
        <ele>144</ele>
        <time>2013-04-26T15:05:29Z</time>
      </trkpt>
      <trkpt lat="46.49819" lon="-0.36867">
        <ele>144</ele>
        <time>2013-04-26T15:05:34Z</time>
      </trkpt>
      <trkpt lat="46.49814" lon="-0.36873">
        <ele>144</ele>
        <time>2013-04-26T15:05:39Z</time>
      </trkpt>
      <trkpt lat="46.49809" lon="-0.36879">
        <ele>143</ele>
        <time>2013-04-26T15:05:44Z</time>
      </trkpt>
      <trkpt lat="46.49806" lon="-0.36882">
        <ele>143</ele>
        <time>2013-04-26T15:05:49Z</time>
      </trkpt>
      <trkpt lat="46.49801" lon="-0.36888">
        <ele>143</ele>
        <time>2013-04-26T15:05:54Z</time>
      </trkpt>
      <trkpt lat="46.49797" lon="-0.36894">
        <ele>143</ele>
        <time>2013-04-26T15:05:59Z</time>
      </trkpt>
      <trkpt lat="46.49793" lon="-0.36898">
        <ele>143</ele>
        <time>2013-04-26T15:06:04Z</time>
      </trkpt>
      <trkpt lat="46.49788" lon="-0.36902">
        <ele>143</ele>
        <time>2013-04-26T15:06:09Z</time>
      </trkpt>
      <trkpt lat="46.49786" lon="-0.36907">
        <ele>143</ele>
        <time>2013-04-26T15:06:14Z</time>
      </trkpt>
      <trkpt lat="46.4978" lon="-0.36914">
        <ele>143</ele>
        <time>2013-04-26T15:06:19Z</time>
      </trkpt>
      <trkpt lat="46.49777" lon="-0.36918">
        <ele>143</ele>
        <time>2013-04-26T15:06:24Z</time>
      </trkpt>
      <trkpt lat="46.49774" lon="-0.36921">
        <ele>143</ele>
        <time>2013-04-26T15:06:29Z</time>
      </trkpt>
      <trkpt lat="46.49768" lon="-0.36928">
        <ele>143</ele>
        <time>2013-04-26T15:06:34Z</time>
      </trkpt>
      <trkpt lat="46.49763" lon="-0.36933">
        <ele>141</ele>
        <time>2013-04-26T15:06:39Z</time>
      </trkpt>
      <trkpt lat="46.4976" lon="-0.36937">
        <ele>141</ele>
        <time>2013-04-26T15:06:44Z</time>
      </trkpt>
      <trkpt lat="46.49755" lon="-0.36942">
        <ele>141</ele>
        <time>2013-04-26T15:06:49Z</time>
      </trkpt>
      <trkpt lat="46.49749" lon="-0.36949">
        <ele>141</ele>
        <time>2013-04-26T15:06:54Z</time>
      </trkpt>
      <trkpt lat="46.49743" lon="-0.36953">
        <ele>141</ele>
        <time>2013-04-26T15:06:59Z</time>
      </trkpt>
      <trkpt lat="46.4974" lon="-0.36959">
        <ele>139</ele>
        <time>2013-04-26T15:07:04Z</time>
      </trkpt>
      <trkpt lat="46.49735" lon="-0.36964">
        <ele>140</ele>
        <time>2013-04-26T15:07:09Z</time>
      </trkpt>
      <trkpt lat="46.49728" lon="-0.36968">
        <ele>140</ele>
        <time>2013-04-26T15:07:14Z</time>
      </trkpt>
      <trkpt lat="46.49721" lon="-0.36974">
        <ele>140</ele>
        <time>2013-04-26T15:07:19Z</time>
      </trkpt>
      <trkpt lat="46.49717" lon="-0.36977">
        <ele>140</ele>
        <time>2013-04-26T15:07:24Z</time>
      </trkpt>
      <trkpt lat="46.49711" lon="-0.3698">
        <ele>140</ele>
        <time>2013-04-26T15:07:29Z</time>
      </trkpt>
      <trkpt lat="46.49706" lon="-0.36982">
        <ele>139</ele>
        <time>2013-04-26T15:07:34Z</time>
      </trkpt>
      <trkpt lat="46.49702" lon="-0.36984">
        <ele>139</ele>
        <time>2013-04-26T15:07:39Z</time>
      </trkpt>
      <trkpt lat="46.49697" lon="-0.36988">
        <ele>139</ele>
        <time>2013-04-26T15:07:44Z</time>
      </trkpt>
      <trkpt lat="46.4969" lon="-0.36992">
        <ele>139</ele>
        <time>2013-04-26T15:07:49Z</time>
      </trkpt>
      <trkpt lat="46.49687" lon="-0.36996">
        <ele>139</ele>
        <time>2013-04-26T15:07:54Z</time>
      </trkpt>
      <trkpt lat="46.49681" lon="-0.37">
        <ele>139</ele>
        <time>2013-04-26T15:07:59Z</time>
      </trkpt>
      <trkpt lat="46.49675" lon="-0.37004">
        <ele>137</ele>
        <time>2013-04-26T15:08:04Z</time>
      </trkpt>
      <trkpt lat="46.49671" lon="-0.37008">
        <ele>137</ele>
        <time>2013-04-26T15:08:09Z</time>
      </trkpt>
      <trkpt lat="46.49664" lon="-0.3701">
        <ele>137</ele>
        <time>2013-04-26T15:08:14Z</time>
      </trkpt>
      <trkpt lat="46.49659" lon="-0.37013">
        <ele>137</ele>
        <time>2013-04-26T15:08:19Z</time>
      </trkpt>
      <trkpt lat="46.49655" lon="-0.37017">
        <ele>136</ele>
        <time>2013-04-26T15:08:24Z</time>
      </trkpt>
      <trkpt lat="46.4965" lon="-0.3702">
        <ele>134</ele>
        <time>2013-04-26T15:08:29Z</time>
      </trkpt>
      <trkpt lat="46.49646" lon="-0.37025">
        <ele>134</ele>
        <time>2013-04-26T15:08:34Z</time>
      </trkpt>
      <trkpt lat="46.49641" lon="-0.3703">
        <ele>134</ele>
        <time>2013-04-26T15:08:39Z</time>
      </trkpt>
      <trkpt lat="46.49636" lon="-0.37034">
        <ele>134</ele>
        <time>2013-04-26T15:08:44Z</time>
      </trkpt>
      <trkpt lat="46.4963" lon="-0.3704">
        <ele>134</ele>
        <time>2013-04-26T15:08:49Z</time>
      </trkpt>
      <trkpt lat="46.49625" lon="-0.37043">
        <ele>133</ele>
        <time>2013-04-26T15:08:54Z</time>
      </trkpt>
      <trkpt lat="46.4962" lon="-0.37046">
        <ele>132</ele>
        <time>2013-04-26T15:08:59Z</time>
      </trkpt>
      <trkpt lat="46.49615" lon="-0.3705">
        <ele>132</ele>
        <time>2013-04-26T15:09:04Z</time>
      </trkpt>
      <trkpt lat="46.49609" lon="-0.37054">
        <ele>132</ele>
        <time>2013-04-26T15:09:09Z</time>
      </trkpt>
      <trkpt lat="46.49604" lon="-0.37058">
        <ele>132</ele>
        <time>2013-04-26T15:09:14Z</time>
      </trkpt>
      <trkpt lat="46.49599" lon="-0.37063">
        <ele>132</ele>
        <time>2013-04-26T15:09:19Z</time>
      </trkpt>
      <trkpt lat="46.49593" lon="-0.37067">
        <ele>131</ele>
        <time>2013-04-26T15:09:24Z</time>
      </trkpt>
      <trkpt lat="46.49589" lon="-0.37071">
        <ele>130</ele>
        <time>2013-04-26T15:09:29Z</time>
      </trkpt>
      <trkpt lat="46.49584" lon="-0.37075">
        <ele>130</ele>
        <time>2013-04-26T15:09:34Z</time>
      </trkpt>
      <trkpt lat="46.49578" lon="-0.37079">
        <ele>130</ele>
        <time>2013-04-26T15:09:39Z</time>
      </trkpt>
      <trkpt lat="46.49574" lon="-0.37083">
        <ele>130</ele>
        <time>2013-04-26T15:09:44Z</time>
      </trkpt>
      <trkpt lat="46.49569" lon="-0.37089">
        <ele>130</ele>
        <time>2013-04-26T15:09:49Z</time>
      </trkpt>
      <trkpt lat="46.49563" lon="-0.37093">
        <ele>130</ele>
        <time>2013-04-26T15:09:54Z</time>
      </trkpt>
      <trkpt lat="46.49559" lon="-0.37098">
        <ele>129</ele>
        <time>2013-04-26T15:09:59Z</time>
      </trkpt>
      <trkpt lat="46.49554" lon="-0.37102">
        <ele>129</ele>
        <time>2013-04-26T15:10:04Z</time>
      </trkpt>
      <trkpt lat="46.49548" lon="-0.37107">
        <ele>129</ele>
        <time>2013-04-26T15:10:09Z</time>
      </trkpt>
      <trkpt lat="46.49543" lon="-0.37112">
        <ele>129</ele>
        <time>2013-04-26T15:10:14Z</time>
      </trkpt>
      <trkpt lat="46.49538" lon="-0.37116">
        <ele>129</ele>
        <time>2013-04-26T15:10:19Z</time>
      </trkpt>
      <trkpt lat="46.49533" lon="-0.37121">
        <ele>129</ele>
        <time>2013-04-26T15:10:24Z</time>
      </trkpt>
      <trkpt lat="46.49529" lon="-0.37126">
        <ele>128</ele>
        <time>2013-04-26T15:10:29Z</time>
      </trkpt>
      <trkpt lat="46.49525" lon="-0.37131">
        <ele>128</ele>
        <time>2013-04-26T15:10:34Z</time>
      </trkpt>
      <trkpt lat="46.4952" lon="-0.37137">
        <ele>128</ele>
        <time>2013-04-26T15:10:39Z</time>
      </trkpt>
      <trkpt lat="46.49517" lon="-0.3714">
        <ele>128</ele>
        <time>2013-04-26T15:10:44Z</time>
      </trkpt>
      <trkpt lat="46.49512" lon="-0.37149">
        <ele>127</ele>
        <time>2013-04-26T15:10:49Z</time>
      </trkpt>
      <trkpt lat="46.49508" lon="-0.37156">
        <ele>127</ele>
        <time>2013-04-26T15:10:54Z</time>
      </trkpt>
      <trkpt lat="46.49505" lon="-0.37163">
        <ele>127</ele>
        <time>2013-04-26T15:10:59Z</time>
      </trkpt>
      <trkpt lat="46.495" lon="-0.3717">
        <ele>127</ele>
        <time>2013-04-26T15:11:04Z</time>
      </trkpt>
      <trkpt lat="46.49498" lon="-0.37176">
        <ele>127</ele>
        <time>2013-04-26T15:11:09Z</time>
      </trkpt>
      <trkpt lat="46.49495" lon="-0.37185">
        <ele>126</ele>
        <time>2013-04-26T15:11:14Z</time>
      </trkpt>
      <trkpt lat="46.49491" lon="-0.37195">
        <ele>126</ele>
        <time>2013-04-26T15:11:19Z</time>
      </trkpt>
      <trkpt lat="46.49489" lon="-0.37201">
        <ele>126</ele>
        <time>2013-04-26T15:11:24Z</time>
      </trkpt>
      <trkpt lat="46.49485" lon="-0.37207">
        <ele>127</ele>
        <time>2013-04-26T15:11:29Z</time>
      </trkpt>
      <trkpt lat="46.49482" lon="-0.37214">
        <ele>126</ele>
        <time>2013-04-26T15:11:34Z</time>
      </trkpt>
      <trkpt lat="46.49478" lon="-0.3722">
        <ele>126</ele>
        <time>2013-04-26T15:11:39Z</time>
      </trkpt>
      <trkpt lat="46.49475" lon="-0.37226">
        <ele>126</ele>
        <time>2013-04-26T15:11:44Z</time>
      </trkpt>
      <trkpt lat="46.49471" lon="-0.37231">
        <ele>126</ele>
        <time>2013-04-26T15:11:49Z</time>
      </trkpt>
      <trkpt lat="46.49467" lon="-0.37238">
        <ele>126</ele>
        <time>2013-04-26T15:11:54Z</time>
      </trkpt>
      <trkpt lat="46.49464" lon="-0.37244">
        <ele>126</ele>
        <time>2013-04-26T15:11:59Z</time>
      </trkpt>
      <trkpt lat="46.49459" lon="-0.37251">
        <ele>126</ele>
        <time>2013-04-26T15:12:04Z</time>
      </trkpt>
      <trkpt lat="46.49454" lon="-0.37255">
        <ele>125</ele>
        <time>2013-04-26T15:12:09Z</time>
      </trkpt>
      <trkpt lat="46.49449" lon="-0.37261">
        <ele>125</ele>
        <time>2013-04-26T15:12:14Z</time>
      </trkpt>
      <trkpt lat="46.49444" lon="-0.37267">
        <ele>125</ele>
        <time>2013-04-26T15:12:19Z</time>
      </trkpt>
      <trkpt lat="46.4944" lon="-0.37273">
        <ele>125</ele>
        <time>2013-04-26T15:12:24Z</time>
      </trkpt>
      <trkpt lat="46.49437" lon="-0.37279">
        <ele>125</ele>
        <time>2013-04-26T15:12:29Z</time>
      </trkpt>
      <trkpt lat="46.49431" lon="-0.37285">
        <ele>125</ele>
        <time>2013-04-26T15:12:34Z</time>
      </trkpt>
      <trkpt lat="46.49427" lon="-0.37291">
        <ele>124</ele>
        <time>2013-04-26T15:12:39Z</time>
      </trkpt>
      <trkpt lat="46.49423" lon="-0.37296">
        <ele>123</ele>
        <time>2013-04-26T15:12:44Z</time>
      </trkpt>
      <trkpt lat="46.49417" lon="-0.37304">
        <ele>123</ele>
        <time>2013-04-26T15:12:49Z</time>
      </trkpt>
      <trkpt lat="46.49413" lon="-0.37309">
        <ele>123</ele>
        <time>2013-04-26T15:12:54Z</time>
      </trkpt>
      <trkpt lat="46.4941" lon="-0.37315">
        <ele>123</ele>
        <time>2013-04-26T15:12:59Z</time>
      </trkpt>
      <trkpt lat="46.49407" lon="-0.3732">
        <ele>123</ele>
        <time>2013-04-26T15:13:04Z</time>
      </trkpt>
      <trkpt lat="46.49402" lon="-0.37326">
        <ele>122</ele>
        <time>2013-04-26T15:13:09Z</time>
      </trkpt>
      <trkpt lat="46.49397" lon="-0.37331">
        <ele>122</ele>
        <time>2013-04-26T15:13:14Z</time>
      </trkpt>
      <trkpt lat="46.49393" lon="-0.37336">
        <ele>122</ele>
        <time>2013-04-26T15:13:19Z</time>
      </trkpt>
      <trkpt lat="46.49388" lon="-0.37343">
        <ele>122</ele>
        <time>2013-04-26T15:13:24Z</time>
      </trkpt>
      <trkpt lat="46.49383" lon="-0.37348">
        <ele>121</ele>
        <time>2013-04-26T15:13:29Z</time>
      </trkpt>
      <trkpt lat="46.49379" lon="-0.37353">
        <ele>121</ele>
        <time>2013-04-26T15:13:34Z</time>
      </trkpt>
      <trkpt lat="46.49375" lon="-0.37358">
        <ele>121</ele>
        <time>2013-04-26T15:13:39Z</time>
      </trkpt>
      <trkpt lat="46.49371" lon="-0.37364">
        <ele>120</ele>
        <time>2013-04-26T15:13:44Z</time>
      </trkpt>
      <trkpt lat="46.49367" lon="-0.3737">
        <ele>120</ele>
        <time>2013-04-26T15:13:49Z</time>
      </trkpt>
      <trkpt lat="46.49362" lon="-0.37375">
        <ele>120</ele>
        <time>2013-04-26T15:13:54Z</time>
      </trkpt>
      <trkpt lat="46.49357" lon="-0.3738">
        <ele>120</ele>
        <time>2013-04-26T15:13:59Z</time>
      </trkpt>
      <trkpt lat="46.49353" lon="-0.37385">
        <ele>120</ele>
        <time>2013-04-26T15:14:04Z</time>
      </trkpt>
      <trkpt lat="46.49349" lon="-0.37389">
        <ele>120</ele>
        <time>2013-04-26T15:14:09Z</time>
      </trkpt>
      <trkpt lat="46.49344" lon="-0.37393">
        <ele>119</ele>
        <time>2013-04-26T15:14:14Z</time>
      </trkpt>
      <trkpt lat="46.49338" lon="-0.37398">
        <ele>119</ele>
        <time>2013-04-26T15:14:19Z</time>
      </trkpt>
      <trkpt lat="46.49333" lon="-0.37402">
        <ele>119</ele>
        <time>2013-04-26T15:14:24Z</time>
      </trkpt>
      <trkpt lat="46.49328" lon="-0.37406">
        <ele>118</ele>
        <time>2013-04-26T15:14:29Z</time>
      </trkpt>
      <trkpt lat="46.49323" lon="-0.37411">
        <ele>118</ele>
        <time>2013-04-26T15:14:34Z</time>
      </trkpt>
      <trkpt lat="46.49319" lon="-0.37416">
        <ele>117</ele>
        <time>2013-04-26T15:14:39Z</time>
      </trkpt>
      <trkpt lat="46.49313" lon="-0.3742">
        <ele>117</ele>
        <time>2013-04-26T15:14:44Z</time>
      </trkpt>
      <trkpt lat="46.49308" lon="-0.37423">
        <ele>117</ele>
        <time>2013-04-26T15:14:49Z</time>
      </trkpt>
      <trkpt lat="46.49303" lon="-0.37428">
        <ele>117</ele>
        <time>2013-04-26T15:14:54Z</time>
      </trkpt>
      <trkpt lat="46.49299" lon="-0.37433">
        <ele>117</ele>
        <time>2013-04-26T15:14:59Z</time>
      </trkpt>
      <trkpt lat="46.49294" lon="-0.37439">
        <ele>117</ele>
        <time>2013-04-26T15:15:04Z</time>
      </trkpt>
      <trkpt lat="46.4929" lon="-0.37444">
        <ele>117</ele>
        <time>2013-04-26T15:15:09Z</time>
      </trkpt>
      <trkpt lat="46.49285" lon="-0.3745">
        <ele>117</ele>
        <time>2013-04-26T15:15:14Z</time>
      </trkpt>
      <trkpt lat="46.4928" lon="-0.37455">
        <ele>117</ele>
        <time>2013-04-26T15:15:19Z</time>
      </trkpt>
      <trkpt lat="46.49275" lon="-0.37461">
        <ele>116</ele>
        <time>2013-04-26T15:15:24Z</time>
      </trkpt>
      <trkpt lat="46.4927" lon="-0.37466">
        <ele>116</ele>
        <time>2013-04-26T15:15:29Z</time>
      </trkpt>
      <trkpt lat="46.49265" lon="-0.3747">
        <ele>116</ele>
        <time>2013-04-26T15:15:34Z</time>
      </trkpt>
      <trkpt lat="46.4926" lon="-0.37476">
        <ele>115</ele>
        <time>2013-04-26T15:15:39Z</time>
      </trkpt>
      <trkpt lat="46.49255" lon="-0.37481">
        <ele>115</ele>
        <time>2013-04-26T15:15:44Z</time>
      </trkpt>
      <trkpt lat="46.4925" lon="-0.37484">
        <ele>115</ele>
        <time>2013-04-26T15:15:49Z</time>
      </trkpt>
      <trkpt lat="46.49246" lon="-0.3749">
        <ele>116</ele>
        <time>2013-04-26T15:15:54Z</time>
      </trkpt>
      <trkpt lat="46.49242" lon="-0.37494">
        <ele>116</ele>
        <time>2013-04-26T15:15:59Z</time>
      </trkpt>
      <trkpt lat="46.49237" lon="-0.37497">
        <ele>116</ele>
        <time>2013-04-26T15:16:04Z</time>
      </trkpt>
      <trkpt lat="46.49232" lon="-0.37503">
        <ele>115</ele>
        <time>2013-04-26T15:16:09Z</time>
      </trkpt>
      <trkpt lat="46.49227" lon="-0.37507">
        <ele>115</ele>
        <time>2013-04-26T15:16:14Z</time>
      </trkpt>
      <trkpt lat="46.49223" lon="-0.37511">
        <ele>115</ele>
        <time>2013-04-26T15:16:19Z</time>
      </trkpt>
      <trkpt lat="46.49219" lon="-0.37516">
        <ele>116</ele>
        <time>2013-04-26T15:16:24Z</time>
      </trkpt>
      <trkpt lat="46.49219" lon="-0.37515">
        <ele>116</ele>
        <time>2013-04-26T15:16:29Z</time>
      </trkpt>
      <trkpt lat="46.49213" lon="-0.37523">
        <ele>116</ele>
        <time>2013-04-26T15:16:34Z</time>
      </trkpt>
      <trkpt lat="46.49209" lon="-0.37529">
        <ele>116</ele>
        <time>2013-04-26T15:16:39Z</time>
      </trkpt>
      <trkpt lat="46.49204" lon="-0.37534">
        <ele>115</ele>
        <time>2013-04-26T15:16:44Z</time>
      </trkpt>
      <trkpt lat="46.49199" lon="-0.37539">
        <ele>115</ele>
        <time>2013-04-26T15:16:49Z</time>
      </trkpt>
      <trkpt lat="46.49195" lon="-0.37543">
        <ele>116</ele>
        <time>2013-04-26T15:16:54Z</time>
      </trkpt>
      <trkpt lat="46.4919" lon="-0.37548">
        <ele>116</ele>
        <time>2013-04-26T15:16:59Z</time>
      </trkpt>
      <trkpt lat="46.49186" lon="-0.37554">
        <ele>116</ele>
        <time>2013-04-26T15:17:04Z</time>
      </trkpt>
      <trkpt lat="46.49182" lon="-0.37558">
        <ele>116</ele>
        <time>2013-04-26T15:17:09Z</time>
      </trkpt>
      <trkpt lat="46.49177" lon="-0.37563">
        <ele>114</ele>
        <time>2013-04-26T15:17:14Z</time>
      </trkpt>
      <trkpt lat="46.49173" lon="-0.37568">
        <ele>114</ele>
        <time>2013-04-26T15:17:19Z</time>
      </trkpt>
      <trkpt lat="46.49168" lon="-0.37575">
        <ele>115</ele>
        <time>2013-04-26T15:17:24Z</time>
      </trkpt>
      <trkpt lat="46.49165" lon="-0.37579">
        <ele>115</ele>
        <time>2013-04-26T15:17:29Z</time>
      </trkpt>
      <trkpt lat="46.4916" lon="-0.37584">
        <ele>115</ele>
        <time>2013-04-26T15:17:34Z</time>
      </trkpt>
      <trkpt lat="46.49155" lon="-0.37588">
        <ele>115</ele>
        <time>2013-04-26T15:17:39Z</time>
      </trkpt>
      <trkpt lat="46.4915" lon="-0.37592">
        <ele>114</ele>
        <time>2013-04-26T15:17:44Z</time>
      </trkpt>
      <trkpt lat="46.49145" lon="-0.37596">
        <ele>114</ele>
        <time>2013-04-26T15:17:49Z</time>
      </trkpt>
      <trkpt lat="46.49141" lon="-0.37599">
        <ele>116</ele>
        <time>2013-04-26T15:17:54Z</time>
      </trkpt>
      <trkpt lat="46.49136" lon="-0.37603">
        <ele>116</ele>
        <time>2013-04-26T15:17:59Z</time>
      </trkpt>
      <trkpt lat="46.49132" lon="-0.37607">
        <ele>116</ele>
        <time>2013-04-26T15:18:04Z</time>
      </trkpt>
      <trkpt lat="46.49128" lon="-0.37613">
        <ele>116</ele>
        <time>2013-04-26T15:18:09Z</time>
      </trkpt>
      <trkpt lat="46.49124" lon="-0.37617">
        <ele>114</ele>
        <time>2013-04-26T15:18:14Z</time>
      </trkpt>
      <trkpt lat="46.49118" lon="-0.37622">
        <ele>114</ele>
        <time>2013-04-26T15:18:19Z</time>
      </trkpt>
      <trkpt lat="46.49114" lon="-0.37629">
        <ele>115</ele>
        <time>2013-04-26T15:18:24Z</time>
      </trkpt>
      <trkpt lat="46.4911" lon="-0.37634">
        <ele>115</ele>
        <time>2013-04-26T15:18:29Z</time>
      </trkpt>
      <trkpt lat="46.49106" lon="-0.37641">
        <ele>115</ele>
        <time>2013-04-26T15:18:34Z</time>
      </trkpt>
      <trkpt lat="46.49101" lon="-0.37646">
        <ele>115</ele>
        <time>2013-04-26T15:18:39Z</time>
      </trkpt>
      <trkpt lat="46.49096" lon="-0.37651">
        <ele>111</ele>
        <time>2013-04-26T15:18:44Z</time>
      </trkpt>
      <trkpt lat="46.49093" lon="-0.37658">
        <ele>111</ele>
        <time>2013-04-26T15:18:49Z</time>
      </trkpt>
      <trkpt lat="46.49088" lon="-0.37666">
        <ele>111</ele>
        <time>2013-04-26T15:18:54Z</time>
      </trkpt>
      <trkpt lat="46.49085" lon="-0.37674">
        <ele>111</ele>
        <time>2013-04-26T15:18:59Z</time>
      </trkpt>
      <trkpt lat="46.4908" lon="-0.37679">
        <ele>111</ele>
        <time>2013-04-26T15:19:04Z</time>
      </trkpt>
      <trkpt lat="46.49079" lon="-0.37684">
        <ele>110</ele>
        <time>2013-04-26T15:19:09Z</time>
      </trkpt>
      <trkpt lat="46.49073" lon="-0.37689">
        <ele>110</ele>
        <time>2013-04-26T15:19:14Z</time>
      </trkpt>
      <trkpt lat="46.49072" lon="-0.37691">
        <ele>110</ele>
        <time>2013-04-26T15:19:19Z</time>
      </trkpt>
      <trkpt lat="46.49073" lon="-0.3769">
        <ele>110</ele>
        <time>2013-04-26T15:19:24Z</time>
      </trkpt>
      <trkpt lat="46.49071" lon="-0.37695">
        <ele>110</ele>
        <time>2013-04-26T15:19:29Z</time>
      </trkpt>
      <trkpt lat="46.49069" lon="-0.37704">
        <ele>108</ele>
        <time>2013-04-26T15:19:34Z</time>
      </trkpt>
      <trkpt lat="46.49066" lon="-0.3771">
        <ele>108</ele>
        <time>2013-04-26T15:19:39Z</time>
      </trkpt>
      <trkpt lat="46.49064" lon="-0.37719">
        <ele>108</ele>
        <time>2013-04-26T15:19:44Z</time>
      </trkpt>
      <trkpt lat="46.49062" lon="-0.37727">
        <ele>108</ele>
        <time>2013-04-26T15:19:49Z</time>
      </trkpt>
      <trkpt lat="46.49061" lon="-0.37735">
        <ele>108</ele>
        <time>2013-04-26T15:19:54Z</time>
      </trkpt>
      <trkpt lat="46.49058" lon="-0.37741">
        <ele>108</ele>
        <time>2013-04-26T15:19:59Z</time>
      </trkpt>
      <trkpt lat="46.49058" lon="-0.37749">
        <ele>108</ele>
        <time>2013-04-26T15:20:04Z</time>
      </trkpt>
      <trkpt lat="46.49056" lon="-0.37756">
        <ele>108</ele>
        <time>2013-04-26T15:20:09Z</time>
      </trkpt>
      <trkpt lat="46.49053" lon="-0.37767">
        <ele>109</ele>
        <time>2013-04-26T15:20:14Z</time>
      </trkpt>
      <trkpt lat="46.4905" lon="-0.37776">
        <ele>109</ele>
        <time>2013-04-26T15:20:19Z</time>
      </trkpt>
      <trkpt lat="46.49047" lon="-0.37783">
        <ele>109</ele>
        <time>2013-04-26T15:20:24Z</time>
      </trkpt>
      <trkpt lat="46.49046" lon="-0.3779">
        <ele>109</ele>
        <time>2013-04-26T15:20:29Z</time>
      </trkpt>
      <trkpt lat="46.49042" lon="-0.37798">
        <ele>108</ele>
        <time>2013-04-26T15:20:34Z</time>
      </trkpt>
      <trkpt lat="46.49039" lon="-0.37804">
        <ele>106</ele>
        <time>2013-04-26T15:20:39Z</time>
      </trkpt>
      <trkpt lat="46.49036" lon="-0.37812">
        <ele>106</ele>
        <time>2013-04-26T15:20:44Z</time>
      </trkpt>
      <trkpt lat="46.49034" lon="-0.37819">
        <ele>106</ele>
        <time>2013-04-26T15:20:49Z</time>
      </trkpt>
      <trkpt lat="46.49031" lon="-0.37826">
        <ele>106</ele>
        <time>2013-04-26T15:20:54Z</time>
      </trkpt>
      <trkpt lat="46.49027" lon="-0.37833">
        <ele>106</ele>
        <time>2013-04-26T15:20:59Z</time>
      </trkpt>
      <trkpt lat="46.49024" lon="-0.37842">
        <ele>106</ele>
        <time>2013-04-26T15:21:04Z</time>
      </trkpt>
      <trkpt lat="46.49021" lon="-0.37848">
        <ele>106</ele>
        <time>2013-04-26T15:21:09Z</time>
      </trkpt>
      <trkpt lat="46.49019" lon="-0.37856">
        <ele>106</ele>
        <time>2013-04-26T15:21:14Z</time>
      </trkpt>
      <trkpt lat="46.49015" lon="-0.37862">
        <ele>106</ele>
        <time>2013-04-26T15:21:19Z</time>
      </trkpt>
      <trkpt lat="46.4901" lon="-0.37868">
        <ele>103</ele>
        <time>2013-04-26T15:21:24Z</time>
      </trkpt>
      <trkpt lat="46.49006" lon="-0.37873">
        <ele>103</ele>
        <time>2013-04-26T15:21:29Z</time>
      </trkpt>
      <trkpt lat="46.49004" lon="-0.37878">
        <ele>103</ele>
        <time>2013-04-26T15:21:34Z</time>
      </trkpt>
      <trkpt lat="46.48999" lon="-0.37882">
        <ele>103</ele>
        <time>2013-04-26T15:21:39Z</time>
      </trkpt>
      <trkpt lat="46.48993" lon="-0.37887">
        <ele>103</ele>
        <time>2013-04-26T15:21:44Z</time>
      </trkpt>
      <trkpt lat="46.48988" lon="-0.37894">
        <ele>103</ele>
        <time>2013-04-26T15:21:49Z</time>
      </trkpt>
      <trkpt lat="46.48983" lon="-0.37899">
        <ele>101</ele>
        <time>2013-04-26T15:21:54Z</time>
      </trkpt>
      <trkpt lat="46.4898" lon="-0.37904">
        <ele>101</ele>
        <time>2013-04-26T15:21:59Z</time>
      </trkpt>
      <trkpt lat="46.48977" lon="-0.37909">
        <ele>101</ele>
        <time>2013-04-26T15:22:04Z</time>
      </trkpt>
      <trkpt lat="46.48974" lon="-0.37918">
        <ele>101</ele>
        <time>2013-04-26T15:22:09Z</time>
      </trkpt>
      <trkpt lat="46.48975" lon="-0.37923">
        <ele>101</ele>
        <time>2013-04-26T15:22:14Z</time>
      </trkpt>
      <trkpt lat="46.48976" lon="-0.37924">
        <ele>101</ele>
        <time>2013-04-26T15:22:19Z</time>
      </trkpt>
      <trkpt lat="46.48977" lon="-0.37923">
        <ele>101</ele>
        <time>2013-04-26T15:22:29Z</time>
      </trkpt>
      <trkpt lat="46.48978" lon="-0.37925">
        <ele>101</ele>
        <time>2013-04-26T15:22:34Z</time>
      </trkpt>
      <trkpt lat="46.48982" lon="-0.3793">
        <ele>101</ele>
        <time>2013-04-26T15:22:39Z</time>
      </trkpt>
      <trkpt lat="46.48987" lon="-0.37935">
        <ele>104</ele>
        <time>2013-04-26T15:22:44Z</time>
      </trkpt>
      <trkpt lat="46.48989" lon="-0.37941">
        <ele>104</ele>
        <time>2013-04-26T15:22:49Z</time>
      </trkpt>
      <trkpt lat="46.48991" lon="-0.37946">
        <ele>104</ele>
        <time>2013-04-26T15:22:54Z</time>
      </trkpt>
      <trkpt lat="46.48993" lon="-0.37951">
        <ele>104</ele>
        <time>2013-04-26T15:22:59Z</time>
      </trkpt>
      <trkpt lat="46.48994" lon="-0.37951">
        <ele>104</ele>
        <time>2013-04-26T15:23:04Z</time>
      </trkpt>
      <trkpt lat="46.48993" lon="-0.37948">
        <ele>104</ele>
        <time>2013-04-26T15:23:09Z</time>
      </trkpt>
      <trkpt lat="46.48993" lon="-0.3795">
        <ele>104</ele>
        <time>2013-04-26T15:23:14Z</time>
      </trkpt>
      <trkpt lat="46.48994" lon="-0.37953">
        <ele>104</ele>
        <time>2013-04-26T15:23:19Z</time>
      </trkpt>
      <trkpt lat="46.48995" lon="-0.37951">
        <ele>104</ele>
        <time>2013-04-26T15:23:34Z</time>
      </trkpt>
      <trkpt lat="46.48994" lon="-0.37953">
        <ele>104</ele>
        <time>2013-04-26T15:23:39Z</time>
      </trkpt>
      <trkpt lat="46.48993" lon="-0.37955">
        <ele>104</ele>
        <time>2013-04-26T15:23:44Z</time>
      </trkpt>
      <trkpt lat="46.48993" lon="-0.37958">
        <ele>104</ele>
        <time>2013-04-26T15:23:49Z</time>
      </trkpt>
      <trkpt lat="46.48993" lon="-0.37959">
        <ele>104</ele>
        <time>2013-04-26T15:23:59Z</time>
      </trkpt>
      <trkpt lat="46.48992" lon="-0.37959">
        <ele>104</ele>
        <time>2013-04-26T15:24:04Z</time>
      </trkpt>
      <trkpt lat="46.48993" lon="-0.37958">
        <ele>104</ele>
        <time>2013-04-26T15:24:09Z</time>
      </trkpt>
      <trkpt lat="46.48993" lon="-0.37959">
        <ele>104</ele>
        <time>2013-04-26T15:24:19Z</time>
      </trkpt>
      <trkpt lat="46.48992" lon="-0.37959">
        <ele>104</ele>
        <time>2013-04-26T15:24:24Z</time>
      </trkpt>
      <trkpt lat="46.48992" lon="-0.37957">
        <ele>104</ele>
        <time>2013-04-26T15:24:29Z</time>
      </trkpt>
      <trkpt lat="46.48992" lon="-0.37959">
        <ele>104</ele>
        <time>2013-04-26T15:24:34Z</time>
      </trkpt>
      <trkpt lat="46.48994" lon="-0.3797">
        <ele>104</ele>
        <time>2013-04-26T15:29:27Z</time>
      </trkpt>
      <trkpt lat="46.48993" lon="-0.37965">
        <ele>104</ele>
        <time>2013-04-26T15:29:32Z</time>
      </trkpt>
      <trkpt lat="46.48992" lon="-0.37962">
        <ele>104</ele>
        <time>2013-04-26T15:29:37Z</time>
      </trkpt>
      <trkpt lat="46.48992" lon="-0.37962">
        <ele>104</ele>
        <time>2013-04-26T15:29:42Z</time>
      </trkpt>
      <trkpt lat="46.48991" lon="-0.37961">
        <ele>104</ele>
        <time>2013-04-26T15:29:47Z</time>
      </trkpt>
      <trkpt lat="46.48991" lon="-0.37959">
        <ele>104</ele>
        <time>2013-04-26T15:29:52Z</time>
      </trkpt>
      <trkpt lat="46.48992" lon="-0.37959">
        <ele>104</ele>
        <time>2013-04-26T15:29:57Z</time>
      </trkpt>
      <trkpt lat="46.48992" lon="-0.37959">
        <ele>104</ele>
        <time>2013-04-26T15:30:02Z</time>
      </trkpt>
      <trkpt lat="46.48992" lon="-0.37959">
        <ele>104</ele>
        <time>2013-04-26T15:30:37Z</time>
      </trkpt>
      <trkpt lat="46.48992" lon="-0.37957">
        <ele>104</ele>
        <time>2013-04-26T15:30:42Z</time>
      </trkpt>
      <trkpt lat="46.48992" lon="-0.37956">
        <ele>104</ele>
        <time>2013-04-26T15:30:47Z</time>
      </trkpt>
      <trkpt lat="46.48994" lon="-0.37954">
        <ele>104</ele>
        <time>2013-04-26T15:30:52Z</time>
      </trkpt>
      <trkpt lat="46.48994" lon="-0.37953">
        <ele>104</ele>
        <time>2013-04-26T15:30:57Z</time>
      </trkpt>
      <trkpt lat="46.48993" lon="-0.37954">
        <ele>104</ele>
        <time>2013-04-26T15:31:02Z</time>
      </trkpt>
      <trkpt lat="46.48994" lon="-0.37954">
        <ele>104</ele>
        <time>2013-04-26T15:31:07Z</time>
      </trkpt>
      <trkpt lat="46.48994" lon="-0.37953">
        <ele>104</ele>
        <time>2013-04-26T15:31:27Z</time>
      </trkpt>
      <trkpt lat="46.48995" lon="-0.37954">
        <ele>104</ele>
        <time>2013-04-26T15:31:37Z</time>
      </trkpt>
      <trkpt lat="46.48996" lon="-0.37954">
        <ele>104</ele>
        <time>2013-04-26T15:31:42Z</time>
      </trkpt>
      <trkpt lat="46.48994" lon="-0.37948">
        <ele>104</ele>
        <time>2013-04-26T15:31:47Z</time>
      </trkpt>
      <trkpt lat="46.48993" lon="-0.37945">
        <ele>104</ele>
        <time>2013-04-26T15:31:52Z</time>
      </trkpt>
      <trkpt lat="46.4899" lon="-0.37939">
        <ele>104</ele>
        <time>2013-04-26T15:31:57Z</time>
      </trkpt>
      <trkpt lat="46.48988" lon="-0.37936">
        <ele>104</ele>
        <time>2013-04-26T15:32:02Z</time>
      </trkpt>
      <trkpt lat="46.48985" lon="-0.37932">
        <ele>102</ele>
        <time>2013-04-26T15:32:07Z</time>
      </trkpt>
      <trkpt lat="46.48982" lon="-0.37925">
        <ele>101</ele>
        <time>2013-04-26T15:32:12Z</time>
      </trkpt>
      <trkpt lat="46.48981" lon="-0.37921">
        <ele>101</ele>
        <time>2013-04-26T15:32:17Z</time>
      </trkpt>
      <trkpt lat="46.48978" lon="-0.37916">
        <ele>101</ele>
        <time>2013-04-26T15:32:22Z</time>
      </trkpt>
      <trkpt lat="46.48973" lon="-0.37916">
        <ele>101</ele>
        <time>2013-04-26T15:32:27Z</time>
      </trkpt>
      <trkpt lat="46.48967" lon="-0.37911">
        <ele>101</ele>
        <time>2013-04-26T15:32:32Z</time>
      </trkpt>
      <trkpt lat="46.48962" lon="-0.37908">
        <ele>101</ele>
        <time>2013-04-26T15:32:37Z</time>
      </trkpt>
      <trkpt lat="46.48957" lon="-0.37904">
        <ele>99</ele>
        <time>2013-04-26T15:32:42Z</time>
      </trkpt>
      <trkpt lat="46.48953" lon="-0.37899">
        <ele>99</ele>
        <time>2013-04-26T15:32:47Z</time>
      </trkpt>
      <trkpt lat="46.48951" lon="-0.37894">
        <ele>99</ele>
        <time>2013-04-26T15:32:52Z</time>
      </trkpt>
      <trkpt lat="46.48947" lon="-0.3789">
        <ele>99</ele>
        <time>2013-04-26T15:32:57Z</time>
      </trkpt>
      <trkpt lat="46.48943" lon="-0.37885">
        <ele>99</ele>
        <time>2013-04-26T15:33:02Z</time>
      </trkpt>
      <trkpt lat="46.48939" lon="-0.3788">
        <ele>99</ele>
        <time>2013-04-26T15:33:07Z</time>
      </trkpt>
      <trkpt lat="46.48936" lon="-0.37874">
        <ele>98</ele>
        <time>2013-04-26T15:33:12Z</time>
      </trkpt>
      <trkpt lat="46.48932" lon="-0.37869">
        <ele>98</ele>
        <time>2013-04-26T15:33:17Z</time>
      </trkpt>
      <trkpt lat="46.48926" lon="-0.37863">
        <ele>96</ele>
        <time>2013-04-26T15:33:22Z</time>
      </trkpt>
      <trkpt lat="46.48921" lon="-0.37859">
        <ele>96</ele>
        <time>2013-04-26T15:33:27Z</time>
      </trkpt>
      <trkpt lat="46.48917" lon="-0.37856">
        <ele>96</ele>
        <time>2013-04-26T15:33:32Z</time>
      </trkpt>
      <trkpt lat="46.48911" lon="-0.37852">
        <ele>96</ele>
        <time>2013-04-26T15:33:37Z</time>
      </trkpt>
      <trkpt lat="46.48908" lon="-0.37849">
        <ele>96</ele>
        <time>2013-04-26T15:33:42Z</time>
      </trkpt>
      <trkpt lat="46.48902" lon="-0.37844">
        <ele>94</ele>
        <time>2013-04-26T15:33:47Z</time>
      </trkpt>
      <trkpt lat="46.48898" lon="-0.3784">
        <ele>94</ele>
        <time>2013-04-26T15:33:52Z</time>
      </trkpt>
      <trkpt lat="46.48894" lon="-0.37836">
        <ele>94</ele>
        <time>2013-04-26T15:33:57Z</time>
      </trkpt>
      <trkpt lat="46.48888" lon="-0.3783">
        <ele>94</ele>
        <time>2013-04-26T15:34:02Z</time>
      </trkpt>
      <trkpt lat="46.48884" lon="-0.37827">
        <ele>94</ele>
        <time>2013-04-26T15:34:07Z</time>
      </trkpt>
      <trkpt lat="46.48879" lon="-0.37822">
        <ele>94</ele>
        <time>2013-04-26T15:34:12Z</time>
      </trkpt>
      <trkpt lat="46.48874" lon="-0.37816">
        <ele>96</ele>
        <time>2013-04-26T15:34:17Z</time>
      </trkpt>
      <trkpt lat="46.48872" lon="-0.37809">
        <ele>96</ele>
        <time>2013-04-26T15:34:22Z</time>
      </trkpt>
      <trkpt lat="46.48865" lon="-0.37804">
        <ele>96</ele>
        <time>2013-04-26T15:34:27Z</time>
      </trkpt>
      <trkpt lat="46.48859" lon="-0.37804">
        <ele>96</ele>
        <time>2013-04-26T15:34:32Z</time>
      </trkpt>
      <trkpt lat="46.48855" lon="-0.37798">
        <ele>96</ele>
        <time>2013-04-26T15:34:37Z</time>
      </trkpt>
      <trkpt lat="46.48847" lon="-0.37794">
        <ele>99</ele>
        <time>2013-04-26T15:34:42Z</time>
      </trkpt>
      <trkpt lat="46.48843" lon="-0.3779">
        <ele>99</ele>
        <time>2013-04-26T15:34:47Z</time>
      </trkpt>
      <trkpt lat="46.48837" lon="-0.37786">
        <ele>99</ele>
        <time>2013-04-26T15:34:52Z</time>
      </trkpt>
      <trkpt lat="46.48832" lon="-0.37783">
        <ele>99</ele>
        <time>2013-04-26T15:34:57Z</time>
      </trkpt>
      <trkpt lat="46.48827" lon="-0.37778">
        <ele>99</ele>
        <time>2013-04-26T15:35:02Z</time>
      </trkpt>
      <trkpt lat="46.48823" lon="-0.37774">
        <ele>99</ele>
        <time>2013-04-26T15:35:07Z</time>
      </trkpt>
      <trkpt lat="46.48819" lon="-0.37769">
        <ele>102</ele>
        <time>2013-04-26T15:35:12Z</time>
      </trkpt>
      <trkpt lat="46.48815" lon="-0.37765">
        <ele>102</ele>
        <time>2013-04-26T15:35:17Z</time>
      </trkpt>
      <trkpt lat="46.48808" lon="-0.37759">
        <ele>101</ele>
        <time>2013-04-26T15:35:22Z</time>
      </trkpt>
      <trkpt lat="46.48804" lon="-0.37754">
        <ele>101</ele>
        <time>2013-04-26T15:35:27Z</time>
      </trkpt>
      <trkpt lat="46.48799" lon="-0.3775">
        <ele>101</ele>
        <time>2013-04-26T15:35:32Z</time>
      </trkpt>
      <trkpt lat="46.48794" lon="-0.37749">
        <ele>101</ele>
        <time>2013-04-26T15:35:37Z</time>
      </trkpt>
      <trkpt lat="46.4879" lon="-0.37749">
        <ele>103</ele>
        <time>2013-04-26T15:35:42Z</time>
      </trkpt>
      <trkpt lat="46.48784" lon="-0.37752">
        <ele>103</ele>
        <time>2013-04-26T15:35:47Z</time>
      </trkpt>
      <trkpt lat="46.48779" lon="-0.37757">
        <ele>103</ele>
        <time>2013-04-26T15:35:52Z</time>
      </trkpt>
      <trkpt lat="46.48774" lon="-0.37763">
        <ele>103</ele>
        <time>2013-04-26T15:35:57Z</time>
      </trkpt>
      <trkpt lat="46.48771" lon="-0.37769">
        <ele>103</ele>
        <time>2013-04-26T15:36:02Z</time>
      </trkpt>
      <trkpt lat="46.48768" lon="-0.37775">
        <ele>103</ele>
        <time>2013-04-26T15:36:07Z</time>
      </trkpt>
      <trkpt lat="46.48765" lon="-0.37782">
        <ele>103</ele>
        <time>2013-04-26T15:36:12Z</time>
      </trkpt>
      <trkpt lat="46.48762" lon="-0.37787">
        <ele>102</ele>
        <time>2013-04-26T15:36:17Z</time>
      </trkpt>
      <trkpt lat="46.48757" lon="-0.37793">
        <ele>103</ele>
        <time>2013-04-26T15:36:22Z</time>
      </trkpt>
      <trkpt lat="46.48754" lon="-0.37799">
        <ele>103</ele>
        <time>2013-04-26T15:36:27Z</time>
      </trkpt>
      <trkpt lat="46.48751" lon="-0.37806">
        <ele>103</ele>
        <time>2013-04-26T15:36:32Z</time>
      </trkpt>
      <trkpt lat="46.48747" lon="-0.37811">
        <ele>103</ele>
        <time>2013-04-26T15:36:37Z</time>
      </trkpt>
      <trkpt lat="46.48746" lon="-0.37813">
        <ele>103</ele>
        <time>2013-04-26T15:36:42Z</time>
      </trkpt>
      <trkpt lat="46.48746" lon="-0.37812">
        <ele>103</ele>
        <time>2013-04-26T15:36:47Z</time>
      </trkpt>
      <trkpt lat="46.48744" lon="-0.37811">
        <ele>103</ele>
        <time>2013-04-26T15:36:52Z</time>
      </trkpt>
      <trkpt lat="46.48741" lon="-0.37809">
        <ele>103</ele>
        <time>2013-04-26T15:36:57Z</time>
      </trkpt>
      <trkpt lat="46.48737" lon="-0.37808">
        <ele>103</ele>
        <time>2013-04-26T15:37:02Z</time>
      </trkpt>
      <trkpt lat="46.48731" lon="-0.37806">
        <ele>101</ele>
        <time>2013-04-26T15:37:07Z</time>
      </trkpt>
      <trkpt lat="46.48727" lon="-0.37803">
        <ele>101</ele>
        <time>2013-04-26T15:37:12Z</time>
      </trkpt>
      <trkpt lat="46.48723" lon="-0.37798">
        <ele>101</ele>
        <time>2013-04-26T15:37:17Z</time>
      </trkpt>
      <trkpt lat="46.48719" lon="-0.37796">
        <ele>101</ele>
        <time>2013-04-26T15:37:22Z</time>
      </trkpt>
      <trkpt lat="46.48715" lon="-0.37791">
        <ele>101</ele>
        <time>2013-04-26T15:37:27Z</time>
      </trkpt>
      <trkpt lat="46.4871" lon="-0.37785">
        <ele>101</ele>
        <time>2013-04-26T15:37:32Z</time>
      </trkpt>
      <trkpt lat="46.48705" lon="-0.37779">
        <ele>100</ele>
        <time>2013-04-26T15:37:37Z</time>
      </trkpt>
      <trkpt lat="46.48702" lon="-0.37774">
        <ele>100</ele>
        <time>2013-04-26T15:37:42Z</time>
      </trkpt>
      <trkpt lat="46.48697" lon="-0.37769">
        <ele>100</ele>
        <time>2013-04-26T15:37:47Z</time>
      </trkpt>
      <trkpt lat="46.48691" lon="-0.37762">
        <ele>100</ele>
        <time>2013-04-26T15:37:52Z</time>
      </trkpt>
      <trkpt lat="46.48688" lon="-0.37757">
        <ele>100</ele>
        <time>2013-04-26T15:37:57Z</time>
      </trkpt>
      <trkpt lat="46.48686" lon="-0.37755">
        <ele>100</ele>
        <time>2013-04-26T15:38:02Z</time>
      </trkpt>
      <trkpt lat="46.4868" lon="-0.37748">
        <ele>98</ele>
        <time>2013-04-26T15:38:07Z</time>
      </trkpt>
      <trkpt lat="46.48673" lon="-0.37741">
        <ele>98</ele>
        <time>2013-04-26T15:38:12Z</time>
      </trkpt>
      <trkpt lat="46.48669" lon="-0.37737">
        <ele>98</ele>
        <time>2013-04-26T15:38:17Z</time>
      </trkpt>
      <trkpt lat="46.48666" lon="-0.37731">
        <ele>98</ele>
        <time>2013-04-26T15:38:22Z</time>
      </trkpt>
      <trkpt lat="46.48661" lon="-0.37724">
        <ele>98</ele>
        <time>2013-04-26T15:38:27Z</time>
      </trkpt>
      <trkpt lat="46.48658" lon="-0.37719">
        <ele>98</ele>
        <time>2013-04-26T15:38:32Z</time>
      </trkpt>
      <trkpt lat="46.48653" lon="-0.37714">
        <ele>98</ele>
        <time>2013-04-26T15:38:37Z</time>
      </trkpt>
      <trkpt lat="46.4865" lon="-0.3771">
        <ele>98</ele>
        <time>2013-04-26T15:38:42Z</time>
      </trkpt>
      <trkpt lat="46.48646" lon="-0.37706">
        <ele>97</ele>
        <time>2013-04-26T15:38:47Z</time>
      </trkpt>
      <trkpt lat="46.48642" lon="-0.37701">
        <ele>97</ele>
        <time>2013-04-26T15:38:52Z</time>
      </trkpt>
      <trkpt lat="46.48638" lon="-0.37696">
        <ele>97</ele>
        <time>2013-04-26T15:38:57Z</time>
      </trkpt>
      <trkpt lat="46.48634" lon="-0.37691">
        <ele>97</ele>
        <time>2013-04-26T15:39:02Z</time>
      </trkpt>
      <trkpt lat="46.4863" lon="-0.37688">
        <ele>97</ele>
        <time>2013-04-26T15:39:07Z</time>
      </trkpt>
      <trkpt lat="46.48625" lon="-0.37683">
        <ele>96</ele>
        <time>2013-04-26T15:39:12Z</time>
      </trkpt>
      <trkpt lat="46.4862" lon="-0.37679">
        <ele>95</ele>
        <time>2013-04-26T15:39:17Z</time>
      </trkpt>
      <trkpt lat="46.48616" lon="-0.37674">
        <ele>95</ele>
        <time>2013-04-26T15:39:22Z</time>
      </trkpt>
      <trkpt lat="46.48612" lon="-0.37669">
        <ele>95</ele>
        <time>2013-04-26T15:39:27Z</time>
      </trkpt>
      <trkpt lat="46.48608" lon="-0.37666">
        <ele>95</ele>
        <time>2013-04-26T15:39:32Z</time>
      </trkpt>
      <trkpt lat="46.48602" lon="-0.37661">
        <ele>95</ele>
        <time>2013-04-26T15:39:37Z</time>
      </trkpt>
      <trkpt lat="46.48599" lon="-0.37656">
        <ele>95</ele>
        <time>2013-04-26T15:39:42Z</time>
      </trkpt>
      <trkpt lat="46.48596" lon="-0.37654">
        <ele>93</ele>
        <time>2013-04-26T15:39:47Z</time>
      </trkpt>
      <trkpt lat="46.48591" lon="-0.37649">
        <ele>93</ele>
        <time>2013-04-26T15:39:52Z</time>
      </trkpt>
      <trkpt lat="46.48586" lon="-0.37645">
        <ele>93</ele>
        <time>2013-04-26T15:39:57Z</time>
      </trkpt>
      <trkpt lat="46.48583" lon="-0.3764">
        <ele>93</ele>
        <time>2013-04-26T15:40:02Z</time>
      </trkpt>
      <trkpt lat="46.48579" lon="-0.37634">
        <ele>93</ele>
        <time>2013-04-26T15:40:07Z</time>
      </trkpt>
      <trkpt lat="46.48575" lon="-0.37626">
        <ele>93</ele>
        <time>2013-04-26T15:40:12Z</time>
      </trkpt>
      <trkpt lat="46.48572" lon="-0.37621">
        <ele>93</ele>
        <time>2013-04-26T15:40:17Z</time>
      </trkpt>
      <trkpt lat="46.48569" lon="-0.37615">
        <ele>92</ele>
        <time>2013-04-26T15:40:22Z</time>
      </trkpt>
      <trkpt lat="46.48566" lon="-0.37609">
        <ele>92</ele>
        <time>2013-04-26T15:40:27Z</time>
      </trkpt>
      <trkpt lat="46.48563" lon="-0.37602">
        <ele>92</ele>
        <time>2013-04-26T15:40:32Z</time>
      </trkpt>
      <trkpt lat="46.4856" lon="-0.37596">
        <ele>91</ele>
        <time>2013-04-26T15:40:37Z</time>
      </trkpt>
      <trkpt lat="46.48556" lon="-0.37592">
        <ele>91</ele>
        <time>2013-04-26T15:40:42Z</time>
      </trkpt>
      <trkpt lat="46.48553" lon="-0.37585">
        <ele>91</ele>
        <time>2013-04-26T15:40:47Z</time>
      </trkpt>
      <trkpt lat="46.48548" lon="-0.37577">
        <ele>91</ele>
        <time>2013-04-26T15:40:52Z</time>
      </trkpt>
      <trkpt lat="46.48545" lon="-0.3757">
        <ele>91</ele>
        <time>2013-04-26T15:40:57Z</time>
      </trkpt>
      <trkpt lat="46.4854" lon="-0.37563">
        <ele>90</ele>
        <time>2013-04-26T15:41:02Z</time>
      </trkpt>
      <trkpt lat="46.48534" lon="-0.37558">
        <ele>90</ele>
        <time>2013-04-26T15:41:07Z</time>
      </trkpt>
      <trkpt lat="46.48529" lon="-0.37555">
        <ele>90</ele>
        <time>2013-04-26T15:41:12Z</time>
      </trkpt>
      <trkpt lat="46.4853" lon="-0.37555">
        <ele>90</ele>
        <time>2013-04-26T15:41:17Z</time>
      </trkpt>
      <trkpt lat="46.48531" lon="-0.37554">
        <ele>90</ele>
        <time>2013-04-26T15:41:22Z</time>
      </trkpt>
      <trkpt lat="46.48529" lon="-0.37555">
        <ele>90</ele>
        <time>2013-04-26T15:41:27Z</time>
      </trkpt>
      <trkpt lat="46.48526" lon="-0.37553">
        <ele>90</ele>
        <time>2013-04-26T15:41:32Z</time>
      </trkpt>
      <trkpt lat="46.48521" lon="-0.37548">
        <ele>90</ele>
        <time>2013-04-26T15:41:37Z</time>
      </trkpt>
      <trkpt lat="46.48521" lon="-0.37541">
        <ele>91</ele>
        <time>2013-04-26T15:41:42Z</time>
      </trkpt>
      <trkpt lat="46.48518" lon="-0.37534">
        <ele>91</ele>
        <time>2013-04-26T15:41:47Z</time>
      </trkpt>
      <trkpt lat="46.48516" lon="-0.37529">
        <ele>91</ele>
        <time>2013-04-26T15:41:52Z</time>
      </trkpt>
      <trkpt lat="46.48515" lon="-0.37522">
        <ele>91</ele>
        <time>2013-04-26T15:41:57Z</time>
      </trkpt>
      <trkpt lat="46.48512" lon="-0.37517">
        <ele>91</ele>
        <time>2013-04-26T15:42:02Z</time>
      </trkpt>
      <trkpt lat="46.4851" lon="-0.37513">
        <ele>92</ele>
        <time>2013-04-26T15:42:07Z</time>
      </trkpt>
      <trkpt lat="46.48511" lon="-0.37515">
        <ele>91</ele>
        <time>2013-04-26T15:42:12Z</time>
      </trkpt>
      <trkpt lat="46.4851" lon="-0.37516">
        <ele>91</ele>
        <time>2013-04-26T15:42:17Z</time>
      </trkpt>
      <trkpt lat="46.48507" lon="-0.37516">
        <ele>91</ele>
        <time>2013-04-26T15:42:22Z</time>
      </trkpt>
      <trkpt lat="46.48504" lon="-0.37514">
        <ele>91</ele>
        <time>2013-04-26T15:42:27Z</time>
      </trkpt>
      <trkpt lat="46.48503" lon="-0.37514">
        <ele>91</ele>
        <time>2013-04-26T15:42:32Z</time>
      </trkpt>
      <trkpt lat="46.48502" lon="-0.37514">
        <ele>91</ele>
        <time>2013-04-26T15:42:37Z</time>
      </trkpt>
      <trkpt lat="46.48502" lon="-0.37514">
        <ele>91</ele>
        <time>2013-04-26T15:42:42Z</time>
      </trkpt>
      <trkpt lat="46.48502" lon="-0.37514">
        <ele>91</ele>
        <time>2013-04-26T15:42:47Z</time>
      </trkpt>
      <trkpt lat="46.48499" lon="-0.37514">
        <ele>91</ele>
        <time>2013-04-26T15:42:52Z</time>
      </trkpt>
      <trkpt lat="46.48495" lon="-0.37513">
        <ele>92</ele>
        <time>2013-04-26T15:42:57Z</time>
      </trkpt>
      <trkpt lat="46.4849" lon="-0.37512">
        <ele>92</ele>
        <time>2013-04-26T15:43:02Z</time>
      </trkpt>
      <trkpt lat="46.48486" lon="-0.37511">
        <ele>89</ele>
        <time>2013-04-26T15:43:07Z</time>
      </trkpt>
      <trkpt lat="46.48483" lon="-0.37511">
        <ele>89</ele>
        <time>2013-04-26T15:43:12Z</time>
      </trkpt>
      <trkpt lat="46.48476" lon="-0.37507">
        <ele>89</ele>
        <time>2013-04-26T15:43:17Z</time>
      </trkpt>
      <trkpt lat="46.48471" lon="-0.37505">
        <ele>89</ele>
        <time>2013-04-26T15:43:22Z</time>
      </trkpt>
      <trkpt lat="46.48464" lon="-0.37501">
        <ele>89</ele>
        <time>2013-04-26T15:43:27Z</time>
      </trkpt>
      <trkpt lat="46.4846" lon="-0.37496">
        <ele>89</ele>
        <time>2013-04-26T15:43:32Z</time>
      </trkpt>
      <trkpt lat="46.48455" lon="-0.37489">
        <ele>86</ele>
        <time>2013-04-26T15:43:37Z</time>
      </trkpt>
      <trkpt lat="46.48452" lon="-0.37484">
        <ele>87</ele>
        <time>2013-04-26T15:43:42Z</time>
      </trkpt>
      <trkpt lat="46.48447" lon="-0.3748">
        <ele>87</ele>
        <time>2013-04-26T15:43:47Z</time>
      </trkpt>
      <trkpt lat="46.48441" lon="-0.37477">
        <ele>87</ele>
        <time>2013-04-26T15:43:52Z</time>
      </trkpt>
      <trkpt lat="46.48436" lon="-0.37477">
        <ele>87</ele>
        <time>2013-04-26T15:43:57Z</time>
      </trkpt>
      <trkpt lat="46.4843" lon="-0.37478">
        <ele>85</ele>
        <time>2013-04-26T15:44:02Z</time>
      </trkpt>
      <trkpt lat="46.48424" lon="-0.37482">
        <ele>85</ele>
        <time>2013-04-26T15:44:07Z</time>
      </trkpt>
      <trkpt lat="46.48421" lon="-0.37488">
        <ele>85</ele>
        <time>2013-04-26T15:44:12Z</time>
      </trkpt>
      <trkpt lat="46.48416" lon="-0.37493">
        <ele>85</ele>
        <time>2013-04-26T15:44:17Z</time>
      </trkpt>
      <trkpt lat="46.48411" lon="-0.37497">
        <ele>85</ele>
        <time>2013-04-26T15:44:22Z</time>
      </trkpt>
      <trkpt lat="46.48407" lon="-0.37501">
        <ele>85</ele>
        <time>2013-04-26T15:44:27Z</time>
      </trkpt>
      <trkpt lat="46.48404" lon="-0.37502">
        <ele>85</ele>
        <time>2013-04-26T15:44:32Z</time>
      </trkpt>
      <trkpt lat="46.48398" lon="-0.37503">
        <ele>83</ele>
        <time>2013-04-26T15:44:37Z</time>
      </trkpt>
      <trkpt lat="46.48397" lon="-0.37504">
        <ele>83</ele>
        <time>2013-04-26T15:44:42Z</time>
      </trkpt>
      <trkpt lat="46.48396" lon="-0.37504">
        <ele>83</ele>
        <time>2013-04-26T15:44:47Z</time>
      </trkpt>
      <trkpt lat="46.48394" lon="-0.37507">
        <ele>83</ele>
        <time>2013-04-26T15:44:52Z</time>
      </trkpt>
      <trkpt lat="46.48389" lon="-0.37512">
        <ele>83</ele>
        <time>2013-04-26T15:44:57Z</time>
      </trkpt>
      <trkpt lat="46.48382" lon="-0.37519">
        <ele>83</ele>
        <time>2013-04-26T15:45:02Z</time>
      </trkpt>
      <trkpt lat="46.48378" lon="-0.37523">
        <ele>83</ele>
        <time>2013-04-26T15:45:07Z</time>
      </trkpt>
      <trkpt lat="46.48377" lon="-0.37525">
        <ele>83</ele>
        <time>2013-04-26T15:45:12Z</time>
      </trkpt>
      <trkpt lat="46.48376" lon="-0.37526">
        <ele>83</ele>
        <time>2013-04-26T15:45:17Z</time>
      </trkpt>
      <trkpt lat="46.48364" lon="-0.3754">
        <ele>82</ele>
        <time>2013-04-26T15:45:22Z</time>
      </trkpt>
      <trkpt lat="46.48359" lon="-0.37548">
        <ele>80</ele>
        <time>2013-04-26T15:45:27Z</time>
      </trkpt>
      <trkpt lat="46.48355" lon="-0.37553">
        <ele>80</ele>
        <time>2013-04-26T15:45:32Z</time>
      </trkpt>
      <trkpt lat="46.48351" lon="-0.37559">
        <ele>80</ele>
        <time>2013-04-26T15:45:37Z</time>
      </trkpt>
      <trkpt lat="46.48348" lon="-0.37563">
        <ele>80</ele>
        <time>2013-04-26T15:45:42Z</time>
      </trkpt>
      <trkpt lat="46.48347" lon="-0.37564">
        <ele>82</ele>
        <time>2013-04-26T15:45:47Z</time>
      </trkpt>
      <trkpt lat="46.48345" lon="-0.37566">
        <ele>82</ele>
        <time>2013-04-26T15:45:52Z</time>
      </trkpt>
      <trkpt lat="46.48345" lon="-0.37566">
        <ele>82</ele>
        <time>2013-04-26T15:45:57Z</time>
      </trkpt>
      <trkpt lat="46.48346" lon="-0.37566">
        <ele>82</ele>
        <time>2013-04-26T15:46:07Z</time>
      </trkpt>
      <trkpt lat="46.48342" lon="-0.37568">
        <ele>82</ele>
        <time>2013-04-26T15:46:22Z</time>
      </trkpt>
      <trkpt lat="46.48336" lon="-0.3757">
        <ele>80</ele>
        <time>2013-04-26T15:46:27Z</time>
      </trkpt>
      <trkpt lat="46.48334" lon="-0.37572">
        <ele>80</ele>
        <time>2013-04-26T15:46:32Z</time>
      </trkpt>
      <trkpt lat="46.48331" lon="-0.37573">
        <ele>80</ele>
        <time>2013-04-26T15:46:37Z</time>
      </trkpt>
      <trkpt lat="46.4833" lon="-0.37574">
        <ele>80</ele>
        <time>2013-04-26T15:46:42Z</time>
      </trkpt>
      <trkpt lat="46.4833" lon="-0.37575">
        <ele>80</ele>
        <time>2013-04-26T15:46:47Z</time>
      </trkpt>
      <trkpt lat="46.48329" lon="-0.37575">
        <ele>80</ele>
        <time>2013-04-26T15:46:52Z</time>
      </trkpt>
      <trkpt lat="46.48328" lon="-0.37575">
        <ele>80</ele>
        <time>2013-04-26T15:47:17Z</time>
      </trkpt>
      <trkpt lat="46.48327" lon="-0.37576">
        <ele>80</ele>
        <time>2013-04-26T15:47:22Z</time>
      </trkpt>
      <trkpt lat="46.48325" lon="-0.37575">
        <ele>80</ele>
        <time>2013-04-26T15:47:37Z</time>
      </trkpt>
      <trkpt lat="46.48326" lon="-0.37574">
        <ele>80</ele>
        <time>2013-04-26T15:47:42Z</time>
      </trkpt>
      <trkpt lat="46.48326" lon="-0.37575">
        <ele>80</ele>
        <time>2013-04-26T15:47:47Z</time>
      </trkpt>
      <trkpt lat="46.48321" lon="-0.37572">
        <ele>80</ele>
        <time>2013-04-26T15:47:57Z</time>
      </trkpt>
      <trkpt lat="46.48318" lon="-0.37571">
        <ele>83</ele>
        <time>2013-04-26T15:48:02Z</time>
      </trkpt>
      <trkpt lat="46.48315" lon="-0.37571">
        <ele>83</ele>
        <time>2013-04-26T15:48:07Z</time>
      </trkpt>
      <trkpt lat="46.48311" lon="-0.37572">
        <ele>83</ele>
        <time>2013-04-26T15:48:12Z</time>
      </trkpt>
      <trkpt lat="46.48308" lon="-0.37572">
        <ele>83</ele>
        <time>2013-04-26T15:48:17Z</time>
      </trkpt>
      <trkpt lat="46.48305" lon="-0.37573">
        <ele>83</ele>
        <time>2013-04-26T15:48:22Z</time>
      </trkpt>
      <trkpt lat="46.48304" lon="-0.37575">
        <ele>83</ele>
        <time>2013-04-26T15:48:27Z</time>
      </trkpt>
      <trkpt lat="46.48302" lon="-0.37575">
        <ele>83</ele>
        <time>2013-04-26T15:48:32Z</time>
      </trkpt>
      <trkpt lat="46.48295" lon="-0.37579">
        <ele>83</ele>
        <time>2013-04-26T15:48:37Z</time>
      </trkpt>
      <trkpt lat="46.48292" lon="-0.37581">
        <ele>83</ele>
        <time>2013-04-26T15:48:42Z</time>
      </trkpt>
      <trkpt lat="46.48286" lon="-0.37583">
        <ele>89</ele>
        <time>2013-04-26T15:48:47Z</time>
      </trkpt>
      <trkpt lat="46.48281" lon="-0.37583">
        <ele>89</ele>
        <time>2013-04-26T15:48:52Z</time>
      </trkpt>
      <trkpt lat="46.48275" lon="-0.37584">
        <ele>89</ele>
        <time>2013-04-26T15:48:57Z</time>
      </trkpt>
      <trkpt lat="46.48271" lon="-0.37581">
        <ele>89</ele>
        <time>2013-04-26T15:49:02Z</time>
      </trkpt>
      <trkpt lat="46.48267" lon="-0.37579">
        <ele>89</ele>
        <time>2013-04-26T15:49:07Z</time>
      </trkpt>
      <trkpt lat="46.48263" lon="-0.37578">
        <ele>96</ele>
        <time>2013-04-26T15:49:12Z</time>
      </trkpt>
      <trkpt lat="46.4826" lon="-0.37577">
        <ele>96</ele>
        <time>2013-04-26T15:49:17Z</time>
      </trkpt>
      <trkpt lat="46.48257" lon="-0.37575">
        <ele>96</ele>
        <time>2013-04-26T15:49:22Z</time>
      </trkpt>
      <trkpt lat="46.48256" lon="-0.37571">
        <ele>96</ele>
        <time>2013-04-26T15:49:27Z</time>
      </trkpt>
      <trkpt lat="46.48255" lon="-0.3757">
        <ele>96</ele>
        <time>2013-04-26T15:49:32Z</time>
      </trkpt>
      <trkpt lat="46.48253" lon="-0.37566">
        <ele>94</ele>
        <time>2013-04-26T15:49:37Z</time>
      </trkpt>
      <trkpt lat="46.4825" lon="-0.37562">
        <ele>94</ele>
        <time>2013-04-26T15:49:42Z</time>
      </trkpt>
      <trkpt lat="46.48248" lon="-0.37556">
        <ele>94</ele>
        <time>2013-04-26T15:49:47Z</time>
      </trkpt>
      <trkpt lat="46.48247" lon="-0.37552">
        <ele>94</ele>
        <time>2013-04-26T15:49:52Z</time>
      </trkpt>
      <trkpt lat="46.48244" lon="-0.37548">
        <ele>94</ele>
        <time>2013-04-26T15:49:57Z</time>
      </trkpt>
      <trkpt lat="46.48241" lon="-0.37544">
        <ele>94</ele>
        <time>2013-04-26T15:50:02Z</time>
      </trkpt>
      <trkpt lat="46.48238" lon="-0.37539">
        <ele>92</ele>
        <time>2013-04-26T15:50:07Z</time>
      </trkpt>
      <trkpt lat="46.48235" lon="-0.37535">
        <ele>98</ele>
        <time>2013-04-26T15:50:12Z</time>
      </trkpt>
      <trkpt lat="46.48232" lon="-0.37529">
        <ele>98</ele>
        <time>2013-04-26T15:50:17Z</time>
      </trkpt>
      <trkpt lat="46.48229" lon="-0.37524">
        <ele>98</ele>
        <time>2013-04-26T15:50:22Z</time>
      </trkpt>
      <trkpt lat="46.48226" lon="-0.37521">
        <ele>98</ele>
        <time>2013-04-26T15:50:27Z</time>
      </trkpt>
      <trkpt lat="46.48223" lon="-0.37518">
        <ele>98</ele>
        <time>2013-04-26T15:50:32Z</time>
      </trkpt>
      <trkpt lat="46.4822" lon="-0.37516">
        <ele>98</ele>
        <time>2013-04-26T15:50:37Z</time>
      </trkpt>
      <trkpt lat="46.4822" lon="-0.37514">
        <ele>98</ele>
        <time>2013-04-26T15:50:42Z</time>
      </trkpt>
      <trkpt lat="46.48217" lon="-0.3751">
        <ele>97</ele>
        <time>2013-04-26T15:50:47Z</time>
      </trkpt>
      <trkpt lat="46.48215" lon="-0.37507">
        <ele>97</ele>
        <time>2013-04-26T15:50:52Z</time>
      </trkpt>
      <trkpt lat="46.48215" lon="-0.37504">
        <ele>97</ele>
        <time>2013-04-26T15:50:57Z</time>
      </trkpt>
      <trkpt lat="46.48213" lon="-0.37502">
        <ele>97</ele>
        <time>2013-04-26T15:51:02Z</time>
      </trkpt>
      <trkpt lat="46.48211" lon="-0.37498">
        <ele>97</ele>
        <time>2013-04-26T15:51:07Z</time>
      </trkpt>
      <trkpt lat="46.48205" lon="-0.37493">
        <ele>104</ele>
        <time>2013-04-26T15:51:12Z</time>
      </trkpt>
      <trkpt lat="46.48201" lon="-0.37493">
        <ele>104</ele>
        <time>2013-04-26T15:51:17Z</time>
      </trkpt>
      <trkpt lat="46.48197" lon="-0.3749">
        <ele>104</ele>
        <time>2013-04-26T15:51:22Z</time>
      </trkpt>
      <trkpt lat="46.48195" lon="-0.37488">
        <ele>104</ele>
        <time>2013-04-26T15:51:27Z</time>
      </trkpt>
      <trkpt lat="46.48194" lon="-0.37487">
        <ele>104</ele>
        <time>2013-04-26T15:51:32Z</time>
      </trkpt>
      <trkpt lat="46.48192" lon="-0.37485">
        <ele>103</ele>
        <time>2013-04-26T15:51:37Z</time>
      </trkpt>
      <trkpt lat="46.48189" lon="-0.37484">
        <ele>103</ele>
        <time>2013-04-26T15:51:42Z</time>
      </trkpt>
      <trkpt lat="46.48187" lon="-0.37483">
        <ele>103</ele>
        <time>2013-04-26T15:51:47Z</time>
      </trkpt>
      <trkpt lat="46.48185" lon="-0.37483">
        <ele>103</ele>
        <time>2013-04-26T15:51:52Z</time>
      </trkpt>
      <trkpt lat="46.48182" lon="-0.37482">
        <ele>103</ele>
        <time>2013-04-26T15:51:57Z</time>
      </trkpt>
      <trkpt lat="46.48179" lon="-0.37484">
        <ele>109</ele>
        <time>2013-04-26T15:52:02Z</time>
      </trkpt>
      <trkpt lat="46.48177" lon="-0.37483">
        <ele>109</ele>
        <time>2013-04-26T15:52:07Z</time>
      </trkpt>
      <trkpt lat="46.48177" lon="-0.37481">
        <ele>109</ele>
        <time>2013-04-26T15:52:12Z</time>
      </trkpt>
      <trkpt lat="46.48171" lon="-0.37482">
        <ele>109</ele>
        <time>2013-04-26T15:52:17Z</time>
      </trkpt>
      <trkpt lat="46.48163" lon="-0.37485">
        <ele>109</ele>
        <time>2013-04-26T15:52:22Z</time>
      </trkpt>
      <trkpt lat="46.48161" lon="-0.37484">
        <ele>109</ele>
        <time>2013-04-26T15:52:27Z</time>
      </trkpt>
      <trkpt lat="46.48158" lon="-0.37483">
        <ele>109</ele>
        <time>2013-04-26T15:52:32Z</time>
      </trkpt>
      <trkpt lat="46.48151" lon="-0.37481">
        <ele>111</ele>
        <time>2013-04-26T15:52:37Z</time>
      </trkpt>
      <trkpt lat="46.48147" lon="-0.37481">
        <ele>111</ele>
        <time>2013-04-26T15:52:42Z</time>
      </trkpt>
      <trkpt lat="46.48143" lon="-0.37481">
        <ele>111</ele>
        <time>2013-04-26T15:52:47Z</time>
      </trkpt>
      <trkpt lat="46.48139" lon="-0.3748">
        <ele>111</ele>
        <time>2013-04-26T15:52:52Z</time>
      </trkpt>
      <trkpt lat="46.48135" lon="-0.37477">
        <ele>111</ele>
        <time>2013-04-26T15:52:57Z</time>
      </trkpt>
      <trkpt lat="46.48134" lon="-0.37475">
        <ele>111</ele>
        <time>2013-04-26T15:53:02Z</time>
      </trkpt>
      <trkpt lat="46.4813" lon="-0.37472">
        <ele>111</ele>
        <time>2013-04-26T15:53:07Z</time>
      </trkpt>
      <trkpt lat="46.48126" lon="-0.3747">
        <ele>111</ele>
        <time>2013-04-26T15:53:12Z</time>
      </trkpt>
      <trkpt lat="46.48118" lon="-0.3747">
        <ele>112</ele>
        <time>2013-04-26T15:53:17Z</time>
      </trkpt>
      <trkpt lat="46.48114" lon="-0.37474">
        <ele>112</ele>
        <time>2013-04-26T15:53:22Z</time>
      </trkpt>
      <trkpt lat="46.48112" lon="-0.37479">
        <ele>112</ele>
        <time>2013-04-26T15:53:27Z</time>
      </trkpt>
      <trkpt lat="46.48111" lon="-0.37487">
        <ele>112</ele>
        <time>2013-04-26T15:53:32Z</time>
      </trkpt>
      <trkpt lat="46.48112" lon="-0.37494">
        <ele>112</ele>
        <time>2013-04-26T15:53:37Z</time>
      </trkpt>
      <trkpt lat="46.48113" lon="-0.37502">
        <ele>112</ele>
        <time>2013-04-26T15:53:42Z</time>
      </trkpt>
      <trkpt lat="46.48113" lon="-0.3751">
        <ele>112</ele>
        <time>2013-04-26T15:53:47Z</time>
      </trkpt>
      <trkpt lat="46.48114" lon="-0.37517">
        <ele>112</ele>
        <time>2013-04-26T15:53:52Z</time>
      </trkpt>
      <trkpt lat="46.48114" lon="-0.37526">
        <ele>112</ele>
        <time>2013-04-26T15:53:57Z</time>
      </trkpt>
      <trkpt lat="46.48116" lon="-0.37535">
        <ele>112</ele>
        <time>2013-04-26T15:54:02Z</time>
      </trkpt>
      <trkpt lat="46.48119" lon="-0.37542">
        <ele>112</ele>
        <time>2013-04-26T15:54:07Z</time>
      </trkpt>
      <trkpt lat="46.4812" lon="-0.3755">
        <ele>112</ele>
        <time>2013-04-26T15:54:12Z</time>
      </trkpt>
      <trkpt lat="46.48122" lon="-0.37558">
        <ele>112</ele>
        <time>2013-04-26T15:54:17Z</time>
      </trkpt>
      <trkpt lat="46.48125" lon="-0.37565">
        <ele>112</ele>
        <time>2013-04-26T15:54:23Z</time>
      </trkpt>
      <trkpt lat="46.48126" lon="-0.37573">
        <ele>111</ele>
        <time>2013-04-26T15:54:27Z</time>
      </trkpt>
      <trkpt lat="46.48128" lon="-0.37578">
        <ele>111</ele>
        <time>2013-04-26T15:54:32Z</time>
      </trkpt>
      <trkpt lat="46.48129" lon="-0.37582">
        <ele>111</ele>
        <time>2013-04-26T15:54:37Z</time>
      </trkpt>
      <trkpt lat="46.4813" lon="-0.3759">
        <ele>111</ele>
        <time>2013-04-26T15:54:42Z</time>
      </trkpt>
      <trkpt lat="46.48131" lon="-0.37597">
        <ele>111</ele>
        <time>2013-04-26T15:54:47Z</time>
      </trkpt>
      <trkpt lat="46.48133" lon="-0.37601">
        <ele>112</ele>
        <time>2013-04-26T15:54:52Z</time>
      </trkpt>
      <trkpt lat="46.48136" lon="-0.37608">
        <ele>112</ele>
        <time>2013-04-26T15:54:57Z</time>
      </trkpt>
      <trkpt lat="46.48136" lon="-0.37619">
        <ele>112</ele>
        <time>2013-04-26T15:55:02Z</time>
      </trkpt>
      <trkpt lat="46.48137" lon="-0.37627">
        <ele>112</ele>
        <time>2013-04-26T15:55:07Z</time>
      </trkpt>
      <trkpt lat="46.48139" lon="-0.37636">
        <ele>112</ele>
        <time>2013-04-26T15:55:12Z</time>
      </trkpt>
      <trkpt lat="46.48141" lon="-0.37644">
        <ele>112</ele>
        <time>2013-04-26T15:55:17Z</time>
      </trkpt>
      <trkpt lat="46.48143" lon="-0.37651">
        <ele>112</ele>
        <time>2013-04-26T15:55:22Z</time>
      </trkpt>
      <trkpt lat="46.48145" lon="-0.37658">
        <ele>111</ele>
        <time>2013-04-26T15:55:27Z</time>
      </trkpt>
      <trkpt lat="46.48147" lon="-0.37665">
        <ele>111</ele>
        <time>2013-04-26T15:55:32Z</time>
      </trkpt>
      <trkpt lat="46.48148" lon="-0.37674">
        <ele>111</ele>
        <time>2013-04-26T15:55:37Z</time>
      </trkpt>
      <trkpt lat="46.4815" lon="-0.37681">
        <ele>110</ele>
        <time>2013-04-26T15:55:42Z</time>
      </trkpt>
      <trkpt lat="46.48151" lon="-0.37689">
        <ele>110</ele>
        <time>2013-04-26T15:55:47Z</time>
      </trkpt>
      <trkpt lat="46.48153" lon="-0.37696">
        <ele>110</ele>
        <time>2013-04-26T15:55:52Z</time>
      </trkpt>
      <trkpt lat="46.48153" lon="-0.377">
        <ele>110</ele>
        <time>2013-04-26T15:55:57Z</time>
      </trkpt>
      <trkpt lat="46.48154" lon="-0.37702">
        <ele>110</ele>
        <time>2013-04-26T15:56:02Z</time>
      </trkpt>
      <trkpt lat="46.48155" lon="-0.37711">
        <ele>109</ele>
        <time>2013-04-26T15:56:07Z</time>
      </trkpt>
      <trkpt lat="46.48156" lon="-0.37719">
        <ele>109</ele>
        <time>2013-04-26T15:56:12Z</time>
      </trkpt>
      <trkpt lat="46.48157" lon="-0.37727">
        <ele>109</ele>
        <time>2013-04-26T15:56:17Z</time>
      </trkpt>
      <trkpt lat="46.48159" lon="-0.37736">
        <ele>109</ele>
        <time>2013-04-26T15:56:22Z</time>
      </trkpt>
      <trkpt lat="46.48159" lon="-0.37744">
        <ele>108</ele>
        <time>2013-04-26T15:56:27Z</time>
      </trkpt>
      <trkpt lat="46.4816" lon="-0.37753">
        <ele>108</ele>
        <time>2013-04-26T15:56:32Z</time>
      </trkpt>
      <trkpt lat="46.48161" lon="-0.37762">
        <ele>108</ele>
        <time>2013-04-26T15:56:37Z</time>
      </trkpt>
      <trkpt lat="46.48161" lon="-0.37769">
        <ele>109</ele>
        <time>2013-04-26T15:56:42Z</time>
      </trkpt>
      <trkpt lat="46.48162" lon="-0.37775">
        <ele>109</ele>
        <time>2013-04-26T15:56:47Z</time>
      </trkpt>
      <trkpt lat="46.48163" lon="-0.37777">
        <ele>109</ele>
        <time>2013-04-26T15:56:52Z</time>
      </trkpt>
      <trkpt lat="46.48161" lon="-0.37782">
        <ele>109</ele>
        <time>2013-04-26T15:56:57Z</time>
      </trkpt>
      <trkpt lat="46.48159" lon="-0.37791">
        <ele>109</ele>
        <time>2013-04-26T15:57:02Z</time>
      </trkpt>
      <trkpt lat="46.48154" lon="-0.37794">
        <ele>109</ele>
        <time>2013-04-26T15:57:07Z</time>
      </trkpt>
      <trkpt lat="46.48149" lon="-0.37797">
        <ele>109</ele>
        <time>2013-04-26T15:57:12Z</time>
      </trkpt>
      <trkpt lat="46.48144" lon="-0.37798">
        <ele>109</ele>
        <time>2013-04-26T15:57:17Z</time>
      </trkpt>
      <trkpt lat="46.4814" lon="-0.378">
        <ele>109</ele>
        <time>2013-04-26T15:57:22Z</time>
      </trkpt>
      <trkpt lat="46.48135" lon="-0.37802">
        <ele>109</ele>
        <time>2013-04-26T15:57:27Z</time>
      </trkpt>
      <trkpt lat="46.48129" lon="-0.37804">
        <ele>109</ele>
        <time>2013-04-26T15:57:32Z</time>
      </trkpt>
      <trkpt lat="46.48125" lon="-0.37807">
        <ele>109</ele>
        <time>2013-04-26T15:57:37Z</time>
      </trkpt>
      <trkpt lat="46.4812" lon="-0.37809">
        <ele>109</ele>
        <time>2013-04-26T15:57:42Z</time>
      </trkpt>
      <trkpt lat="46.48115" lon="-0.37812">
        <ele>109</ele>
        <time>2013-04-26T15:57:47Z</time>
      </trkpt>
      <trkpt lat="46.48112" lon="-0.37814">
        <ele>109</ele>
        <time>2013-04-26T15:57:52Z</time>
      </trkpt>
      <trkpt lat="46.48105" lon="-0.37818">
        <ele>109</ele>
        <time>2013-04-26T15:57:57Z</time>
      </trkpt>
      <trkpt lat="46.48099" lon="-0.37821">
        <ele>108</ele>
        <time>2013-04-26T15:58:02Z</time>
      </trkpt>
      <trkpt lat="46.48094" lon="-0.37823">
        <ele>107</ele>
        <time>2013-04-26T15:58:07Z</time>
      </trkpt>
      <trkpt lat="46.4809" lon="-0.37827">
        <ele>107</ele>
        <time>2013-04-26T15:58:12Z</time>
      </trkpt>
      <trkpt lat="46.48084" lon="-0.37829">
        <ele>107</ele>
        <time>2013-04-26T15:58:17Z</time>
      </trkpt>
      <trkpt lat="46.48079" lon="-0.3783">
        <ele>107</ele>
        <time>2013-04-26T15:58:22Z</time>
      </trkpt>
      <trkpt lat="46.48073" lon="-0.37832">
        <ele>107</ele>
        <time>2013-04-26T15:58:27Z</time>
      </trkpt>
      <trkpt lat="46.48068" lon="-0.37833">
        <ele>106</ele>
        <time>2013-04-26T15:58:32Z</time>
      </trkpt>
      <trkpt lat="46.48062" lon="-0.37831">
        <ele>106</ele>
        <time>2013-04-26T15:58:37Z</time>
      </trkpt>
      <trkpt lat="46.48058" lon="-0.3783">
        <ele>106</ele>
        <time>2013-04-26T15:58:42Z</time>
      </trkpt>
      <trkpt lat="46.48053" lon="-0.37829">
        <ele>106</ele>
        <time>2013-04-26T15:58:47Z</time>
      </trkpt>
      <trkpt lat="46.48047" lon="-0.37828">
        <ele>106</ele>
        <time>2013-04-26T15:58:52Z</time>
      </trkpt>
      <trkpt lat="46.48042" lon="-0.37827">
        <ele>106</ele>
        <time>2013-04-26T15:58:57Z</time>
      </trkpt>
      <trkpt lat="46.48036" lon="-0.37826">
        <ele>106</ele>
        <time>2013-04-26T15:59:02Z</time>
      </trkpt>
      <trkpt lat="46.48031" lon="-0.37824">
        <ele>106</ele>
        <time>2013-04-26T15:59:07Z</time>
      </trkpt>
      <trkpt lat="46.48025" lon="-0.37822">
        <ele>106</ele>
        <time>2013-04-26T15:59:12Z</time>
      </trkpt>
      <trkpt lat="46.4802" lon="-0.37821">
        <ele>106</ele>
        <time>2013-04-26T15:59:17Z</time>
      </trkpt>
      <trkpt lat="46.48014" lon="-0.37819">
        <ele>107</ele>
        <time>2013-04-26T15:59:22Z</time>
      </trkpt>
      <trkpt lat="46.4801" lon="-0.37818">
        <ele>107</ele>
        <time>2013-04-26T15:59:27Z</time>
      </trkpt>
      <trkpt lat="46.48004" lon="-0.37816">
        <ele>107</ele>
        <time>2013-04-26T15:59:32Z</time>
      </trkpt>
      <trkpt lat="46.47999" lon="-0.37816">
        <ele>107</ele>
        <time>2013-04-26T15:59:37Z</time>
      </trkpt>
      <trkpt lat="46.47995" lon="-0.37816">
        <ele>107</ele>
        <time>2013-04-26T15:59:42Z</time>
      </trkpt>
      <trkpt lat="46.47989" lon="-0.37817">
        <ele>107</ele>
        <time>2013-04-26T15:59:47Z</time>
      </trkpt>
      <trkpt lat="46.47983" lon="-0.37814">
        <ele>108</ele>
        <time>2013-04-26T15:59:52Z</time>
      </trkpt>
      <trkpt lat="46.47978" lon="-0.37811">
        <ele>108</ele>
        <time>2013-04-26T15:59:57Z</time>
      </trkpt>
      <trkpt lat="46.47973" lon="-0.37807">
        <ele>108</ele>
        <time>2013-04-26T16:00:02Z</time>
      </trkpt>
      <trkpt lat="46.47969" lon="-0.37804">
        <ele>108</ele>
        <time>2013-04-26T16:00:07Z</time>
      </trkpt>
      <trkpt lat="46.47963" lon="-0.37802">
        <ele>108</ele>
        <time>2013-04-26T16:00:12Z</time>
      </trkpt>
      <trkpt lat="46.47959" lon="-0.378">
        <ele>108</ele>
        <time>2013-04-26T16:00:17Z</time>
      </trkpt>
      <trkpt lat="46.47953" lon="-0.37798">
        <ele>110</ele>
        <time>2013-04-26T16:00:22Z</time>
      </trkpt>
      <trkpt lat="46.47949" lon="-0.37797">
        <ele>110</ele>
        <time>2013-04-26T16:00:27Z</time>
      </trkpt>
      <trkpt lat="46.47944" lon="-0.37793">
        <ele>110</ele>
        <time>2013-04-26T16:00:32Z</time>
      </trkpt>
      <trkpt lat="46.47937" lon="-0.3779">
        <ele>110</ele>
        <time>2013-04-26T16:00:37Z</time>
      </trkpt>
      <trkpt lat="46.47931" lon="-0.37789">
        <ele>110</ele>
        <time>2013-04-26T16:00:42Z</time>
      </trkpt>
      <trkpt lat="46.47929" lon="-0.37786">
        <ele>110</ele>
        <time>2013-04-26T16:00:47Z</time>
      </trkpt>
      <trkpt lat="46.47924" lon="-0.37784">
        <ele>110</ele>
        <time>2013-04-26T16:00:52Z</time>
      </trkpt>
      <trkpt lat="46.47919" lon="-0.37782">
        <ele>110</ele>
        <time>2013-04-26T16:00:57Z</time>
      </trkpt>
      <trkpt lat="46.47914" lon="-0.37779">
        <ele>110</ele>
        <time>2013-04-26T16:01:02Z</time>
      </trkpt>
      <trkpt lat="46.47908" lon="-0.37777">
        <ele>110</ele>
        <time>2013-04-26T16:01:07Z</time>
      </trkpt>
      <trkpt lat="46.47903" lon="-0.37775">
        <ele>110</ele>
        <time>2013-04-26T16:01:12Z</time>
      </trkpt>
      <trkpt lat="46.47899" lon="-0.37771">
        <ele>110</ele>
        <time>2013-04-26T16:01:17Z</time>
      </trkpt>
      <trkpt lat="46.47893" lon="-0.3777">
        <ele>110</ele>
        <time>2013-04-26T16:01:22Z</time>
      </trkpt>
      <trkpt lat="46.47888" lon="-0.37768">
        <ele>110</ele>
        <time>2013-04-26T16:01:27Z</time>
      </trkpt>
      <trkpt lat="46.47884" lon="-0.37766">
        <ele>110</ele>
        <time>2013-04-26T16:01:32Z</time>
      </trkpt>
      <trkpt lat="46.47879" lon="-0.37764">
        <ele>110</ele>
        <time>2013-04-26T16:01:37Z</time>
      </trkpt>
      <trkpt lat="46.47874" lon="-0.3776">
        <ele>113</ele>
        <time>2013-04-26T16:01:42Z</time>
      </trkpt>
      <trkpt lat="46.4787" lon="-0.3776">
        <ele>113</ele>
        <time>2013-04-26T16:01:47Z</time>
      </trkpt>
      <trkpt lat="46.47864" lon="-0.3776">
        <ele>113</ele>
        <time>2013-04-26T16:01:52Z</time>
      </trkpt>
      <trkpt lat="46.4786" lon="-0.37759">
        <ele>113</ele>
        <time>2013-04-26T16:01:57Z</time>
      </trkpt>
      <trkpt lat="46.47855" lon="-0.37756">
        <ele>113</ele>
        <time>2013-04-26T16:02:02Z</time>
      </trkpt>
      <trkpt lat="46.47848" lon="-0.37755">
        <ele>113</ele>
        <time>2013-04-26T16:02:07Z</time>
      </trkpt>
      <trkpt lat="46.47843" lon="-0.37753">
        <ele>115</ele>
        <time>2013-04-26T16:02:12Z</time>
      </trkpt>
      <trkpt lat="46.47839" lon="-0.37752">
        <ele>115</ele>
        <time>2013-04-26T16:02:17Z</time>
      </trkpt>
      <trkpt lat="46.47836" lon="-0.3775">
        <ele>115</ele>
        <time>2013-04-26T16:02:22Z</time>
      </trkpt>
      <trkpt lat="46.47829" lon="-0.37745">
        <ele>115</ele>
        <time>2013-04-26T16:02:27Z</time>
      </trkpt>
      <trkpt lat="46.47822" lon="-0.37744">
        <ele>115</ele>
        <time>2013-04-26T16:02:32Z</time>
      </trkpt>
      <trkpt lat="46.4782" lon="-0.37742">
        <ele>115</ele>
        <time>2013-04-26T16:02:37Z</time>
      </trkpt>
      <trkpt lat="46.47814" lon="-0.37739">
        <ele>115</ele>
        <time>2013-04-26T16:02:42Z</time>
      </trkpt>
      <trkpt lat="46.47807" lon="-0.37733">
        <ele>115</ele>
        <time>2013-04-26T16:02:47Z</time>
      </trkpt>
      <trkpt lat="46.478" lon="-0.37731">
        <ele>115</ele>
        <time>2013-04-26T16:02:52Z</time>
      </trkpt>
      <trkpt lat="46.47796" lon="-0.37726">
        <ele>115</ele>
        <time>2013-04-26T16:02:57Z</time>
      </trkpt>
      <trkpt lat="46.4779" lon="-0.37722">
        <ele>115</ele>
        <time>2013-04-26T16:03:02Z</time>
      </trkpt>
      <trkpt lat="46.47785" lon="-0.37715">
        <ele>115</ele>
        <time>2013-04-26T16:03:07Z</time>
      </trkpt>
      <trkpt lat="46.47781" lon="-0.37711">
        <ele>115</ele>
        <time>2013-04-26T16:03:12Z</time>
      </trkpt>
      <trkpt lat="46.47776" lon="-0.37706">
        <ele>115</ele>
        <time>2013-04-26T16:03:17Z</time>
      </trkpt>
      <trkpt lat="46.47771" lon="-0.377">
        <ele>115</ele>
        <time>2013-04-26T16:03:22Z</time>
      </trkpt>
      <trkpt lat="46.47768" lon="-0.37696">
        <ele>115</ele>
        <time>2013-04-26T16:03:27Z</time>
      </trkpt>
      <trkpt lat="46.47765" lon="-0.37691">
        <ele>115</ele>
        <time>2013-04-26T16:03:32Z</time>
      </trkpt>
      <trkpt lat="46.47758" lon="-0.37685">
        <ele>116</ele>
        <time>2013-04-26T16:03:37Z</time>
      </trkpt>
      <trkpt lat="46.47754" lon="-0.37679">
        <ele>115</ele>
        <time>2013-04-26T16:03:42Z</time>
      </trkpt>
      <trkpt lat="46.4775" lon="-0.37673">
        <ele>115</ele>
        <time>2013-04-26T16:03:47Z</time>
      </trkpt>
      <trkpt lat="46.47746" lon="-0.37665">
        <ele>115</ele>
        <time>2013-04-26T16:03:52Z</time>
      </trkpt>
      <trkpt lat="46.47744" lon="-0.37661">
        <ele>115</ele>
        <time>2013-04-26T16:03:57Z</time>
      </trkpt>
      <trkpt lat="46.47738" lon="-0.37653">
        <ele>115</ele>
        <time>2013-04-26T16:04:02Z</time>
      </trkpt>
      <trkpt lat="46.47733" lon="-0.37645">
        <ele>114</ele>
        <time>2013-04-26T16:04:07Z</time>
      </trkpt>
      <trkpt lat="46.4773" lon="-0.37639">
        <ele>114</ele>
        <time>2013-04-26T16:04:12Z</time>
      </trkpt>
      <trkpt lat="46.47728" lon="-0.37634">
        <ele>114</ele>
        <time>2013-04-26T16:04:17Z</time>
      </trkpt>
      <trkpt lat="46.47725" lon="-0.37627">
        <ele>114</ele>
        <time>2013-04-26T16:04:22Z</time>
      </trkpt>
      <trkpt lat="46.47722" lon="-0.3762">
        <ele>114</ele>
        <time>2013-04-26T16:04:27Z</time>
      </trkpt>
      <trkpt lat="46.47718" lon="-0.37613">
        <ele>114</ele>
        <time>2013-04-26T16:04:32Z</time>
      </trkpt>
      <trkpt lat="46.47716" lon="-0.37607">
        <ele>114</ele>
        <time>2013-04-26T16:04:37Z</time>
      </trkpt>
      <trkpt lat="46.47712" lon="-0.37601">
        <ele>114</ele>
        <time>2013-04-26T16:04:42Z</time>
      </trkpt>
      <trkpt lat="46.4771" lon="-0.37594">
        <ele>114</ele>
        <time>2013-04-26T16:04:47Z</time>
      </trkpt>
      <trkpt lat="46.47707" lon="-0.37588">
        <ele>113</ele>
        <time>2013-04-26T16:04:52Z</time>
      </trkpt>
      <trkpt lat="46.47703" lon="-0.37578">
        <ele>113</ele>
        <time>2013-04-26T16:04:57Z</time>
      </trkpt>
      <trkpt lat="46.47701" lon="-0.37572">
        <ele>113</ele>
        <time>2013-04-26T16:05:02Z</time>
      </trkpt>
      <trkpt lat="46.47697" lon="-0.37568">
        <ele>113</ele>
        <time>2013-04-26T16:05:07Z</time>
      </trkpt>
      <trkpt lat="46.47694" lon="-0.3756">
        <ele>113</ele>
        <time>2013-04-26T16:05:12Z</time>
      </trkpt>
      <trkpt lat="46.47692" lon="-0.37551">
        <ele>113</ele>
        <time>2013-04-26T16:05:17Z</time>
      </trkpt>
      <trkpt lat="46.4769" lon="-0.37544">
        <ele>113</ele>
        <time>2013-04-26T16:05:22Z</time>
      </trkpt>
      <trkpt lat="46.4769" lon="-0.37533">
        <ele>113</ele>
        <time>2013-04-26T16:05:27Z</time>
      </trkpt>
      <trkpt lat="46.47689" lon="-0.37525">
        <ele>113</ele>
        <time>2013-04-26T16:05:32Z</time>
      </trkpt>
      <trkpt lat="46.47688" lon="-0.37519">
        <ele>113</ele>
        <time>2013-04-26T16:05:37Z</time>
      </trkpt>
      <trkpt lat="46.47687" lon="-0.37512">
        <ele>115</ele>
        <time>2013-04-26T16:05:42Z</time>
      </trkpt>
      <trkpt lat="46.47686" lon="-0.37504">
        <ele>115</ele>
        <time>2013-04-26T16:05:47Z</time>
      </trkpt>
      <trkpt lat="46.47684" lon="-0.37496">
        <ele>115</ele>
        <time>2013-04-26T16:05:52Z</time>
      </trkpt>
      <trkpt lat="46.47684" lon="-0.37488">
        <ele>115</ele>
        <time>2013-04-26T16:05:57Z</time>
      </trkpt>
      <trkpt lat="46.47682" lon="-0.37479">
        <ele>115</ele>
        <time>2013-04-26T16:06:02Z</time>
      </trkpt>
      <trkpt lat="46.47681" lon="-0.3747">
        <ele>115</ele>
        <time>2013-04-26T16:06:07Z</time>
      </trkpt>
      <trkpt lat="46.47682" lon="-0.37462">
        <ele>115</ele>
        <time>2013-04-26T16:06:12Z</time>
      </trkpt>
      <trkpt lat="46.47681" lon="-0.37457">
        <ele>116</ele>
        <time>2013-04-26T16:06:17Z</time>
      </trkpt>
      <trkpt lat="46.47681" lon="-0.37448">
        <ele>116</ele>
        <time>2013-04-26T16:06:22Z</time>
      </trkpt>
      <trkpt lat="46.4768" lon="-0.37439">
        <ele>115</ele>
        <time>2013-04-26T16:06:27Z</time>
      </trkpt>
      <trkpt lat="46.4768" lon="-0.37431">
        <ele>115</ele>
        <time>2013-04-26T16:06:32Z</time>
      </trkpt>
      <trkpt lat="46.4768" lon="-0.37423">
        <ele>115</ele>
        <time>2013-04-26T16:06:37Z</time>
      </trkpt>
      <trkpt lat="46.47678" lon="-0.37413">
        <ele>115</ele>
        <time>2013-04-26T16:06:42Z</time>
      </trkpt>
      <trkpt lat="46.47677" lon="-0.37403">
        <ele>115</ele>
        <time>2013-04-26T16:06:47Z</time>
      </trkpt>
      <trkpt lat="46.47675" lon="-0.37396">
        <ele>115</ele>
        <time>2013-04-26T16:06:52Z</time>
      </trkpt>
      <trkpt lat="46.47673" lon="-0.37392">
        <ele>115</ele>
        <time>2013-04-26T16:06:57Z</time>
      </trkpt>
      <trkpt lat="46.47671" lon="-0.37387">
        <ele>115</ele>
        <time>2013-04-26T16:07:02Z</time>
      </trkpt>
      <trkpt lat="46.47671" lon="-0.37388">
        <ele>115</ele>
        <time>2013-04-26T16:07:07Z</time>
      </trkpt>
      <trkpt lat="46.47668" lon="-0.37382">
        <ele>115</ele>
        <time>2013-04-26T16:07:12Z</time>
      </trkpt>
      <trkpt lat="46.47667" lon="-0.37374">
        <ele>115</ele>
        <time>2013-04-26T16:07:17Z</time>
      </trkpt>
      <trkpt lat="46.47664" lon="-0.37362">
        <ele>115</ele>
        <time>2013-04-26T16:07:22Z</time>
      </trkpt>
      <trkpt lat="46.47663" lon="-0.37356">
        <ele>115</ele>
        <time>2013-04-26T16:07:27Z</time>
      </trkpt>
      <trkpt lat="46.47662" lon="-0.37354">
        <ele>115</ele>
        <time>2013-04-26T16:07:32Z</time>
      </trkpt>
      <trkpt lat="46.47663" lon="-0.37352">
        <ele>115</ele>
        <time>2013-04-26T16:07:37Z</time>
      </trkpt>
      <trkpt lat="46.47665" lon="-0.3735">
        <ele>115</ele>
        <time>2013-04-26T16:07:42Z</time>
      </trkpt>
      <trkpt lat="46.47665" lon="-0.37343">
        <ele>115</ele>
        <time>2013-04-26T16:07:47Z</time>
      </trkpt>
      <trkpt lat="46.47667" lon="-0.37334">
        <ele>115</ele>
        <time>2013-04-26T16:07:52Z</time>
      </trkpt>
      <trkpt lat="46.47672" lon="-0.3733">
        <ele>115</ele>
        <time>2013-04-26T16:07:57Z</time>
      </trkpt>
      <trkpt lat="46.47673" lon="-0.3733">
        <ele>115</ele>
        <time>2013-04-26T16:08:02Z</time>
      </trkpt>
      <trkpt lat="46.47673" lon="-0.3733">
        <ele>115</ele>
        <time>2013-04-26T16:08:07Z</time>
      </trkpt>
      <trkpt lat="46.47673" lon="-0.37331">
        <ele>115</ele>
        <time>2013-04-26T16:08:12Z</time>
      </trkpt>
      <trkpt lat="46.47674" lon="-0.37329">
        <ele>115</ele>
        <time>2013-04-26T16:08:17Z</time>
      </trkpt>
      <trkpt lat="46.47676" lon="-0.37326">
        <ele>115</ele>
        <time>2013-04-26T16:08:22Z</time>
      </trkpt>
      <trkpt lat="46.47679" lon="-0.37323">
        <ele>115</ele>
        <time>2013-04-26T16:08:27Z</time>
      </trkpt>
      <trkpt lat="46.47683" lon="-0.37322">
        <ele>115</ele>
        <time>2013-04-26T16:08:32Z</time>
      </trkpt>
      <trkpt lat="46.47687" lon="-0.37319">
        <ele>116</ele>
        <time>2013-04-26T16:08:37Z</time>
      </trkpt>
      <trkpt lat="46.47693" lon="-0.37315">
        <ele>116</ele>
        <time>2013-04-26T16:08:42Z</time>
      </trkpt>
      <trkpt lat="46.47697" lon="-0.37315">
        <ele>116</ele>
        <time>2013-04-26T16:08:47Z</time>
      </trkpt>
      <trkpt lat="46.47702" lon="-0.37312">
        <ele>116</ele>
        <time>2013-04-26T16:08:52Z</time>
      </trkpt>
      <trkpt lat="46.47708" lon="-0.37309">
        <ele>116</ele>
        <time>2013-04-26T16:08:57Z</time>
      </trkpt>
      <trkpt lat="46.47712" lon="-0.37306">
        <ele>116</ele>
        <time>2013-04-26T16:09:02Z</time>
      </trkpt>
      <trkpt lat="46.47718" lon="-0.37304">
        <ele>116</ele>
        <time>2013-04-26T16:09:07Z</time>
      </trkpt>
      <trkpt lat="46.47724" lon="-0.37302">
        <ele>116</ele>
        <time>2013-04-26T16:09:12Z</time>
      </trkpt>
      <trkpt lat="46.47729" lon="-0.373">
        <ele>116</ele>
        <time>2013-04-26T16:09:17Z</time>
      </trkpt>
      <trkpt lat="46.47729" lon="-0.37299">
        <ele>116</ele>
        <time>2013-04-26T16:09:22Z</time>
      </trkpt>
      <trkpt lat="46.47736" lon="-0.37294">
        <ele>116</ele>
        <time>2013-04-26T16:09:27Z</time>
      </trkpt>
      <trkpt lat="46.47737" lon="-0.37288">
        <ele>118</ele>
        <time>2013-04-26T16:09:32Z</time>
      </trkpt>
      <trkpt lat="46.47737" lon="-0.37283">
        <ele>118</ele>
        <time>2013-04-26T16:09:37Z</time>
      </trkpt>
      <trkpt lat="46.47736" lon="-0.37274">
        <ele>117</ele>
        <time>2013-04-26T16:09:42Z</time>
      </trkpt>
      <trkpt lat="46.47736" lon="-0.37267">
        <ele>117</ele>
        <time>2013-04-26T16:09:47Z</time>
      </trkpt>
      <trkpt lat="46.47735" lon="-0.3726">
        <ele>117</ele>
        <time>2013-04-26T16:09:52Z</time>
      </trkpt>
      <trkpt lat="46.47734" lon="-0.37252">
        <ele>117</ele>
        <time>2013-04-26T16:09:57Z</time>
      </trkpt>
      <trkpt lat="46.47736" lon="-0.37247">
        <ele>117</ele>
        <time>2013-04-26T16:10:02Z</time>
      </trkpt>
      <trkpt lat="46.47738" lon="-0.37241">
        <ele>118</ele>
        <time>2013-04-26T16:10:07Z</time>
      </trkpt>
      <trkpt lat="46.47743" lon="-0.37239">
        <ele>118</ele>
        <time>2013-04-26T16:10:12Z</time>
      </trkpt>
      <trkpt lat="46.47747" lon="-0.37238">
        <ele>118</ele>
        <time>2013-04-26T16:10:17Z</time>
      </trkpt>
      <trkpt lat="46.47754" lon="-0.37237">
        <ele>118</ele>
        <time>2013-04-26T16:10:22Z</time>
      </trkpt>
      <trkpt lat="46.4776" lon="-0.37237">
        <ele>118</ele>
        <time>2013-04-26T16:10:27Z</time>
      </trkpt>
      <trkpt lat="46.47765" lon="-0.37235">
        <ele>120</ele>
        <time>2013-04-26T16:10:32Z</time>
      </trkpt>
      <trkpt lat="46.4777" lon="-0.37235">
        <ele>120</ele>
        <time>2013-04-26T16:10:37Z</time>
      </trkpt>
      <trkpt lat="46.47776" lon="-0.37234">
        <ele>120</ele>
        <time>2013-04-26T16:10:42Z</time>
      </trkpt>
      <trkpt lat="46.4778" lon="-0.37233">
        <ele>120</ele>
        <time>2013-04-26T16:10:47Z</time>
      </trkpt>
      <trkpt lat="46.47786" lon="-0.37232">
        <ele>120</ele>
        <time>2013-04-26T16:10:52Z</time>
      </trkpt>
      <trkpt lat="46.47791" lon="-0.37231">
        <ele>120</ele>
        <time>2013-04-26T16:10:57Z</time>
      </trkpt>
      <trkpt lat="46.47797" lon="-0.37229">
        <ele>120</ele>
        <time>2013-04-26T16:11:02Z</time>
      </trkpt>
      <trkpt lat="46.47803" lon="-0.37229">
        <ele>120</ele>
        <time>2013-04-26T16:11:07Z</time>
      </trkpt>
      <trkpt lat="46.47808" lon="-0.37228">
        <ele>120</ele>
        <time>2013-04-26T16:11:12Z</time>
      </trkpt>
      <trkpt lat="46.47813" lon="-0.37226">
        <ele>120</ele>
        <time>2013-04-26T16:11:17Z</time>
      </trkpt>
      <trkpt lat="46.4782" lon="-0.37225">
        <ele>121</ele>
        <time>2013-04-26T16:11:22Z</time>
      </trkpt>
      <trkpt lat="46.47826" lon="-0.37224">
        <ele>121</ele>
        <time>2013-04-26T16:11:27Z</time>
      </trkpt>
      <trkpt lat="46.47832" lon="-0.37224">
        <ele>121</ele>
        <time>2013-04-26T16:11:32Z</time>
      </trkpt>
      <trkpt lat="46.47836" lon="-0.37225">
        <ele>121</ele>
        <time>2013-04-26T16:11:37Z</time>
      </trkpt>
      <trkpt lat="46.47843" lon="-0.37224">
        <ele>121</ele>
        <time>2013-04-26T16:11:42Z</time>
      </trkpt>
      <trkpt lat="46.47848" lon="-0.37224">
        <ele>121</ele>
        <time>2013-04-26T16:11:47Z</time>
      </trkpt>
      <trkpt lat="46.4785" lon="-0.37224">
        <ele>121</ele>
        <time>2013-04-26T16:11:52Z</time>
      </trkpt>
      <trkpt lat="46.47854" lon="-0.37225">
        <ele>121</ele>
        <time>2013-04-26T16:11:57Z</time>
      </trkpt>
      <trkpt lat="46.47858" lon="-0.37224">
        <ele>121</ele>
        <time>2013-04-26T16:12:02Z</time>
      </trkpt>
      <trkpt lat="46.47862" lon="-0.37224">
        <ele>121</ele>
        <time>2013-04-26T16:12:07Z</time>
      </trkpt>
      <trkpt lat="46.47869" lon="-0.37223">
        <ele>121</ele>
        <time>2013-04-26T16:12:12Z</time>
      </trkpt>
      <trkpt lat="46.47877" lon="-0.37223">
        <ele>119</ele>
        <time>2013-04-26T16:12:17Z</time>
      </trkpt>
      <trkpt lat="46.47885" lon="-0.37224">
        <ele>119</ele>
        <time>2013-04-26T16:12:22Z</time>
      </trkpt>
      <trkpt lat="46.47891" lon="-0.37223">
        <ele>119</ele>
        <time>2013-04-26T16:12:27Z</time>
      </trkpt>
      <trkpt lat="46.47896" lon="-0.37222">
        <ele>119</ele>
        <time>2013-04-26T16:12:32Z</time>
      </trkpt>
      <trkpt lat="46.47902" lon="-0.37222">
        <ele>119</ele>
        <time>2013-04-26T16:12:37Z</time>
      </trkpt>
      <trkpt lat="46.47909" lon="-0.37222">
        <ele>118</ele>
        <time>2013-04-26T16:12:42Z</time>
      </trkpt>
      <trkpt lat="46.47915" lon="-0.37222">
        <ele>118</ele>
        <time>2013-04-26T16:12:47Z</time>
      </trkpt>
      <trkpt lat="46.47921" lon="-0.37222">
        <ele>118</ele>
        <time>2013-04-26T16:12:52Z</time>
      </trkpt>
      <trkpt lat="46.47928" lon="-0.37222">
        <ele>118</ele>
        <time>2013-04-26T16:12:57Z</time>
      </trkpt>
      <trkpt lat="46.47934" lon="-0.37221">
        <ele>119</ele>
        <time>2013-04-26T16:13:02Z</time>
      </trkpt>
      <trkpt lat="46.47942" lon="-0.3722">
        <ele>119</ele>
        <time>2013-04-26T16:13:07Z</time>
      </trkpt>
      <trkpt lat="46.47946" lon="-0.37219">
        <ele>119</ele>
        <time>2013-04-26T16:13:12Z</time>
      </trkpt>
      <trkpt lat="46.47951" lon="-0.3722">
        <ele>119</ele>
        <time>2013-04-26T16:13:17Z</time>
      </trkpt>
      <trkpt lat="46.47958" lon="-0.3722">
        <ele>119</ele>
        <time>2013-04-26T16:13:22Z</time>
      </trkpt>
      <trkpt lat="46.47963" lon="-0.37221">
        <ele>119</ele>
        <time>2013-04-26T16:13:27Z</time>
      </trkpt>
      <trkpt lat="46.47969" lon="-0.37221">
        <ele>119</ele>
        <time>2013-04-26T16:13:32Z</time>
      </trkpt>
      <trkpt lat="46.47975" lon="-0.3722">
        <ele>119</ele>
        <time>2013-04-26T16:13:37Z</time>
      </trkpt>
      <trkpt lat="46.4798" lon="-0.37222">
        <ele>119</ele>
        <time>2013-04-26T16:13:42Z</time>
      </trkpt>
      <trkpt lat="46.47983" lon="-0.37222">
        <ele>119</ele>
        <time>2013-04-26T16:13:47Z</time>
      </trkpt>
      <trkpt lat="46.47992" lon="-0.37224">
        <ele>118</ele>
        <time>2013-04-26T16:13:52Z</time>
      </trkpt>
      <trkpt lat="46.47997" lon="-0.37223">
        <ele>118</ele>
        <time>2013-04-26T16:13:57Z</time>
      </trkpt>
      <trkpt lat="46.48002" lon="-0.37224">
        <ele>118</ele>
        <time>2013-04-26T16:14:02Z</time>
      </trkpt>
      <trkpt lat="46.48007" lon="-0.37225">
        <ele>118</ele>
        <time>2013-04-26T16:14:07Z</time>
      </trkpt>
      <trkpt lat="46.48016" lon="-0.37226">
        <ele>118</ele>
        <time>2013-04-26T16:14:12Z</time>
      </trkpt>
      <trkpt lat="46.48018" lon="-0.37227">
        <ele>118</ele>
        <time>2013-04-26T16:14:17Z</time>
      </trkpt>
      <trkpt lat="46.48025" lon="-0.37229">
        <ele>118</ele>
        <time>2013-04-26T16:14:22Z</time>
      </trkpt>
      <trkpt lat="46.4803" lon="-0.37231">
        <ele>118</ele>
        <time>2013-04-26T16:14:27Z</time>
      </trkpt>
      <trkpt lat="46.48036" lon="-0.37234">
        <ele>118</ele>
        <time>2013-04-26T16:14:32Z</time>
      </trkpt>
      <trkpt lat="46.48044" lon="-0.37237">
        <ele>117</ele>
        <time>2013-04-26T16:14:37Z</time>
      </trkpt>
      <trkpt lat="46.48049" lon="-0.37239">
        <ele>117</ele>
        <time>2013-04-26T16:14:42Z</time>
      </trkpt>
      <trkpt lat="46.48055" lon="-0.3724">
        <ele>117</ele>
        <time>2013-04-26T16:14:47Z</time>
      </trkpt>
      <trkpt lat="46.4806" lon="-0.37242">
        <ele>117</ele>
        <time>2013-04-26T16:14:52Z</time>
      </trkpt>
      <trkpt lat="46.48067" lon="-0.37245">
        <ele>117</ele>
        <time>2013-04-26T16:14:57Z</time>
      </trkpt>
      <trkpt lat="46.48072" lon="-0.37248">
        <ele>116</ele>
        <time>2013-04-26T16:15:02Z</time>
      </trkpt>
      <trkpt lat="46.48078" lon="-0.37251">
        <ele>116</ele>
        <time>2013-04-26T16:15:07Z</time>
      </trkpt>
      <trkpt lat="46.48084" lon="-0.37252">
        <ele>116</ele>
        <time>2013-04-26T16:15:12Z</time>
      </trkpt>
      <trkpt lat="46.48089" lon="-0.37252">
        <ele>116</ele>
        <time>2013-04-26T16:15:17Z</time>
      </trkpt>
      <trkpt lat="46.48095" lon="-0.37255">
        <ele>116</ele>
        <time>2013-04-26T16:15:22Z</time>
      </trkpt>
      <trkpt lat="46.48102" lon="-0.37255">
        <ele>115</ele>
        <time>2013-04-26T16:15:27Z</time>
      </trkpt>
      <trkpt lat="46.48108" lon="-0.37259">
        <ele>115</ele>
        <time>2013-04-26T16:15:32Z</time>
      </trkpt>
      <trkpt lat="46.48113" lon="-0.37261">
        <ele>115</ele>
        <time>2013-04-26T16:15:37Z</time>
      </trkpt>
      <trkpt lat="46.48117" lon="-0.37261">
        <ele>115</ele>
        <time>2013-04-26T16:15:42Z</time>
      </trkpt>
      <trkpt lat="46.48122" lon="-0.3726">
        <ele>115</ele>
        <time>2013-04-26T16:15:47Z</time>
      </trkpt>
      <trkpt lat="46.48127" lon="-0.37256">
        <ele>113</ele>
        <time>2013-04-26T16:15:52Z</time>
      </trkpt>
      <trkpt lat="46.48131" lon="-0.37252">
        <ele>113</ele>
        <time>2013-04-26T16:15:57Z</time>
      </trkpt>
      <trkpt lat="46.48136" lon="-0.3725">
        <ele>113</ele>
        <time>2013-04-26T16:16:02Z</time>
      </trkpt>
      <trkpt lat="46.48137" lon="-0.37245">
        <ele>113</ele>
        <time>2013-04-26T16:16:07Z</time>
      </trkpt>
      <trkpt lat="46.48141" lon="-0.3724">
        <ele>113</ele>
        <time>2013-04-26T16:16:12Z</time>
      </trkpt>
      <trkpt lat="46.48144" lon="-0.37234">
        <ele>112</ele>
        <time>2013-04-26T16:16:17Z</time>
      </trkpt>
      <trkpt lat="46.48149" lon="-0.37229">
        <ele>112</ele>
        <time>2013-04-26T16:16:22Z</time>
      </trkpt>
      <trkpt lat="46.48151" lon="-0.37222">
        <ele>112</ele>
        <time>2013-04-26T16:16:27Z</time>
      </trkpt>
      <trkpt lat="46.48154" lon="-0.37215">
        <ele>105</ele>
        <time>2013-04-26T16:16:32Z</time>
      </trkpt>
      <trkpt lat="46.48157" lon="-0.37209">
        <ele>105</ele>
        <time>2013-04-26T16:16:37Z</time>
      </trkpt>
      <trkpt lat="46.4816" lon="-0.37202">
        <ele>103</ele>
        <time>2013-04-26T16:16:42Z</time>
      </trkpt>
      <trkpt lat="46.48159" lon="-0.37202">
        <ele>103</ele>
        <time>2013-04-26T16:16:47Z</time>
      </trkpt>
      <trkpt lat="46.48159" lon="-0.37201">
        <ele>103</ele>
        <time>2013-04-26T16:16:52Z</time>
      </trkpt>
      <trkpt lat="46.4816" lon="-0.37198">
        <ele>103</ele>
        <time>2013-04-26T16:17:02Z</time>
      </trkpt>
      <trkpt lat="46.4816" lon="-0.37196">
        <ele>103</ele>
        <time>2013-04-26T16:17:07Z</time>
      </trkpt>
      <trkpt lat="46.4816" lon="-0.37197">
        <ele>103</ele>
        <time>2013-04-26T16:17:12Z</time>
      </trkpt>
      <trkpt lat="46.48162" lon="-0.37194">
        <ele>103</ele>
        <time>2013-04-26T16:17:27Z</time>
      </trkpt>
      <trkpt lat="46.48163" lon="-0.37187">
        <ele>103</ele>
        <time>2013-04-26T16:17:32Z</time>
      </trkpt>
      <trkpt lat="46.48164" lon="-0.3718">
        <ele>102</ele>
        <time>2013-04-26T16:17:37Z</time>
      </trkpt>
      <trkpt lat="46.48164" lon="-0.37173">
        <ele>102</ele>
        <time>2013-04-26T16:17:42Z</time>
      </trkpt>
      <trkpt lat="46.48165" lon="-0.37163">
        <ele>102</ele>
        <time>2013-04-26T16:17:47Z</time>
      </trkpt>
      <trkpt lat="46.48165" lon="-0.37157">
        <ele>102</ele>
        <time>2013-04-26T16:17:52Z</time>
      </trkpt>
      <trkpt lat="46.48163" lon="-0.37149">
        <ele>100</ele>
        <time>2013-04-26T16:17:57Z</time>
      </trkpt>
      <trkpt lat="46.48164" lon="-0.37142">
        <ele>100</ele>
        <time>2013-04-26T16:18:02Z</time>
      </trkpt>
      <trkpt lat="46.48164" lon="-0.37136">
        <ele>100</ele>
        <time>2013-04-26T16:18:07Z</time>
      </trkpt>
      <trkpt lat="46.48166" lon="-0.3713">
        <ele>100</ele>
        <time>2013-04-26T16:18:12Z</time>
      </trkpt>
      <trkpt lat="46.48167" lon="-0.37124">
        <ele>101</ele>
        <time>2013-04-26T16:18:17Z</time>
      </trkpt>
      <trkpt lat="46.48168" lon="-0.37119">
        <ele>101</ele>
        <time>2013-04-26T16:18:22Z</time>
      </trkpt>
      <trkpt lat="46.48171" lon="-0.37112">
        <ele>101</ele>
        <time>2013-04-26T16:18:27Z</time>
      </trkpt>
      <trkpt lat="46.48173" lon="-0.37102">
        <ele>101</ele>
        <time>2013-04-26T16:18:32Z</time>
      </trkpt>
      <trkpt lat="46.48175" lon="-0.37091">
        <ele>101</ele>
        <time>2013-04-26T16:18:37Z</time>
      </trkpt>
      <trkpt lat="46.48178" lon="-0.37084">
        <ele>101</ele>
        <time>2013-04-26T16:18:42Z</time>
      </trkpt>
      <trkpt lat="46.4818" lon="-0.37076">
        <ele>101</ele>
        <time>2013-04-26T16:18:47Z</time>
      </trkpt>
      <trkpt lat="46.48183" lon="-0.3707">
        <ele>92</ele>
        <time>2013-04-26T16:18:52Z</time>
      </trkpt>
      <trkpt lat="46.48186" lon="-0.37063">
        <ele>92</ele>
        <time>2013-04-26T16:18:57Z</time>
      </trkpt>
      <trkpt lat="46.48189" lon="-0.37055">
        <ele>92</ele>
        <time>2013-04-26T16:19:02Z</time>
      </trkpt>
      <trkpt lat="46.48193" lon="-0.37048">
        <ele>92</ele>
        <time>2013-04-26T16:19:07Z</time>
      </trkpt>
      <trkpt lat="46.48197" lon="-0.37042">
        <ele>92</ele>
        <time>2013-04-26T16:19:12Z</time>
      </trkpt>
      <trkpt lat="46.482" lon="-0.37037">
        <ele>90</ele>
        <time>2013-04-26T16:19:17Z</time>
      </trkpt>
      <trkpt lat="46.48201" lon="-0.37031">
        <ele>90</ele>
        <time>2013-04-26T16:19:22Z</time>
      </trkpt>
      <trkpt lat="46.48202" lon="-0.37024">
        <ele>90</ele>
        <time>2013-04-26T16:19:27Z</time>
      </trkpt>
      <trkpt lat="46.48204" lon="-0.37018">
        <ele>90</ele>
        <time>2013-04-26T16:19:32Z</time>
      </trkpt>
      <trkpt lat="46.48203" lon="-0.37009">
        <ele>89</ele>
        <time>2013-04-26T16:19:37Z</time>
      </trkpt>
      <trkpt lat="46.48202" lon="-0.36999">
        <ele>89</ele>
        <time>2013-04-26T16:19:42Z</time>
      </trkpt>
      <trkpt lat="46.48199" lon="-0.36994">
        <ele>89</ele>
        <time>2013-04-26T16:19:47Z</time>
      </trkpt>
      <trkpt lat="46.48199" lon="-0.36985">
        <ele>88</ele>
        <time>2013-04-26T16:19:52Z</time>
      </trkpt>
      <trkpt lat="46.482" lon="-0.36978">
        <ele>88</ele>
        <time>2013-04-26T16:19:57Z</time>
      </trkpt>
      <trkpt lat="46.48201" lon="-0.36973">
        <ele>88</ele>
        <time>2013-04-26T16:20:02Z</time>
      </trkpt>
      <trkpt lat="46.48203" lon="-0.36969">
        <ele>88</ele>
        <time>2013-04-26T16:20:07Z</time>
      </trkpt>
      <trkpt lat="46.48203" lon="-0.36968">
        <ele>88</ele>
        <time>2013-04-26T16:20:12Z</time>
      </trkpt>
      <trkpt lat="46.48202" lon="-0.36968">
        <ele>88</ele>
        <time>2013-04-26T16:20:17Z</time>
      </trkpt>
      <trkpt lat="46.48203" lon="-0.36969">
        <ele>88</ele>
        <time>2013-04-26T16:20:32Z</time>
      </trkpt>
      <trkpt lat="46.48203" lon="-0.36967">
        <ele>88</ele>
        <time>2013-04-26T16:20:57Z</time>
      </trkpt>
      <trkpt lat="46.48205" lon="-0.36964">
        <ele>88</ele>
        <time>2013-04-26T16:21:02Z</time>
      </trkpt>
      <trkpt lat="46.48208" lon="-0.36959">
        <ele>88</ele>
        <time>2013-04-26T16:21:07Z</time>
      </trkpt>
      <trkpt lat="46.48208" lon="-0.36958">
        <ele>88</ele>
        <time>2013-04-26T16:21:12Z</time>
      </trkpt>
      <trkpt lat="46.48209" lon="-0.36958">
        <ele>84</ele>
        <time>2013-04-26T16:21:17Z</time>
      </trkpt>
      <trkpt lat="46.4821" lon="-0.36958">
        <ele>84</ele>
        <time>2013-04-26T16:21:22Z</time>
      </trkpt>
      <trkpt lat="46.48214" lon="-0.36954">
        <ele>84</ele>
        <time>2013-04-26T16:21:27Z</time>
      </trkpt>
      <trkpt lat="46.48217" lon="-0.36951">
        <ele>84</ele>
        <time>2013-04-26T16:21:32Z</time>
      </trkpt>
      <trkpt lat="46.4822" lon="-0.36949">
        <ele>84</ele>
        <time>2013-04-26T16:21:37Z</time>
      </trkpt>
      <trkpt lat="46.48225" lon="-0.36947">
        <ele>84</ele>
        <time>2013-04-26T16:21:42Z</time>
      </trkpt>
      <trkpt lat="46.4823" lon="-0.36947">
        <ele>84</ele>
        <time>2013-04-26T16:21:47Z</time>
      </trkpt>
      <trkpt lat="46.48237" lon="-0.36946">
        <ele>84</ele>
        <time>2013-04-26T16:21:52Z</time>
      </trkpt>
      <trkpt lat="46.48241" lon="-0.36948">
        <ele>84</ele>
        <time>2013-04-26T16:21:57Z</time>
      </trkpt>
      <trkpt lat="46.48247" lon="-0.36947">
        <ele>84</ele>
        <time>2013-04-26T16:22:02Z</time>
      </trkpt>
      <trkpt lat="46.48251" lon="-0.36946">
        <ele>84</ele>
        <time>2013-04-26T16:22:07Z</time>
      </trkpt>
      <trkpt lat="46.48255" lon="-0.36943">
        <ele>84</ele>
        <time>2013-04-26T16:22:12Z</time>
      </trkpt>
      <trkpt lat="46.48257" lon="-0.36939">
        <ele>84</ele>
        <time>2013-04-26T16:22:17Z</time>
      </trkpt>
      <trkpt lat="46.48261" lon="-0.36939">
        <ele>84</ele>
        <time>2013-04-26T16:22:22Z</time>
      </trkpt>
      <trkpt lat="46.48273" lon="-0.36937">
        <ele>84</ele>
        <time>2013-04-26T16:22:27Z</time>
      </trkpt>
      <trkpt lat="46.48281" lon="-0.36935">
        <ele>84</ele>
        <time>2013-04-26T16:22:32Z</time>
      </trkpt>
      <trkpt lat="46.48285" lon="-0.36933">
        <ele>84</ele>
        <time>2013-04-26T16:22:37Z</time>
      </trkpt>
      <trkpt lat="46.4829" lon="-0.3693">
        <ele>84</ele>
        <time>2013-04-26T16:22:42Z</time>
      </trkpt>
      <trkpt lat="46.48297" lon="-0.36929">
        <ele>84</ele>
        <time>2013-04-26T16:22:47Z</time>
      </trkpt>
      <trkpt lat="46.48304" lon="-0.36929">
        <ele>84</ele>
        <time>2013-04-26T16:22:52Z</time>
      </trkpt>
      <trkpt lat="46.48309" lon="-0.3693">
        <ele>84</ele>
        <time>2013-04-26T16:22:57Z</time>
      </trkpt>
      <trkpt lat="46.48314" lon="-0.3693">
        <ele>84</ele>
        <time>2013-04-26T16:23:02Z</time>
      </trkpt>
      <trkpt lat="46.48319" lon="-0.36931">
        <ele>85</ele>
        <time>2013-04-26T16:23:07Z</time>
      </trkpt>
      <trkpt lat="46.48326" lon="-0.3693">
        <ele>85</ele>
        <time>2013-04-26T16:23:12Z</time>
      </trkpt>
      <trkpt lat="46.48332" lon="-0.3693">
        <ele>85</ele>
        <time>2013-04-26T16:23:17Z</time>
      </trkpt>
      <trkpt lat="46.48337" lon="-0.36929">
        <ele>85</ele>
        <time>2013-04-26T16:23:22Z</time>
      </trkpt>
      <trkpt lat="46.48341" lon="-0.36927">
        <ele>85</ele>
        <time>2013-04-26T16:23:27Z</time>
      </trkpt>
      <trkpt lat="46.48344" lon="-0.36922">
        <ele>85</ele>
        <time>2013-04-26T16:23:32Z</time>
      </trkpt>
      <trkpt lat="46.48345" lon="-0.36915">
        <ele>85</ele>
        <time>2013-04-26T16:23:37Z</time>
      </trkpt>
      <trkpt lat="46.48348" lon="-0.36909">
        <ele>84</ele>
        <time>2013-04-26T16:23:42Z</time>
      </trkpt>
      <trkpt lat="46.4835" lon="-0.36901">
        <ele>85</ele>
        <time>2013-04-26T16:23:47Z</time>
      </trkpt>
      <trkpt lat="46.48354" lon="-0.36894">
        <ele>85</ele>
        <time>2013-04-26T16:23:52Z</time>
      </trkpt>
      <trkpt lat="46.48355" lon="-0.36887">
        <ele>85</ele>
        <time>2013-04-26T16:23:57Z</time>
      </trkpt>
      <trkpt lat="46.48358" lon="-0.36879">
        <ele>85</ele>
        <time>2013-04-26T16:24:02Z</time>
      </trkpt>
      <trkpt lat="46.4836" lon="-0.36871">
        <ele>85</ele>
        <time>2013-04-26T16:24:07Z</time>
      </trkpt>
      <trkpt lat="46.48363" lon="-0.36863">
        <ele>85</ele>
        <time>2013-04-26T16:24:12Z</time>
      </trkpt>
      <trkpt lat="46.48366" lon="-0.36855">
        <ele>85</ele>
        <time>2013-04-26T16:24:17Z</time>
      </trkpt>
      <trkpt lat="46.48366" lon="-0.36846">
        <ele>86</ele>
        <time>2013-04-26T16:24:22Z</time>
      </trkpt>
      <trkpt lat="46.4837" lon="-0.3684">
        <ele>86</ele>
        <time>2013-04-26T16:24:27Z</time>
      </trkpt>
      <trkpt lat="46.48372" lon="-0.36834">
        <ele>86</ele>
        <time>2013-04-26T16:24:32Z</time>
      </trkpt>
      <trkpt lat="46.48373" lon="-0.36827">
        <ele>86</ele>
        <time>2013-04-26T16:24:37Z</time>
      </trkpt>
      <trkpt lat="46.48376" lon="-0.36819">
        <ele>86</ele>
        <time>2013-04-26T16:24:42Z</time>
      </trkpt>
      <trkpt lat="46.48377" lon="-0.36811">
        <ele>86</ele>
        <time>2013-04-26T16:24:47Z</time>
      </trkpt>
      <trkpt lat="46.48379" lon="-0.36805">
        <ele>86</ele>
        <time>2013-04-26T16:24:52Z</time>
      </trkpt>
      <trkpt lat="46.4838" lon="-0.36798">
        <ele>86</ele>
        <time>2013-04-26T16:24:57Z</time>
      </trkpt>
      <trkpt lat="46.48382" lon="-0.36791">
        <ele>87</ele>
        <time>2013-04-26T16:25:02Z</time>
      </trkpt>
      <trkpt lat="46.48382" lon="-0.36788">
        <ele>87</ele>
        <time>2013-04-26T16:25:07Z</time>
      </trkpt>
      <trkpt lat="46.48382" lon="-0.36789">
        <ele>87</ele>
        <time>2013-04-26T16:25:12Z</time>
      </trkpt>
      <trkpt lat="46.48385" lon="-0.36783">
        <ele>87</ele>
        <time>2013-04-26T16:25:27Z</time>
      </trkpt>
      <trkpt lat="46.48385" lon="-0.36773">
        <ele>87</ele>
        <time>2013-04-26T16:25:32Z</time>
      </trkpt>
      <trkpt lat="46.48386" lon="-0.36761">
        <ele>87</ele>
        <time>2013-04-26T16:25:37Z</time>
      </trkpt>
      <trkpt lat="46.48387" lon="-0.36751">
        <ele>87</ele>
        <time>2013-04-26T16:25:42Z</time>
      </trkpt>
      <trkpt lat="46.48388" lon="-0.36741">
        <ele>87</ele>
        <time>2013-04-26T16:25:47Z</time>
      </trkpt>
      <trkpt lat="46.48389" lon="-0.36733">
        <ele>88</ele>
        <time>2013-04-26T16:25:52Z</time>
      </trkpt>
      <trkpt lat="46.48391" lon="-0.36726">
        <ele>88</ele>
        <time>2013-04-26T16:25:57Z</time>
      </trkpt>
      <trkpt lat="46.48391" lon="-0.36719">
        <ele>88</ele>
        <time>2013-04-26T16:26:02Z</time>
      </trkpt>
      <trkpt lat="46.48393" lon="-0.36718">
        <ele>88</ele>
        <time>2013-04-26T16:26:07Z</time>
      </trkpt>
      <trkpt lat="46.48394" lon="-0.36708">
        <ele>90</ele>
        <time>2013-04-26T16:26:12Z</time>
      </trkpt>
      <trkpt lat="46.48396" lon="-0.36698">
        <ele>90</ele>
        <time>2013-04-26T16:26:17Z</time>
      </trkpt>
      <trkpt lat="46.48399" lon="-0.36687">
        <ele>90</ele>
        <time>2013-04-26T16:26:22Z</time>
      </trkpt>
      <trkpt lat="46.48401" lon="-0.3668">
        <ele>91</ele>
        <time>2013-04-26T16:26:27Z</time>
      </trkpt>
      <trkpt lat="46.48401" lon="-0.36672">
        <ele>91</ele>
        <time>2013-04-26T16:26:32Z</time>
      </trkpt>
      <trkpt lat="46.48401" lon="-0.36665">
        <ele>91</ele>
        <time>2013-04-26T16:26:37Z</time>
      </trkpt>
      <trkpt lat="46.48401" lon="-0.36658">
        <ele>91</ele>
        <time>2013-04-26T16:26:42Z</time>
      </trkpt>
      <trkpt lat="46.48402" lon="-0.36652">
        <ele>92</ele>
        <time>2013-04-26T16:26:47Z</time>
      </trkpt>
      <trkpt lat="46.48401" lon="-0.36644">
        <ele>92</ele>
        <time>2013-04-26T16:26:52Z</time>
      </trkpt>
      <trkpt lat="46.484" lon="-0.36636">
        <ele>92</ele>
        <time>2013-04-26T16:26:57Z</time>
      </trkpt>
      <trkpt lat="46.48401" lon="-0.3663">
        <ele>92</ele>
        <time>2013-04-26T16:27:02Z</time>
      </trkpt>
      <trkpt lat="46.48396" lon="-0.36619">
        <ele>94</ele>
        <time>2013-04-26T16:27:07Z</time>
      </trkpt>
      <trkpt lat="46.48395" lon="-0.36613">
        <ele>94</ele>
        <time>2013-04-26T16:27:12Z</time>
      </trkpt>
      <trkpt lat="46.48394" lon="-0.36606">
        <ele>94</ele>
        <time>2013-04-26T16:27:17Z</time>
      </trkpt>
      <trkpt lat="46.48392" lon="-0.36598">
        <ele>94</ele>
        <time>2013-04-26T16:27:22Z</time>
      </trkpt>
      <trkpt lat="46.48391" lon="-0.36589">
        <ele>95</ele>
        <time>2013-04-26T16:27:27Z</time>
      </trkpt>
      <trkpt lat="46.48388" lon="-0.36581">
        <ele>95</ele>
        <time>2013-04-26T16:27:32Z</time>
      </trkpt>
      <trkpt lat="46.48387" lon="-0.36574">
        <ele>95</ele>
        <time>2013-04-26T16:27:37Z</time>
      </trkpt>
      <trkpt lat="46.48385" lon="-0.36567">
        <ele>97</ele>
        <time>2013-04-26T16:27:42Z</time>
      </trkpt>
      <trkpt lat="46.48384" lon="-0.36559">
        <ele>97</ele>
        <time>2013-04-26T16:27:47Z</time>
      </trkpt>
      <trkpt lat="46.48381" lon="-0.36552">
        <ele>97</ele>
        <time>2013-04-26T16:27:52Z</time>
      </trkpt>
      <trkpt lat="46.48378" lon="-0.36546">
        <ele>97</ele>
        <time>2013-04-26T16:27:57Z</time>
      </trkpt>
      <trkpt lat="46.48376" lon="-0.36541">
        <ele>98</ele>
        <time>2013-04-26T16:28:02Z</time>
      </trkpt>
      <trkpt lat="46.48372" lon="-0.36534">
        <ele>99</ele>
        <time>2013-04-26T16:28:07Z</time>
      </trkpt>
      <trkpt lat="46.4837" lon="-0.36526">
        <ele>99</ele>
        <time>2013-04-26T16:28:12Z</time>
      </trkpt>
      <trkpt lat="46.48368" lon="-0.3652">
        <ele>99</ele>
        <time>2013-04-26T16:28:17Z</time>
      </trkpt>
      <trkpt lat="46.48364" lon="-0.36512">
        <ele>100</ele>
        <time>2013-04-26T16:28:22Z</time>
      </trkpt>
      <trkpt lat="46.48364" lon="-0.36504">
        <ele>100</ele>
        <time>2013-04-26T16:28:27Z</time>
      </trkpt>
      <trkpt lat="46.48362" lon="-0.36497">
        <ele>100</ele>
        <time>2013-04-26T16:28:32Z</time>
      </trkpt>
      <trkpt lat="46.4836" lon="-0.36487">
        <ele>100</ele>
        <time>2013-04-26T16:28:37Z</time>
      </trkpt>
      <trkpt lat="46.48358" lon="-0.36481">
        <ele>100</ele>
        <time>2013-04-26T16:28:42Z</time>
      </trkpt>
      <trkpt lat="46.48357" lon="-0.36472">
        <ele>100</ele>
        <time>2013-04-26T16:28:47Z</time>
      </trkpt>
      <trkpt lat="46.48356" lon="-0.36464">
        <ele>100</ele>
        <time>2013-04-26T16:28:52Z</time>
      </trkpt>
      <trkpt lat="46.48357" lon="-0.36453">
        <ele>101</ele>
        <time>2013-04-26T16:28:57Z</time>
      </trkpt>
      <trkpt lat="46.48357" lon="-0.36444">
        <ele>101</ele>
        <time>2013-04-26T16:29:02Z</time>
      </trkpt>
      <trkpt lat="46.48358" lon="-0.36436">
        <ele>101</ele>
        <time>2013-04-26T16:29:07Z</time>
      </trkpt>
      <trkpt lat="46.48356" lon="-0.36427">
        <ele>101</ele>
        <time>2013-04-26T16:29:12Z</time>
      </trkpt>
      <trkpt lat="46.48355" lon="-0.36418">
        <ele>101</ele>
        <time>2013-04-26T16:29:17Z</time>
      </trkpt>
      <trkpt lat="46.48355" lon="-0.36411">
        <ele>101</ele>
        <time>2013-04-26T16:29:22Z</time>
      </trkpt>
      <trkpt lat="46.48354" lon="-0.36403">
        <ele>101</ele>
        <time>2013-04-26T16:29:27Z</time>
      </trkpt>
      <trkpt lat="46.48355" lon="-0.36395">
        <ele>102</ele>
        <time>2013-04-26T16:29:32Z</time>
      </trkpt>
      <trkpt lat="46.48355" lon="-0.36387">
        <ele>102</ele>
        <time>2013-04-26T16:29:37Z</time>
      </trkpt>
      <trkpt lat="46.48355" lon="-0.36379">
        <ele>102</ele>
        <time>2013-04-26T16:29:42Z</time>
      </trkpt>
      <trkpt lat="46.48356" lon="-0.36371">
        <ele>102</ele>
        <time>2013-04-26T16:29:47Z</time>
      </trkpt>
      <trkpt lat="46.48357" lon="-0.36364">
        <ele>102</ele>
        <time>2013-04-26T16:29:52Z</time>
      </trkpt>
      <trkpt lat="46.48359" lon="-0.36357">
        <ele>102</ele>
        <time>2013-04-26T16:29:57Z</time>
      </trkpt>
      <trkpt lat="46.48363" lon="-0.36348">
        <ele>102</ele>
        <time>2013-04-26T16:30:02Z</time>
      </trkpt>
      <trkpt lat="46.48366" lon="-0.36341">
        <ele>102</ele>
        <time>2013-04-26T16:30:07Z</time>
      </trkpt>
      <trkpt lat="46.48368" lon="-0.36334">
        <ele>102</ele>
        <time>2013-04-26T16:30:12Z</time>
      </trkpt>
      <trkpt lat="46.4837" lon="-0.36329">
        <ele>102</ele>
        <time>2013-04-26T16:30:17Z</time>
      </trkpt>
      <trkpt lat="46.48371" lon="-0.36325">
        <ele>102</ele>
        <time>2013-04-26T16:30:22Z</time>
      </trkpt>
      <trkpt lat="46.48372" lon="-0.36323">
        <ele>102</ele>
        <time>2013-04-26T16:30:27Z</time>
      </trkpt>
      <trkpt lat="46.48371" lon="-0.36324">
        <ele>102</ele>
        <time>2013-04-26T16:30:32Z</time>
      </trkpt>
      <trkpt lat="46.48371" lon="-0.36324">
        <ele>102</ele>
        <time>2013-04-26T16:30:47Z</time>
      </trkpt>
    </trkseg>
  </trk>
</gpx>